Darstellungsparameter: Aktuell verwendete Einstellungen:
Skalierung der Graphiken ... ?
xyx+y,   Skalierungsfaktor:      Skalierung: Modus: x, Faktor: 1
Darstellungszeitraum ... ?
Vom - - bis: - -   Zeitraum: 17.08.2010 - 16.08.2020
Min/Max/Avg-Anzeige ... ?
Zeige MMA aktuell
Zeige MMA Monat
Zeige MMA alles
Zeige --A aktuell
Zeige --A Monat
Zeige --A alles
Keine MMA-Anzeige
MMA:
Minimum Maximum Average (ber die Originaldaten)
MMA-Basis: 23.02.2003 - 17.05.2020
Quicknavigation für Darstellung... ?
Tage:      1T, 2T, 3T, 5T -1T -2T -3T -5T +1T +2T +3T +5T
Wochen: 1W, 2W, 3W -1W -2W -3W +1W +2W +3W
Monate: 1M, 3M, 6M -1M -3M -6M +1M +3M +6M
Jahre:    1J, 3J, 5J, 10J -1J -3J -5J -10J +1J +3J +5J +10J
Nutze für die Darstellung ... ?
Originaldaten oder ...
Mittelwerte Minima Maxima auf...
Stundenbasis Tagesbasis Wochenbasis
Monatsbasis Jahresbasis      Datenbasis: Mittelwerte auf Stundenbasis
Darstellen als:
Statistik (Auto) Statistik J:M      Darstellung:
Zur Graphik,    zurück zur Übersicht aller Sensoren.
 
Tabellarische Datenbersicht: ?
 
Sensor: Nr:Datum:Temp:Abs-Feuchte:Windchill:Wind:
Aussen-T/F 1 17-08-2010 00:00:00 17.62 C 11.95 g/m*3 17.62 C 0 km/h
2 17-08-2010 01:00:00 16.68 C 12.29 g/m*3 16.68 C 0 km/h
3 17-08-2010 02:00:00 16.48 C 12.37 g/m*3 16.48 C 0 km/h
4 17-08-2010 03:00:00 16.42 C 11.79 g/m*3 16.42 C 0 km/h
5 17-08-2010 04:00:00 16.42 C 11.18 g/m*3 16.42 C 0 km/h
6 17-08-2010 05:00:00 15.62 C 11.34 g/m*3 15.62 C 0 km/h
7 17-08-2010 06:00:00 15.84 C 11.23 g/m*3 15.84 C 0 km/h
8 17-08-2010 07:00:00 16.36 C 10.83 g/m*3 16.36 C 0 km/h
9 17-08-2010 08:00:00 16.72 C 10.33 g/m*3 16.72 C 0 km/h
10 17-08-2010 09:00:00 16.98 C 9.65 g/m*3 16.98 C 0 km/h
11 17-08-2010 10:00:00 17.06 C 9.35 g/m*3 17.06 C 0 km/h
12 17-08-2010 11:00:00 17.58 C 9.2 g/m*3 17.58 C 0 km/h
13 17-08-2010 12:00:00 16.62 C 10.13 g/m*3 16.62 C 0 km/h
14 17-08-2010 13:00:00 17.3 C 11.73 g/m*3 17.3 C 0 km/h
15 17-08-2010 14:00:00 17.74 C 9.16 g/m*3 17.74 C 0 km/h
16 17-08-2010 15:00:00 17.08 C 8.75 g/m*3 17.08 C 0 km/h
17 17-08-2010 16:00:00 14.7 C 9.74 g/m*3 14.7 C 0 km/h
18 17-08-2010 17:00:00 14.42 C 9.98 g/m*3 14.42 C 0 km/h
19 17-08-2010 18:00:00 14.8 C 11 g/m*3 14.8 C 0 km/h
20 17-08-2010 19:00:00 14.84 C 11.05 g/m*3 14.84 C 0 km/h
21 17-08-2010 20:00:00 14.32 C 11.02 g/m*3 14.32 C 0 km/h
22 17-08-2010 21:00:00 14.38 C 11.31 g/m*3 14.38 C 0 km/h
23 17-08-2010 22:00:00 14.62 C 10.75 g/m*3 14.62 C 0 km/h
24 17-08-2010 23:00:00 15 C 10.05 g/m*3 15 C 0 km/h
25 18-08-2010 00:00:00 15.52 C 9.66 g/m*3 15.52 C 0 km/h
Sensor: Nr:Datum:Temp:Abs-Feuchte:Windchill:Wind:
Aussen-T/F 26 18-08-2010 01:00:00 15.76 C 9.43 g/m*3 15.76 C 0 km/h
27 18-08-2010 02:00:00 15.54 C 9.43 g/m*3 15.54 C 0 km/h
28 18-08-2010 03:00:00 15.46 C 9.49 g/m*3 15.46 C 0 km/h
29 18-08-2010 04:00:00 15.2 C 9.55 g/m*3 15.2 C 0 km/h
30 18-08-2010 05:00:00 14.96 C 9.8 g/m*3 14.96 C 0 km/h
31 18-08-2010 06:00:00 15.08 C 9.56 g/m*3 15.08 C 0 km/h
32 18-08-2010 07:00:00 15.44 C 9.69 g/m*3 15.44 C 0 km/h
33 18-08-2010 08:00:00 16.16 C 9.88 g/m*3 16.16 C 0 km/h
34 18-08-2010 09:00:00 17.1 C 10.16 g/m*3 17.1 C 0 km/h
35 18-08-2010 10:00:00 18.16 C 10.2 g/m*3 18.16 C 0 km/h
36 18-08-2010 11:00:00 18.7 C 10.18 g/m*3 18.7 C 0 km/h
37 18-08-2010 12:00:00 18.82 C 10.67 g/m*3 18.82 C 0 km/h
38 18-08-2010 13:00:00 20.8 C 10.25 g/m*3 20.8 C 0 km/h
39 18-08-2010 14:00:00 22.84 C 9.04 g/m*3 22.84 C 0 km/h
40 18-08-2010 15:00:00 22.24 C 9.01 g/m*3 22.24 C 0 km/h
41 18-08-2010 16:00:00 23.68 C 9.02 g/m*3 23.68 C 0 km/h
42 18-08-2010 17:00:00 23.88 C 8.86 g/m*3 23.88 C 0 km/h
43 18-08-2010 18:00:00 22.36 C 9.15 g/m*3 22.36 C 0 km/h
44 18-08-2010 19:00:00 20.68 C 9.35 g/m*3 20.68 C 0 km/h
45 18-08-2010 20:00:00 19.44 C 10 g/m*3 19.44 C 0 km/h
46 18-08-2010 21:00:00 18.82 C 10.19 g/m*3 18.82 C 0 km/h
47 18-08-2010 22:00:00 17.6 C 10.59 g/m*3 17.6 C 0 km/h
48 18-08-2010 23:00:00 17.58 C 10.19 g/m*3 17.58 C 0 km/h
49 19-08-2010 00:00:00 17.36 C 9.14 g/m*3 17.36 C 0 km/h
50 19-08-2010 01:00:00 16.86 C 9.18 g/m*3 16.86 C 0 km/h
Sensor: Nr:Datum:Temp:Abs-Feuchte:Windchill:Wind:
Aussen-T/F 51 19-08-2010 02:00:00 16.32 C 8.81 g/m*3 16.32 C 0 km/h
52 19-08-2010 03:00:00 15.9 C 9.21 g/m*3 15.9 C 0 km/h
53 19-08-2010 04:00:00 15.54 C 9.38 g/m*3 15.54 C 0 km/h
54 19-08-2010 05:00:00 15.1 C 9.31 g/m*3 15.1 C 0 km/h
55 19-08-2010 06:00:00 14.18 C 8.9 g/m*3 14.18 C 0 km/h
56 19-08-2010 07:00:00 13.92 C 8.21 g/m*3 13.92 C 0 km/h
57 19-08-2010 08:00:00 14.78 C 8.05 g/m*3 14.78 C 0 km/h
58 19-08-2010 09:00:00 15.72 C 8.06 g/m*3 15.72 C 0 km/h
59 19-08-2010 10:00:00 17.9 C 7.7 g/m*3 17.9 C 0 km/h
60 19-08-2010 11:00:00 20 C 7.26 g/m*3 20 C 0 km/h
61 19-08-2010 12:00:00 21.44 C 6.65 g/m*3 21.44 C 0 km/h
62 19-08-2010 13:00:00 22.64 C 6.16 g/m*3 22.64 C 0 km/h
63 19-08-2010 14:00:00 23.04 C 6.02 g/m*3 23.04 C 0 km/h
64 19-08-2010 15:00:00 23.74 C 6.22 g/m*3 23.74 C 0 km/h
65 19-08-2010 16:00:00 23.28 C 7.64 g/m*3 23.28 C 0 km/h
66 19-08-2010 17:00:00 23.9 C 7.53 g/m*3 23.9 C 0 km/h
67 19-08-2010 18:00:00 25.42 C 5.75 g/m*3 25.42 C 0 km/h
68 19-08-2010 19:00:00 25.24 C 6.63 g/m*3 25.24 C 0 km/h
69 19-08-2010 20:00:00 20.5 C 7.15 g/m*3 20.5 C 0 km/h
70 19-08-2010 21:00:00 18.08 C 7.78 g/m*3 18.08 C 0 km/h
71 19-08-2010 22:00:00 16.86 C 8.01 g/m*3 16.86 C 0 km/h
72 19-08-2010 23:00:00 15.62 C 8.36 g/m*3 15.62 C 0 km/h
73 20-08-2010 00:00:00 14.72 C 8.55 g/m*3 14.72 C 0 km/h
74 20-08-2010 01:00:00 14.04 C 8.61 g/m*3 14.04 C 0 km/h
75 20-08-2010 02:00:00 13.34 C 8.59 g/m*3 13.34 C 0 km/h
Sensor: Nr:Datum:Temp:Abs-Feuchte:Windchill:Wind:
Aussen-T/F 76 20-08-2010 03:00:00 12.8 C 8.62 g/m*3 12.8 C 0 km/h
77 20-08-2010 04:00:00 12.26 C 8.58 g/m*3 12.26 C 0 km/h
78 20-08-2010 05:00:00 11.9 C 8.56 g/m*3 11.9 C 0 km/h
79 20-08-2010 06:00:00 11.48 C 8.54 g/m*3 11.48 C 0 km/h
80 20-08-2010 07:00:00 11.76 C 8.78 g/m*3 11.76 C 0 km/h
81 20-08-2010 08:00:00 12.54 C 9.19 g/m*3 12.54 C 0 km/h
82 20-08-2010 09:00:00 14.5 C 9.85 g/m*3 14.5 C 0 km/h
83 20-08-2010 10:00:00 18.02 C 10.3 g/m*3 18.02 C 0 km/h
84 20-08-2010 11:00:00 20.98 C 10.87 g/m*3 20.98 C 0 km/h
85 20-08-2010 12:00:00 23.76 C 10.86 g/m*3 23.76 C 0 km/h
86 20-08-2010 13:00:00 26.76 C 9.04 g/m*3 26.76 C 0 km/h
87 20-08-2010 14:00:00 28.36 C 7.82 g/m*3 28.36 C 0 km/h
88 20-08-2010 15:00:00 29.54 C 7.45 g/m*3 29.54 C 0 km/h
89 20-08-2010 16:00:00 30.72 C 7.57 g/m*3 30.72 C 0 km/h
90 20-08-2010 17:00:00 31.16 C 7.29 g/m*3 31.16 C 0 km/h
91 20-08-2010 18:00:00 31.22 C 7.64 g/m*3 31.22 C 0 km/h
92 20-08-2010 19:00:00 29.58 C 8.42 g/m*3 29.58 C 0 km/h
93 20-08-2010 20:00:00 25.1 C 9.07 g/m*3 25.1 C 0 km/h
94 20-08-2010 21:00:00 23.08 C 9.58 g/m*3 23.08 C 0 km/h
95 20-08-2010 22:00:00 22.025 C 10.2 g/m*3 22.03 C 0 km/h
96 20-08-2010 23:00:00 20.9 C 10.64 g/m*3 20.9 C 0 km/h
97 21-08-2010 00:00:00 19.76 C 10.77 g/m*3 19.76 C 0 km/h
98 21-08-2010 01:00:00 18.84 C 11.01 g/m*3 18.84 C 0 km/h
99 21-08-2010 02:00:00 18.16 C 11.04 g/m*3 18.16 C 0 km/h
100 21-08-2010 03:00:00 17.66 C 11.11 g/m*3 17.66 C 0 km/h
Sensor: Nr:Datum:Temp:Abs-Feuchte:Windchill:Wind:
Aussen-T/F 101 21-08-2010 04:00:00 17.06 C 11.12 g/m*3 17.06 C 0 km/h
102 21-08-2010 05:00:00 16.46 C 10.95 g/m*3 16.46 C 0 km/h
103 21-08-2010 06:00:00 16.04 C 10.9 g/m*3 16.04 C 0 km/h
104 21-08-2010 07:00:00 16 C 11.06 g/m*3 16 C 0 km/h
105 21-08-2010 08:00:00 16.78 C 11.54 g/m*3 16.78 C 0 km/h
106 21-08-2010 09:00:00 18.42 C 12.22 g/m*3 18.42 C 0 km/h
107 21-08-2010 10:00:00 21.4 C 12.86 g/m*3 21.4 C 0 km/h
108 21-08-2010 11:00:00 24.76 C 12.17 g/m*3 24.76 C 0 km/h
109 21-08-2010 12:00:00 27.54 C 9.81 g/m*3 27.54 C 0 km/h
110 21-08-2010 13:00:00 29.12 C 9.19 g/m*3 29.12 C 0 km/h
111 21-08-2010 14:00:00 30.42 C 8.69 g/m*3 30.42 C 0 km/h
112 21-08-2010 15:00:00 31.28 C 8.51 g/m*3 31.28 C 0 km/h
113 21-08-2010 16:00:00 32.14 C 7.89 g/m*3 32.14 C 0 km/h
114 21-08-2010 17:00:00 32.38 C 7.58 g/m*3 32.38 C 0 km/h
115 21-08-2010 18:00:00 32.42 C 7.39 g/m*3 32.42 C 0 km/h
116 21-08-2010 19:00:00 31.66 C 7.96 g/m*3 31.66 C 0 km/h
117 21-08-2010 20:00:00 28.82 C 9.33 g/m*3 28.82 C 0 km/h
118 21-08-2010 21:00:00 25.72 C 10.26 g/m*3 25.72 C 0 km/h
119 21-08-2010 22:00:00 24.34 C 10.87 g/m*3 24.34 C 0 km/h
120 21-08-2010 23:00:00 23.16 C 11.24 g/m*3 23.16 C 0 km/h
121 22-08-2010 00:00:00 22 C 11.45 g/m*3 22 C 0 km/h
122 22-08-2010 01:00:00 21.04 C 11.68 g/m*3 21.04 C 0 km/h
123 22-08-2010 02:00:00 20.14 C 11.88 g/m*3 20.14 C 0 km/h
124 22-08-2010 03:00:00 19.52 C 12.1 g/m*3 19.52 C 0 km/h
125 22-08-2010 04:00:00 19.16 C 12.11 g/m*3 19.16 C 0 km/h
Sensor: Nr:Datum:Temp:Abs-Feuchte:Windchill:Wind:
Aussen-T/F 126 22-08-2010 05:00:00 18.54 C 12.08 g/m*3 18.54 C 0 km/h
127 22-08-2010 06:00:00 18 C 12.01 g/m*3 18 C 0 km/h
128 22-08-2010 07:00:00 18.3 C 12.2 g/m*3 18.3 C 0 km/h
129 22-08-2010 08:00:00 18.96 C 12.62 g/m*3 18.96 C 0 km/h
130 22-08-2010 09:00:00 20.32 C 12.64 g/m*3 20.32 C 0 km/h
131 22-08-2010 10:00:00 23.1 C 12.69 g/m*3 23.1 C 0 km/h
132 22-08-2010 11:00:00 24.88 C 12.71 g/m*3 24.88 C 0 km/h
133 22-08-2010 12:00:00 27.46 C 11.67 g/m*3 27.46 C 0 km/h
134 22-08-2010 13:00:00 28.44 C 10.53 g/m*3 28.44 C 0 km/h
135 22-08-2010 14:00:00 28.74 C 10.48 g/m*3 28.74 C 0 km/h
136 22-08-2010 15:00:00 25.76 C 12.2 g/m*3 25.76 C 0 km/h
137 22-08-2010 16:00:00 27.8 C 11.89 g/m*3 27.8 C 0 km/h
138 22-08-2010 17:00:00 26.68 C 11.88 g/m*3 26.68 C 0 km/h
139 22-08-2010 18:00:00 26.28 C 11.72 g/m*3 26.28 C 0 km/h
140 22-08-2010 19:00:00 25.52 C 11.57 g/m*3 25.52 C 0 km/h
141 22-08-2010 20:00:00 24.42 C 10.65 g/m*3 24.42 C 0 km/h
142 22-08-2010 21:00:00 23.16 C 11.49 g/m*3 23.16 C 0 km/h
143 22-08-2010 22:00:00 22.66 C 11.69 g/m*3 22.66 C 0 km/h
144 22-08-2010 23:00:00 21.52 C 11.89 g/m*3 21.52 C 0 km/h
145 23-08-2010 00:00:00 20.88 C 12.01 g/m*3 20.88 C 0 km/h
146 23-08-2010 01:00:00 20.38 C 12.16 g/m*3 20.38 C 0 km/h
147 23-08-2010 02:00:00 20.02 C 12.32 g/m*3 20.02 C 0 km/h
148 23-08-2010 03:00:00 19.82 C 12.31 g/m*3 19.82 C 0 km/h
149 23-08-2010 04:00:00 19.52 C 12.33 g/m*3 19.52 C 0 km/h
150 23-08-2010 05:00:00 19.44 C 12.21 g/m*3 19.44 C 0 km/h
Sensor: Nr:Datum:Temp:Abs-Feuchte:Windchill:Wind:
Aussen-T/F 151 23-08-2010 06:00:00 19.48 C 12.34 g/m*3 19.48 C 0 km/h
152 23-08-2010 07:00:00 19.92 C 12.49 g/m*3 19.92 C 0 km/h
153 23-08-2010 08:00:00 19.74 C 13.31 g/m*3 19.74 C 0 km/h
154 23-08-2010 09:00:00 19.44 C 14.52 g/m*3 19.44 C 0 km/h
155 23-08-2010 10:00:00 20.64 C 15.07 g/m*3 20.64 C 0 km/h
156 23-08-2010 11:00:00 22.26 C 14.78 g/m*3 22.26 C 0 km/h
157 23-08-2010 12:00:00 23.08 C 15.61 g/m*3 23.08 C 0 km/h
158 23-08-2010 13:00:00 23.68 C 14.36 g/m*3 23.68 C 0 km/h
159 23-08-2010 14:00:00 24.34 C 14.28 g/m*3 24.34 C 0 km/h
160 23-08-2010 15:00:00 25.86 C 12.32 g/m*3 25.86 C 0 km/h
161 23-08-2010 16:00:00 25.94 C 11.4 g/m*3 25.94 C 0 km/h
162 23-08-2010 17:00:00 23.58 C 11.98 g/m*3 23.58 C 0 km/h
163 23-08-2010 18:00:00 21.12 C 13.76 g/m*3 21.12 C 0 km/h
164 23-08-2010 19:00:00 20.76 C 13.77 g/m*3 20.76 C 0 km/h
165 23-08-2010 20:00:00 20.34 C 12.94 g/m*3 20.34 C 0 km/h
166 23-08-2010 21:00:00 19.8 C 12.61 g/m*3 19.8 C 0 km/h
167 23-08-2010 22:00:00 19.58 C 12.24 g/m*3 19.58 C 0 km/h
168 23-08-2010 23:00:00 19.3 C 11.94 g/m*3 19.3 C 0 km/h
169 24-08-2010 00:00:00 19.18 C 12.09 g/m*3 19.18 C 0 km/h
170 24-08-2010 01:00:00 19.2 C 12.43 g/m*3 19.2 C 0 km/h
171 24-08-2010 02:00:00 19.68 C 12.28 g/m*3 19.68 C 0 km/h
172 24-08-2010 03:00:00 18.34 C 11.85 g/m*3 18.34 C 0 km/h
173 24-08-2010 04:00:00 18.06 C 9.53 g/m*3 18.06 C 0 km/h
174 24-08-2010 05:00:00 17.24 C 9.51 g/m*3 17.24 C 0 km/h
175 24-08-2010 06:00:00 17.08 C 9.48 g/m*3 17.08 C 0 km/h
Sensor: Nr:Datum:Temp:Abs-Feuchte:Windchill:Wind:
Aussen-T/F 176 24-08-2010 07:00:00 16.44 C 9.23 g/m*3 16.44 C 0 km/h
177 24-08-2010 08:00:00 16.16 C 8.45 g/m*3 16.16 C 0 km/h
178 24-08-2010 09:00:00 16.76 C 7.3 g/m*3 16.76 C 0 km/h
179 24-08-2010 10:00:00 17.88 C 7.23 g/m*3 17.88 C 0 km/h
180 24-08-2010 11:00:00 19.08 C 6.88 g/m*3 19.08 C 0 km/h
181 24-08-2010 12:00:00 20.04 C 6.34 g/m*3 20.04 C 0 km/h
182 24-08-2010 13:00:00 21 C 5.94 g/m*3 21 C 0 km/h
183 24-08-2010 14:00:00 21.46 C 5.49 g/m*3 21.46 C 0 km/h
184 24-08-2010 15:00:00 21.82 C 5.11 g/m*3 21.82 C 0 km/h
185 24-08-2010 16:00:00 23.04 C 4.61 g/m*3 23.04 C 0 km/h
186 24-08-2010 17:00:00 23.22 C 4.7 g/m*3 23.22 C 0 km/h
187 24-08-2010 18:00:00 22.92 C 5.11 g/m*3 22.92 C 0 km/h
188 24-08-2010 19:00:00 21.68 C 5.18 g/m*3 21.68 C 0 km/h
189 24-08-2010 20:00:00 19.76 C 5.79 g/m*3 19.76 C 0 km/h
190 24-08-2010 21:00:00 18.28 C 6.12 g/m*3 18.28 C 0 km/h
191 24-08-2010 22:00:00 17.4 C 6.28 g/m*3 17.4 C 0 km/h
192 24-08-2010 23:00:00 16.78 C 6.43 g/m*3 16.78 C 0 km/h
193 25-08-2010 00:00:00 16.16 C 6.55 g/m*3 16.16 C 0 km/h
194 25-08-2010 01:00:00 15.52 C 6.8 g/m*3 15.52 C 0 km/h
195 25-08-2010 02:00:00 14.66 C 7.11 g/m*3 14.66 C 0 km/h
196 25-08-2010 03:00:00 13.76 C 7.56 g/m*3 13.76 C 0 km/h
197 25-08-2010 04:00:00 13.4 C 7.7 g/m*3 13.4 C 0 km/h
198 25-08-2010 05:00:00 13.38 C 7.52 g/m*3 13.38 C 0 km/h
199 25-08-2010 06:00:00 12.94 C 7.71 g/m*3 12.94 C 0 km/h
200 25-08-2010 07:00:00 12.76 C 7.84 g/m*3 12.76 C 0 km/h
Sensor: Nr:Datum:Temp:Abs-Feuchte:Windchill:Wind:
Aussen-T/F 201 25-08-2010 08:00:00 13.54 C 7.86 g/m*3 13.54 C 0 km/h
202 25-08-2010 09:00:00 14.92 C 7.91 g/m*3 14.92 C 0 km/h
203 25-08-2010 10:00:00 16.3 C 7.8 g/m*3 16.3 C 0 km/h
204 25-08-2010 11:00:00 17.9 C 7.82 g/m*3 17.9 C 0 km/h
205 25-08-2010 12:00:00 20 C 7.19 g/m*3 20 C 0 km/h
206 25-08-2010 13:00:00 20.82 C 6.67 g/m*3 20.82 C 0 km/h
207 25-08-2010 14:00:00 21.46 C 6.43 g/m*3 21.46 C 0 km/h
208 25-08-2010 15:00:00 23.54 C 6.1 g/m*3 23.54 C 0 km/h
209 25-08-2010 16:00:00 24.46 C 5.67 g/m*3 24.46 C 0 km/h
210 25-08-2010 17:00:00 23.2 C 6.65 g/m*3 23.2 C 0 km/h
211 25-08-2010 18:00:00 21.9 C 7.1 g/m*3 21.9 C 0 km/h
212 25-08-2010 19:00:00 20.22 C 7.91 g/m*3 20.22 C 0 km/h
213 25-08-2010 20:00:00 19.04 C 8.23 g/m*3 19.04 C 0 km/h
214 25-08-2010 21:00:00 18.12 C 8.35 g/m*3 18.12 C 0 km/h
215 25-08-2010 22:00:00 17.56 C 8.5 g/m*3 17.56 C 0 km/h
216 25-08-2010 23:00:00 17.3 C 8.81 g/m*3 17.3 C 0 km/h
217 26-08-2010 00:00:00 17.28 C 9.06 g/m*3 17.28 C 0 km/h
218 26-08-2010 01:00:00 17.48 C 9.11 g/m*3 17.48 C 0 km/h
219 26-08-2010 02:00:00 16.88 C 9.97 g/m*3 16.88 C 0 km/h
220 26-08-2010 03:00:00 16.86 C 10.04 g/m*3 16.86 C 0 km/h
221 26-08-2010 04:00:00 16.94 C 9.86 g/m*3 16.94 C 0 km/h
222 26-08-2010 05:00:00 18.28 C 10.31 g/m*3 18.28 C 0 km/h
223 26-08-2010 06:00:00 18.18 C 10.53 g/m*3 18.18 C 0 km/h
224 26-08-2010 07:00:00 19.26 C 10.69 g/m*3 19.26 C 0 km/h
225 26-08-2010 08:00:00 20.2 C 11.12 g/m*3 20.2 C 0 km/h
Sensor: Nr:Datum:Temp:Abs-Feuchte:Windchill:Wind:
Aussen-T/F 226 26-08-2010 09:00:00 21.52 C 11.33 g/m*3 21.52 C 0 km/h
227 26-08-2010 10:00:00 22.76 C 11.19 g/m*3 22.76 C 0 km/h
228 26-08-2010 11:00:00 23.76 C 11.16 g/m*3 23.76 C 0 km/h
229 26-08-2010 12:00:00 23.54 C 11.15 g/m*3 23.54 C 0 km/h
230 26-08-2010 13:00:00 22.96 C 11.2 g/m*3 22.96 C 0 km/h
231 26-08-2010 14:00:00 23.8 C 11.19 g/m*3 23.8 C 0 km/h
232 26-08-2010 15:00:00 23.68 C 11.32 g/m*3 23.68 C 0 km/h
233 26-08-2010 16:00:00 23.94 C 11.28 g/m*3 23.94 C 0 km/h
234 26-08-2010 17:00:00 23.62 C 11.29 g/m*3 23.62 C 0 km/h
235 26-08-2010 18:00:00 23.18 C 11.67 g/m*3 23.18 C 0 km/h
236 26-08-2010 19:00:00 21.66 C 13.36 g/m*3 21.66 C 0 km/h
237 26-08-2010 20:00:00 20.94 C 14.49 g/m*3 20.94 C 0 km/h
238 26-08-2010 21:00:00 20.42 C 14.03 g/m*3 20.42 C 0 km/h
239 26-08-2010 22:00:00 19.76 C 14.62 g/m*3 19.76 C 0 km/h
240 26-08-2010 23:00:00 19.44 C 14.95 g/m*3 19.44 C 0 km/h
241 27-08-2010 00:00:00 18.98 C 14.91 g/m*3 18.98 C 0 km/h
242 27-08-2010 01:00:00 18.76 C 14.97 g/m*3 18.76 C 0 km/h
243 27-08-2010 02:00:00 18.62 C 14.98 g/m*3 18.62 C 0 km/h
244 27-08-2010 03:00:00 18.38 C 14.77 g/m*3 18.38 C 0 km/h
245 27-08-2010 04:00:00 18.34 C 14.73 g/m*3 18.34 C 0 km/h
246 27-08-2010 05:00:00 18.4 C 14.88 g/m*3 18.4 C 0 km/h
247 27-08-2010 06:00:00 18.82 C 15.32 g/m*3 18.82 C 0 km/h
248 27-08-2010 07:00:00 18.68 C 15.03 g/m*3 18.68 C 0 km/h
249 27-08-2010 08:00:00 18.58 C 14.94 g/m*3 18.58 C 0 km/h
250 27-08-2010 09:00:00 19.26 C 15.06 g/m*3 19.26 C 0 km/h
Sensor: Nr:Datum:Temp:Abs-Feuchte:Windchill:Wind:
Aussen-T/F 251 27-08-2010 10:00:00 19.32 C 14.35 g/m*3 19.32 C 0 km/h
252 27-08-2010 11:00:00 18.16 C 13.58 g/m*3 18.16 C 0 km/h
253 27-08-2010 12:00:00 20.1 C 13.52 g/m*3 20.1 C 0 km/h
254 27-08-2010 13:00:00 22.92 C 12.6 g/m*3 22.92 C 0 km/h
255 27-08-2010 14:00:00 20.76 C 12.07 g/m*3 20.76 C 0 km/h
256 27-08-2010 15:00:00 18.92 C 13.49 g/m*3 18.92 C 0 km/h
257 27-08-2010 16:00:00 21.9 C 12.89 g/m*3 21.9 C 0 km/h
258 27-08-2010 17:00:00 21.3 C 11.71 g/m*3 21.3 C 0 km/h
259 27-08-2010 18:00:00 16.8 C 12.01 g/m*3 16.8 C 0 km/h
260 27-08-2010 19:00:00 15.64 C 10.93 g/m*3 15.64 C 0 km/h
261 27-08-2010 20:00:00 15.12 C 10.44 g/m*3 15.12 C 0 km/h
262 27-08-2010 21:00:00 14.58 C 10.17 g/m*3 14.58 C 0 km/h
263 27-08-2010 22:00:00 14.74 C 10.02 g/m*3 14.74 C 0 km/h
264 27-08-2010 23:00:00 13.96 C 9.34 g/m*3 13.96 C 0 km/h
265 28-08-2010 00:00:00 13.78 C 9.21 g/m*3 13.78 C 0 km/h
266 28-08-2010 01:00:00 13.1 C 9.88 g/m*3 13.1 C 0 km/h
267 28-08-2010 02:00:00 13.14 C 9.82 g/m*3 13.14 C 0 km/h
268 28-08-2010 03:00:00 13.1 C 9.56 g/m*3 13.1 C 0 km/h
269 28-08-2010 04:00:00 12.54 C 9.3 g/m*3 12.54 C 0 km/h
270 28-08-2010 05:00:00 12.12 C 9.15 g/m*3 12.12 C 0 km/h
271 28-08-2010 06:00:00 11.58 C 8.76 g/m*3 11.58 C 0 km/h
272 28-08-2010 07:00:00 11.72 C 8.88 g/m*3 11.72 C 0 km/h
273 28-08-2010 08:00:00 13.08 C 8.94 g/m*3 13.08 C 0 km/h
274 28-08-2010 09:00:00 14.22 C 8.58 g/m*3 14.22 C 0 km/h
275 28-08-2010 10:00:00 15.14 C 8.35 g/m*3 15.14 C 0 km/h
Sensor: Nr:Datum:Temp:Abs-Feuchte:Windchill:Wind:
Aussen-T/F 276 28-08-2010 11:00:00 16.44 C 7.81 g/m*3 16.44 C 0 km/h
277 28-08-2010 12:00:00 15.42 C 8.71 g/m*3 15.42 C 0 km/h
278 28-08-2010 13:00:00 16.24 C 10.62 g/m*3 16.24 C 0 km/h
279 28-08-2010 14:00:00 15.6 C 7.69 g/m*3 15.6 C 0 km/h
280 28-08-2010 15:00:00 16.72 C 7.46 g/m*3 16.72 C 0 km/h
281 28-08-2010 16:00:00 15.1 C 8.08 g/m*3 15.1 C 0 km/h
282 28-08-2010 17:00:00 15.6 C 8.67 g/m*3 15.6 C 0 km/h
283 28-08-2010 18:00:00 17.56 C 7.42 g/m*3 17.56 C 0 km/h
284 28-08-2010 19:00:00 15.26 C 8.34 g/m*3 15.26 C 0 km/h
285 28-08-2010 20:00:00 13.1 C 9.04 g/m*3 13.1 C 0 km/h
286 28-08-2010 21:00:00 12.46 C 9.12 g/m*3 12.46 C 0 km/h
287 28-08-2010 22:00:00 12.24 C 8.96 g/m*3 12.24 C 0 km/h
288 28-08-2010 23:00:00 12.36 C 8.72 g/m*3 12.36 C 0 km/h
289 29-08-2010 00:00:00 11.9 C 8.47 g/m*3 11.9 C 0 km/h
290 29-08-2010 01:00:00 11.5 C 8.45 g/m*3 11.5 C 0 km/h
291 29-08-2010 02:00:00 11.74 C 8.54 g/m*3 11.74 C 0 km/h
292 29-08-2010 03:00:00 11.76 C 8.48 g/m*3 11.76 C 0 km/h
293 29-08-2010 04:00:00 11.5 C 8.39 g/m*3 11.5 C 0 km/h
294 29-08-2010 05:00:00 11.74 C 8.33 g/m*3 11.74 C 0 km/h
295 29-08-2010 06:00:00 12.1 C 8.3 g/m*3 12.1 C 0 km/h
296 29-08-2010 07:00:00 12.2 C 8.33 g/m*3 12.2 C 0 km/h
297 29-08-2010 08:00:00 12.44 C 8.35 g/m*3 12.44 C 0 km/h
298 29-08-2010 09:00:00 14 C 8.18 g/m*3 14 C 0 km/h
299 29-08-2010 10:00:00 15.4 C 8.04 g/m*3 15.4 C 0 km/h
300 29-08-2010 11:00:00 16.26 C 7.92 g/m*3 16.26 C 0 km/h
Sensor: Nr:Datum:Temp:Abs-Feuchte:Windchill:Wind:
Aussen-T/F 301 29-08-2010 12:00:00 15.12 C 9.04 g/m*3 15.12 C 0 km/h
302 29-08-2010 13:00:00 16.04 C 8.71 g/m*3 16.04 C 0 km/h
303 29-08-2010 14:00:00 16.46 C 8.4 g/m*3 16.46 C 0 km/h
304 29-08-2010 15:00:00 15.08 C 8.92 g/m*3 15.08 C 0 km/h
305 29-08-2010 16:00:00 15.76 C 8.51 g/m*3 15.76 C 0 km/h
306 29-08-2010 17:00:00 14.96 C 8.31 g/m*3 14.96 C 0 km/h
307 29-08-2010 18:00:00 13.06 C 9.31 g/m*3 13.06 C 0 km/h
308 29-08-2010 19:00:00 12 C 9.29 g/m*3 12 C 0 km/h
309 29-08-2010 20:00:00 11.78 C 8.96 g/m*3 11.78 C 0 km/h
310 29-08-2010 21:00:00 11.64 C 8.71 g/m*3 11.64 C 0 km/h
311 29-08-2010 22:00:00 9.2 C 8.02 g/m*3 9.2 C 0 km/h
312 29-08-2010 23:00:00 9.12 C 8.16 g/m*3 9.12 C 0 km/h
313 30-08-2010 00:00:00 9.2 C 7.98 g/m*3 9.2 C 0 km/h
314 30-08-2010 01:00:00 9.94 C 7.84 g/m*3 9.94 C 0 km/h
315 30-08-2010 02:00:00 10.52 C 7.77 g/m*3 10.52 C 0 km/h
316 30-08-2010 03:00:00 10.82 C 7.66 g/m*3 10.82 C 0 km/h
317 30-08-2010 04:00:00 10.26 C 7.99 g/m*3 10.26 C 0 km/h
318 30-08-2010 05:00:00 9.62 C 8.02 g/m*3 9.62 C 0 km/h
319 30-08-2010 06:00:00 10.06 C 8.47 g/m*3 10.06 C 0 km/h
320 30-08-2010 07:00:00 9.96 C 8.4 g/m*3 9.96 C 0 km/h
321 30-08-2010 08:00:00 10.82 C 8.63 g/m*3 10.82 C 0 km/h
322 30-08-2010 09:00:00 10.98 C 8.64 g/m*3 10.98 C 0 km/h
323 30-08-2010 10:00:00 11.86 C 8.83 g/m*3 11.86 C 0 km/h
324 30-08-2010 11:00:00 13 C 8.32 g/m*3 13 C 0 km/h
325 30-08-2010 12:00:00 14.02 C 7.63 g/m*3 14.02 C 0 km/h
Sensor: Nr:Datum:Temp:Abs-Feuchte:Windchill:Wind:
Aussen-T/F 326 30-08-2010 13:00:00 16.04 C 6.77 g/m*3 16.04 C 0 km/h
327 30-08-2010 14:00:00 16.28 C 7.73 g/m*3 16.28 C 0 km/h
328 30-08-2010 15:00:00 17.48 C 7.8 g/m*3 17.48 C 0 km/h
329 30-08-2010 16:00:00 15.86 C 9.16 g/m*3 15.86 C 0 km/h
330 30-08-2010 17:00:00 15.04 C 9.23 g/m*3 15.04 C 0 km/h
331 30-08-2010 18:00:00 14.32 C 8.76 g/m*3 14.32 C 0 km/h
332 30-08-2010 19:00:00 14.04 C 8.97 g/m*3 14.04 C 0 km/h
333 30-08-2010 20:00:00 13.76 C 8.72 g/m*3 13.76 C 0 km/h
334 30-08-2010 21:00:00 12.72 C 9.56 g/m*3 12.72 C 0 km/h
335 30-08-2010 22:00:00 12.72 C 9.92 g/m*3 12.72 C 0 km/h
336 30-08-2010 23:00:00 12.3 C 9.69 g/m*3 12.3 C 0 km/h
337 31-08-2010 00:00:00 12.22 C 9.62 g/m*3 12.22 C 0 km/h
338 31-08-2010 01:00:00 12.42 C 9.45 g/m*3 12.42 C 0 km/h
339 31-08-2010 02:00:00 12.36 C 9.31 g/m*3 12.36 C 0 km/h
340 31-08-2010 03:00:00 12.1 C 9.07 g/m*3 12.1 C 0 km/h
341 31-08-2010 04:00:00 11.52 C 9.06 g/m*3 11.52 C 0 km/h
342 31-08-2010 05:00:00 11.38 C 9.04 g/m*3 11.38 C 0 km/h
343 31-08-2010 06:00:00 11.7 C 9.22 g/m*3 11.7 C 0 km/h
344 31-08-2010 07:00:00 12.2 C 9.09 g/m*3 12.2 C 0 km/h
345 31-08-2010 08:00:00 12.64 C 9.07 g/m*3 12.64 C 0 km/h
346 31-08-2010 09:00:00 13.58 C 8.86 g/m*3 13.58 C 0 km/h
347 31-08-2010 10:00:00 14.14 C 8.35 g/m*3 14.14 C 0 km/h
348 31-08-2010 11:00:00 15.6 C 8.09 g/m*3 15.6 C 0 km/h
349 31-08-2010 12:00:00 16.88 C 7.93 g/m*3 16.88 C 0 km/h
350 31-08-2010 13:00:00 17.96 C 6.99 g/m*3 17.96 C 0 km/h
Sensor: Nr:Datum:Temp:Abs-Feuchte:Windchill:Wind:
Aussen-T/F 351 31-08-2010 14:00:00 20.16 C 6.45 g/m*3 20.16 C 0 km/h
352 31-08-2010 15:00:00 21.2 C 5.86 g/m*3 21.2 C 0 km/h
353 31-08-2010 16:00:00 21.46 C 5.64 g/m*3 21.46 C 0 km/h
354 31-08-2010 17:00:00 21.82 C 5.57 g/m*3 21.82 C 0 km/h
355 31-08-2010 18:00:00 22.26 C 5.67 g/m*3 22.26 C 0 km/h
356 31-08-2010 19:00:00 20.32 C 6.55 g/m*3 20.32 C 0 km/h
357 31-08-2010 20:00:00 16.38 C 7.17 g/m*3 16.38 C 0 km/h
358 31-08-2010 21:00:00 14.44 C 7.61 g/m*3 14.44 C 0 km/h
359 31-08-2010 22:00:00 13.24 C 8.1 g/m*3 13.24 C 0 km/h
360 31-08-2010 23:00:00 12.32 C 8.09 g/m*3 12.32 C 0 km/h
361 01-09-2010 00:00:00 11.58 C 8.08 g/m*3 11.58 C 0 km/h
362 01-09-2010 01:00:00 10.98 C 8.1 g/m*3 10.98 C 0 km/h
363 01-09-2010 02:00:00 10.36 C 7.96 g/m*3 10.36 C 0 km/h
364 01-09-2010 03:00:00 9.74 C 7.97 g/m*3 9.74 C 0 km/h
365 01-09-2010 04:00:00 9.14 C 7.86 g/m*3 9.14 C 0 km/h
366 01-09-2010 05:00:00 8.92 C 7.95 g/m*3 8.92 C 0 km/h
367 01-09-2010 06:00:00 8.94 C 8.04 g/m*3 8.94 C 0 km/h
368 01-09-2010 07:00:00 9.02 C 7.98 g/m*3 9.02 C 0 km/h
369 01-09-2010 08:00:00 9.26 C 8.05 g/m*3 9.26 C 0 km/h
370 01-09-2010 09:00:00 10.22 C 8.14 g/m*3 10.22 C 0 km/h
371 01-09-2010 10:00:00 12.1 C 8.56 g/m*3 12.1 C 0 km/h
372 01-09-2010 11:00:00 14.26 C 8.78 g/m*3 14.26 C 0 km/h
373 01-09-2010 12:00:00 17.24 C 8.54 g/m*3 17.24 C 0 km/h
374 01-09-2010 13:00:00 19.52 C 7.96 g/m*3 19.52 C 0 km/h
375 01-09-2010 14:00:00 21.18 C 7.03 g/m*3 21.18 C 0 km/h
Sensor: Nr:Datum:Temp:Abs-Feuchte:Windchill:Wind:
Aussen-T/F 376 01-09-2010 15:00:00 23.6 C 6 g/m*3 23.6 C 0 km/h
377 01-09-2010 16:00:00 23.8 C 6.02 g/m*3 23.8 C 0 km/h
378 01-09-2010 17:00:00 22.04 C 6.38 g/m*3 22.04 C 0 km/h
379 01-09-2010 18:00:00 21.1 C 6.96 g/m*3 21.1 C 0 km/h
380 01-09-2010 19:00:00 19.62 C 7.88 g/m*3 19.62 C 0 km/h
381 01-09-2010 20:00:00 17.36 C 8.72 g/m*3 17.36 C 0 km/h
382 01-09-2010 21:00:00 16.24 C 8.85 g/m*3 16.24 C 0 km/h
383 01-09-2010 22:00:00 15.55 C 8.82 g/m*3 15.55 C 0 km/h
384 01-09-2010 23:00:00 14.16 C 8.28 g/m*3 14.16 C 0 km/h
385 02-09-2010 00:00:00 13.02 C 8.22 g/m*3 13.02 C 0 km/h
386 02-09-2010 01:00:00 12.32 C 8.37 g/m*3 12.32 C 0 km/h
387 02-09-2010 02:00:00 11.6 C 8.56 g/m*3 11.6 C 0 km/h
388 02-09-2010 03:00:00 11 C 8.31 g/m*3 11 C 0 km/h
389 02-09-2010 04:00:00 10.44 C 8.29 g/m*3 10.44 C 0 km/h
390 02-09-2010 05:00:00 10.32 C 8.5 g/m*3 10.32 C 0 km/h
391 02-09-2010 06:00:00 10.34 C 8.6 g/m*3 10.34 C 0 km/h
392 02-09-2010 07:00:00 10.68 C 8.81 g/m*3 10.68 C 0 km/h
393 02-09-2010 08:00:00 11.34 C 8.96 g/m*3 11.34 C 0 km/h
394 02-09-2010 09:00:00 12.4 C 8.98 g/m*3 12.4 C 0 km/h
395 02-09-2010 10:00:00 14.02 C 8.65 g/m*3 14.02 C 0 km/h
396 02-09-2010 11:00:00 15.46 C 9.02 g/m*3 15.46 C 0 km/h
397 02-09-2010 12:00:00 18.66 C 8.75 g/m*3 18.66 C 0 km/h
398 02-09-2010 13:00:00 20.84 C 7.37 g/m*3 20.84 C 0 km/h
399 02-09-2010 14:00:00 22.2 C 7.22 g/m*3 22.2 C 0 km/h
400 02-09-2010 15:00:00 21.42 C 6.91 g/m*3 21.42 C 0 km/h
Sensor: Nr:Datum:Temp:Abs-Feuchte:Windchill:Wind:
Aussen-T/F 401 02-09-2010 16:00:00 20.6 C 6.91 g/m*3 20.6 C 0 km/h
402 02-09-2010 17:00:00 19.54 C 7.13 g/m*3 19.54 C 0 km/h
403 02-09-2010 18:00:00 18.66 C 7.41 g/m*3 18.66 C 0 km/h
404 02-09-2010 19:00:00 17.64 C 8.93 g/m*3 17.64 C 0 km/h
405 02-09-2010 20:00:00 15.14 C 10.01 g/m*3 15.14 C 0 km/h
406 02-09-2010 21:00:00 14.42 C 9.85 g/m*3 14.42 C 0 km/h
407 02-09-2010 22:00:00 13.84 C 9.34 g/m*3 13.84 C 0 km/h
408 02-09-2010 23:00:00 12.98 C 9.2 g/m*3 12.98 C 0 km/h
409 03-09-2010 00:00:00 12.42 C 9.1 g/m*3 12.42 C 0 km/h
410 03-09-2010 01:00:00 11.82 C 8.92 g/m*3 11.82 C 0 km/h
411 03-09-2010 02:00:00 11.24 C 8.76 g/m*3 11.24 C 0 km/h
412 03-09-2010 03:00:00 10.72 C 8.63 g/m*3 10.72 C 0 km/h
413 03-09-2010 04:00:00 10.34 C 8.6 g/m*3 10.34 C 0 km/h
414 03-09-2010 05:00:00 10.4 C 8.75 g/m*3 10.4 C 0 km/h
415 03-09-2010 06:00:00 11.08 C 9.24 g/m*3 11.08 C 0 km/h
416 03-09-2010 07:00:00 11.36 C 9.32 g/m*3 11.36 C 0 km/h
417 03-09-2010 08:00:00 11.64 C 9.34 g/m*3 11.64 C 0 km/h
418 03-09-2010 09:00:00 12.44 C 9.29 g/m*3 12.44 C 0 km/h
419 03-09-2010 10:00:00 13.58 C 9.22 g/m*3 13.58 C 0 km/h
420 03-09-2010 11:00:00 15.9 C 8.94 g/m*3 15.9 C 0 km/h
421 03-09-2010 12:00:00 17.86 C 8.47 g/m*3 17.86 C 0 km/h
422 03-09-2010 13:00:00 19.68 C 8.18 g/m*3 19.68 C 0 km/h
423 03-09-2010 14:00:00 20.4 C 7.64 g/m*3 20.4 C 0 km/h
424 03-09-2010 15:00:00 22.78 C 7.02 g/m*3 22.78 C 0 km/h
425 03-09-2010 16:00:00 25.12 C 6.58 g/m*3 25.12 C 0 km/h
Sensor: Nr:Datum:Temp:Abs-Feuchte:Windchill:Wind:
Aussen-T/F 426 03-09-2010 17:00:00 24.12 C 6.53 g/m*3 24.12 C 0 km/h
427 03-09-2010 18:00:00 22.7 C 8.12 g/m*3 22.7 C 0 km/h
428 03-09-2010 19:00:00 20.7 C 8.86 g/m*3 20.7 C 0 km/h
429 03-09-2010 20:00:00 18.62 C 8.25 g/m*3 18.62 C 0 km/h
430 03-09-2010 21:00:00 16.32 C 8.56 g/m*3 16.32 C 0 km/h
431 03-09-2010 22:00:00 15.36 C 8.86 g/m*3 15.36 C 0 km/h
432 03-09-2010 23:00:00 15.34 C 9.22 g/m*3 15.34 C 0 km/h
433 04-09-2010 00:00:00 15.1 C 9.29 g/m*3 15.1 C 0 km/h
434 04-09-2010 01:00:00 14.82 C 9.41 g/m*3 14.82 C 0 km/h
435 04-09-2010 02:00:00 14.28 C 9.4 g/m*3 14.28 C 0 km/h
436 04-09-2010 03:00:00 13.72 C 9.41 g/m*3 13.72 C 0 km/h
437 04-09-2010 04:00:00 13.2 C 9.48 g/m*3 13.2 C 0 km/h
438 04-09-2010 05:00:00 13.1 C 9.59 g/m*3 13.1 C 0 km/h
439 04-09-2010 06:00:00 12.54 C 9.3 g/m*3 12.54 C 0 km/h
440 04-09-2010 07:00:00 12.08 C 9.25 g/m*3 12.08 C 0 km/h
441 04-09-2010 08:00:00 12.8 C 9.77 g/m*3 12.8 C 0 km/h
442 04-09-2010 09:00:00 14.44 C 9.96 g/m*3 14.44 C 0 km/h
443 04-09-2010 10:00:00 16.3 C 9.49 g/m*3 16.3 C 0 km/h
444 04-09-2010 11:00:00 18.88 C 8.77 g/m*3 18.88 C 0 km/h
445 04-09-2010 12:00:00 18.86 C 7.89 g/m*3 18.86 C 0 km/h
446 04-09-2010 13:00:00 19.58 C 7.62 g/m*3 19.58 C 0 km/h
447 04-09-2010 14:00:00 22.2 C 6.71 g/m*3 22.2 C 0 km/h
448 04-09-2010 15:00:00 22.88 C 6.29 g/m*3 22.88 C 0 km/h
449 04-09-2010 16:00:00 22.42 C 5.53 g/m*3 22.42 C 0 km/h
450 04-09-2010 17:00:00 23.12 C 4.88 g/m*3 23.12 C 0 km/h
Sensor: Nr:Datum:Temp:Abs-Feuchte:Windchill:Wind:
Aussen-T/F 451 04-09-2010 18:00:00 22.74 C 4.37 g/m*3 22.74 C 0 km/h
452 04-09-2010 19:00:00 19.74 C 5.55 g/m*3 19.74 C 0 km/h
453 04-09-2010 20:00:00 16.14 C 6.54 g/m*3 16.14 C 0 km/h
454 04-09-2010 21:00:00 14.92 C 6.94 g/m*3 14.92 C 0 km/h
455 04-09-2010 22:00:00 14.16 C 7.26 g/m*3 14.16 C 0 km/h
456 04-09-2010 23:00:00 13.12 C 7.59 g/m*3 13.12 C 0 km/h
457 05-09-2010 00:00:00 12.16 C 7.62 g/m*3 12.16 C 0 km/h
458 05-09-2010 01:00:00 11.22 C 7.53 g/m*3 11.22 C 0 km/h
459 05-09-2010 02:00:00 10.44 C 7.52 g/m*3 10.44 C 0 km/h
460 05-09-2010 03:00:00 9.72 C 7.4 g/m*3 9.72 C 0 km/h
461 05-09-2010 04:00:00 9.12 C 7.27 g/m*3 9.12 C 0 km/h
462 05-09-2010 05:00:00 8.64 C 7.27 g/m*3 8.64 C 0 km/h
463 05-09-2010 06:00:00 8.08 C 7.25 g/m*3 8.08 C 0 km/h
464 05-09-2010 07:00:00 8.4 C 7.52 g/m*3 8.4 C 0 km/h
465 05-09-2010 08:00:00 9.82 C 7.91 g/m*3 9.82 C 0 km/h
466 05-09-2010 09:00:00 11.1 C 7.88 g/m*3 11.1 C 0 km/h
467 05-09-2010 10:00:00 12.36 C 8.44 g/m*3 12.36 C 0 km/h
468 05-09-2010 11:00:00 15.42 C 8.16 g/m*3 15.42 C 0 km/h
469 05-09-2010 12:00:00 18.02 C 6.52 g/m*3 18.02 C 0 km/h
470 05-09-2010 13:00:00 20.14 C 5.92 g/m*3 20.14 C 0 km/h
471 05-09-2010 14:00:00 23.5 C 5.2 g/m*3 23.5 C 0 km/h
472 05-09-2010 15:00:00 24.16 C 4.83 g/m*3 24.16 C 0 km/h
473 05-09-2010 16:00:00 24.4 C 4.67 g/m*3 24.4 C 0 km/h
474 05-09-2010 17:00:00 24.6 C 5.04 g/m*3 24.6 C 0 km/h
475 05-09-2010 18:00:00 24.84 C 5.29 g/m*3 24.84 C 0 km/h
Sensor: Nr:Datum:Temp:Abs-Feuchte:Windchill:Wind:
Aussen-T/F 476 05-09-2010 19:00:00 19.38 C 6.4 g/m*3 19.38 C 0 km/h
477 05-09-2010 20:00:00 16.44 C 6.38 g/m*3 16.44 C 0 km/h
478 05-09-2010 21:00:00 14.9 C 6.81 g/m*3 14.9 C 0 km/h
479 05-09-2010 22:00:00 14.12 C 7.1 g/m*3 14.12 C 0 km/h
480 05-09-2010 23:00:00 13.94 C 6.92 g/m*3 13.94 C 0 km/h
481 06-09-2010 00:00:00 13.22 C 7.08 g/m*3 13.22 C 0 km/h
482 06-09-2010 01:00:00 12.36 C 7.11 g/m*3 12.36 C 0 km/h
483 06-09-2010 02:00:00 11.62 C 7.2 g/m*3 11.62 C 0 km/h
484 06-09-2010 03:00:00 11.1 C 7.15 g/m*3 11.1 C 0 km/h
485 06-09-2010 04:00:00 10.7 C 7.09 g/m*3 10.7 C 0 km/h
486 06-09-2010 05:00:00 10.24 C 7.02 g/m*3 10.24 C 0 km/h
487 06-09-2010 06:00:00 9.56 C 7 g/m*3 9.56 C 0 km/h
488 06-09-2010 07:00:00 9.28 C 7.07 g/m*3 9.28 C 0 km/h
489 06-09-2010 08:00:00 9.68 C 7.22 g/m*3 9.68 C 0 km/h
490 06-09-2010 09:00:00 10.94 C 7.52 g/m*3 10.94 C 0 km/h
491 06-09-2010 10:00:00 13.48 C 7.52 g/m*3 13.48 C 0 km/h
492 06-09-2010 11:00:00 16.32 C 7.14 g/m*3 16.32 C 0 km/h
493 06-09-2010 12:00:00 18.64 C 5.58 g/m*3 18.64 C 0 km/h
494 06-09-2010 13:00:00 20.24 C 5.4 g/m*3 20.24 C 0 km/h
495 06-09-2010 14:00:00 22.34 C 4.51 g/m*3 22.34 C 0 km/h
496 06-09-2010 15:00:00 24 C 4.35 g/m*3 24 C 0 km/h
497 06-09-2010 16:00:00 23.88 C 4.32 g/m*3 23.88 C 0 km/h
498 06-09-2010 17:00:00 24.42 C 4.46 g/m*3 24.42 C 0 km/h
499 06-09-2010 18:00:00 21.44 C 5.34 g/m*3 21.44 C 0 km/h
500 06-09-2010 19:00:00 18.72 C 5.87 g/m*3 18.72 C 0 km/h
Sensor: Nr:Datum:Temp:Abs-Feuchte:Windchill:Wind:
Aussen-T/F 501 06-09-2010 20:00:00 17.1 C 5.62 g/m*3 17.1 C 0 km/h
502 06-09-2010 21:00:00 16.22 C 5.44 g/m*3 16.22 C 0 km/h
503 06-09-2010 22:00:00 15.5 C 5.6 g/m*3 15.5 C 0 km/h
504 06-09-2010 23:00:00 15.2 C 5.63 g/m*3 15.2 C 0 km/h
505 07-09-2010 00:00:00 15.38 C 5.51 g/m*3 15.38 C 0 km/h
506 07-09-2010 01:00:00 15.42 C 5.39 g/m*3 15.42 C 0 km/h
507 07-09-2010 02:00:00 15.46 C 5.38 g/m*3 15.46 C 0 km/h
508 07-09-2010 03:00:00 14.34 C 6.03 g/m*3 14.34 C 0 km/h
509 07-09-2010 04:00:00 13.06 C 7.01 g/m*3 13.06 C 0 km/h
510 07-09-2010 05:00:00 12.98 C 7.11 g/m*3 12.98 C 0 km/h
511 07-09-2010 06:00:00 12.5 C 7.04 g/m*3 12.5 C 0 km/h
512 07-09-2010 07:00:00 12.12 C 7.09 g/m*3 12.12 C 0 km/h
513 07-09-2010 08:00:00 11.56 C 8.11 g/m*3 11.56 C 0 km/h
514 07-09-2010 09:00:00 11.46 C 8.41 g/m*3 11.46 C 0 km/h
515 07-09-2010 10:00:00 11.46 C 8.88 g/m*3 11.46 C 0 km/h
516 07-09-2010 11:00:00 11.64 C 9.21 g/m*3 11.64 C 0 km/h
517 07-09-2010 12:00:00 12.42 C 9.5 g/m*3 12.42 C 0 km/h
518 07-09-2010 13:00:00 12.78 C 9.31 g/m*3 12.78 C 0 km/h
519 07-09-2010 14:00:00 13.36 C 9.37 g/m*3 13.36 C 0 km/h
520 07-09-2010 15:00:00 14.58 C 9.12 g/m*3 14.58 C 0 km/h
521 07-09-2010 16:00:00 15.52 C 9.11 g/m*3 15.52 C 0 km/h
522 07-09-2010 17:00:00 14.88 C 9.06 g/m*3 14.88 C 0 km/h
523 07-09-2010 18:00:00 13.98 C 9.08 g/m*3 13.98 C 0 km/h
524 07-09-2010 19:00:00 13.78 C 9.38 g/m*3 13.78 C 0 km/h
525 07-09-2010 20:00:00 13.24 C 9.55 g/m*3 13.24 C 0 km/h
Sensor: Nr:Datum:Temp:Abs-Feuchte:Windchill:Wind:
Aussen-T/F 526 07-09-2010 21:00:00 12.96 C 9.89 g/m*3 12.96 C 0 km/h
527 07-09-2010 22:00:00 12.86 C 10.03 g/m*3 12.86 C 0 km/h
528 07-09-2010 23:00:00 12.92 C 10.16 g/m*3 12.92 C 0 km/h
529 08-09-2010 00:00:00 12.88 C 10.24 g/m*3 12.88 C 0 km/h
530 08-09-2010 01:00:00 13 C 10.37 g/m*3 13 C 0 km/h
531 08-09-2010 02:00:00 13.2 C 10.61 g/m*3 13.2 C 0 km/h
532 08-09-2010 03:00:00 13.56 C 10.92 g/m*3 13.56 C 0 km/h
533 08-09-2010 04:00:00 13.56 C 10.92 g/m*3 13.56 C 0 km/h
534 08-09-2010 05:00:00 14.16 C 11.4 g/m*3 14.16 C 0 km/h
535 08-09-2010 06:00:00 14.36 C 11.44 g/m*3 14.36 C 0 km/h
536 08-09-2010 07:00:00 14.22 C 11.25 g/m*3 14.22 C 0 km/h
537 08-09-2010 08:00:00 14.22 C 11.25 g/m*3 14.22 C 0 km/h
538 08-09-2010 09:00:00 15.22 C 11.62 g/m*3 15.22 C 0 km/h
539 08-09-2010 10:00:00 15.52 C 11.41 g/m*3 15.52 C 0 km/h
540 08-09-2010 11:00:00 15.24 C 11.03 g/m*3 15.24 C 0 km/h
541 08-09-2010 12:00:00 14.74 C 11.26 g/m*3 14.74 C 0 km/h
542 08-09-2010 13:00:00 16.22 C 12.12 g/m*3 16.22 C 0 km/h
543 08-09-2010 14:00:00 17.58 C 11.56 g/m*3 17.58 C 0 km/h
544 08-09-2010 15:00:00 17.94 C 11.17 g/m*3 17.94 C 0 km/h
545 08-09-2010 16:00:00 18.54 C 10.69 g/m*3 18.54 C 0 km/h
546 08-09-2010 17:00:00 19.88 C 10.23 g/m*3 19.88 C 0 km/h
547 08-09-2010 18:00:00 19.06 C 10.24 g/m*3 19.06 C 0 km/h
548 08-09-2010 19:00:00 18.2 C 10.54 g/m*3 18.2 C 0 km/h
549 08-09-2010 20:00:00 16.8 C 10.52 g/m*3 16.8 C 0 km/h
550 08-09-2010 21:00:00 15.72 C 9.7 g/m*3 15.72 C 0 km/h
Sensor: Nr:Datum:Temp:Abs-Feuchte:Windchill:Wind:
Aussen-T/F 551 08-09-2010 22:00:00 14.78 C 9.79 g/m*3 14.78 C 0 km/h
552 08-09-2010 23:00:00 14.48 C 10.01 g/m*3 14.48 C 0 km/h
553 09-09-2010 00:00:00 14.38 C 10.2 g/m*3 14.38 C 0 km/h
554 09-09-2010 01:00:00 15.04 C 10.08 g/m*3 15.04 C 0 km/h
555 09-09-2010 02:00:00 15.14 C 9.93 g/m*3 15.14 C 0 km/h
556 09-09-2010 03:00:00 15.32 C 9.78 g/m*3 15.32 C 0 km/h
557 09-09-2010 04:00:00 15.22 C 9.33 g/m*3 15.22 C 0 km/h
558 09-09-2010 05:00:00 14.9 C 9.02 g/m*3 14.9 C 0 km/h
559 09-09-2010 06:00:00 14.78 C 8.88 g/m*3 14.78 C 0 km/h
560 09-09-2010 07:00:00 14.58 C 9.07 g/m*3 14.58 C 0 km/h
561 09-09-2010 08:00:00 14.8 C 9.1 g/m*3 14.8 C 0 km/h
562 09-09-2010 09:00:00 15.26 C 9.09 g/m*3 15.26 C 0 km/h
563 09-09-2010 10:00:00 16.76 C 9.1 g/m*3 16.76 C 0 km/h
564 09-09-2010 11:00:00 17.78 C 8.88 g/m*3 17.78 C 0 km/h
565 09-09-2010 12:00:00 18.64 C 8.17 g/m*3 18.64 C 0 km/h
566 09-09-2010 13:00:00 18.8 C 8.21 g/m*3 18.8 C 0 km/h
567 09-09-2010 14:00:00 18.98 C 8.59 g/m*3 18.98 C 0 km/h
568 09-09-2010 15:00:00 19.38 C 9.13 g/m*3 19.38 C 0 km/h
569 09-09-2010 16:00:00 17.1 C 10.92 g/m*3 17.1 C 0 km/h
570 09-09-2010 17:00:00 17.92 C 11.62 g/m*3 17.92 C 0 km/h
571 09-09-2010 18:00:00 17.7 C 10.47 g/m*3 17.7 C 0 km/h
572 09-09-2010 19:00:00 16.54 C 9.46 g/m*3 16.54 C 0 km/h
573 09-09-2010 20:00:00 15.4 C 9.78 g/m*3 15.4 C 0 km/h
574 09-09-2010 21:00:00 14.8 C 10.26 g/m*3 14.8 C 0 km/h
575 09-09-2010 22:00:00 14.74 C 10.17 g/m*3 14.74 C 0 km/h
Sensor: Nr:Datum:Temp:Abs-Feuchte:Windchill:Wind:
Aussen-T/F 576 09-09-2010 23:00:00 14.98 C 9.71 g/m*3 14.98 C 0 km/h
577 10-09-2010 00:00:00 14.66 C 9.92 g/m*3 14.66 C 0 km/h
578 10-09-2010 01:00:00 14 C 9.77 g/m*3 14 C 0 km/h
579 10-09-2010 02:00:00 13.9 C 9.95 g/m*3 13.9 C 0 km/h
580 10-09-2010 03:00:00 13.9 C 10.07 g/m*3 13.9 C 0 km/h
581 10-09-2010 04:00:00 13.84 C 10.25 g/m*3 13.84 C 0 km/h
582 10-09-2010 05:00:00 13.06 C 9.99 g/m*3 13.06 C 0 km/h
583 10-09-2010 06:00:00 13.12 C 10.24 g/m*3 13.12 C 0 km/h
584 10-09-2010 07:00:00 13.18 C 9.84 g/m*3 13.18 C 0 km/h
585 10-09-2010 08:00:00 13.32 C 9.95 g/m*3 13.32 C 0 km/h
586 10-09-2010 09:00:00 14.6 C 9.54 g/m*3 14.6 C 0 km/h
587 10-09-2010 10:00:00 16.16 C 9.35 g/m*3 16.16 C 0 km/h
588 10-09-2010 11:00:00 17.88 C 9.21 g/m*3 17.88 C 0 km/h
589 10-09-2010 12:00:00 18.74 C 9.18 g/m*3 18.74 C 0 km/h
590 10-09-2010 13:00:00 19.18 C 8.66 g/m*3 19.18 C 0 km/h
591 10-09-2010 14:00:00 19.94 C 8.75 g/m*3 19.94 C 0 km/h
592 10-09-2010 15:00:00 20.82 C 8.59 g/m*3 20.82 C 0 km/h
593 10-09-2010 16:00:00 21.1 C 8.44 g/m*3 21.1 C 0 km/h
594 10-09-2010 17:00:00 20.18 C 8.98 g/m*3 20.18 C 0 km/h
595 10-09-2010 18:00:00 17.86 C 10.21 g/m*3 17.86 C 0 km/h
596 10-09-2010 19:00:00 16.26 C 11.43 g/m*3 16.26 C 0 km/h
597 10-09-2010 20:00:00 15.68 C 11.57 g/m*3 15.68 C 0 km/h
598 10-09-2010 21:00:00 15.8 C 11.68 g/m*3 15.8 C 0 km/h
599 10-09-2010 22:00:00 15.68 C 11.44 g/m*3 15.68 C 0 km/h
600 10-09-2010 23:00:00 15.46 C 11.18 g/m*3 15.46 C 0 km/h
Sensor: Nr:Datum:Temp:Abs-Feuchte:Windchill:Wind:
Aussen-T/F 601 11-09-2010 00:00:00 15.14 C 10.86 g/m*3 15.14 C 0 km/h
602 11-09-2010 01:00:00 15 C 10.8 g/m*3 15 C 0 km/h
603 11-09-2010 02:00:00 14.74 C 10.73 g/m*3 14.74 C 0 km/h
604 11-09-2010 03:00:00 14.08 C 10.42 g/m*3 14.08 C 0 km/h
605 11-09-2010 04:00:00 13.14 C 9.86 g/m*3 13.14 C 0 km/h
606 11-09-2010 05:00:00 12.64 C 9.78 g/m*3 12.64 C 0 km/h
607 11-09-2010 06:00:00 12.74 C 9.91 g/m*3 12.74 C 0 km/h
608 11-09-2010 07:00:00 12.16 C 9.54 g/m*3 12.16 C 0 km/h
609 11-09-2010 08:00:00 13.04 C 10.23 g/m*3 13.04 C 0 km/h
610 11-09-2010 09:00:00 13.76 C 10.55 g/m*3 13.76 C 0 km/h
611 11-09-2010 10:00:00 15.66 C 11.32 g/m*3 15.66 C 0 km/h
612 11-09-2010 11:00:00 18.24 C 11.37 g/m*3 18.24 C 0 km/h
613 11-09-2010 12:00:00 19.9 C 9.59 g/m*3 19.9 C 0 km/h
614 11-09-2010 13:00:00 21.76 C 8.81 g/m*3 21.76 C 0 km/h
615 11-09-2010 14:00:00 24.2 C 8.14 g/m*3 24.2 C 0 km/h
616 11-09-2010 15:00:00 26.04 C 7.86 g/m*3 26.04 C 0 km/h
617 11-09-2010 16:00:00 26.34 C 8.19 g/m*3 26.34 C 0 km/h
618 11-09-2010 17:00:00 27.62 C 8.31 g/m*3 27.62 C 0 km/h
619 11-09-2010 18:00:00 26.06 C 9.28 g/m*3 26.06 C 0 km/h
620 11-09-2010 19:00:00 21.76 C 9.72 g/m*3 21.76 C 0 km/h
621 11-09-2010 20:00:00 19.34 C 9.51 g/m*3 19.34 C 0 km/h
622 11-09-2010 21:00:00 18.1 C 10.01 g/m*3 18.1 C 0 km/h
623 11-09-2010 22:00:00 17.2 C 10.28 g/m*3 17.2 C 0 km/h
624 11-09-2010 23:00:00 16.56 C 10.4 g/m*3 16.56 C 0 km/h
625 12-09-2010 00:00:00 16.06 C 10.42 g/m*3 16.06 C 0 km/h
Sensor: Nr:Datum:Temp:Abs-Feuchte:Windchill:Wind:
Aussen-T/F 626 12-09-2010 01:00:00 15.34 C 10.34 g/m*3 15.34 C 0 km/h
627 12-09-2010 02:00:00 14.88 C 10.39 g/m*3 14.88 C 0 km/h
628 12-09-2010 03:00:00 14.46 C 10.2 g/m*3 14.46 C 0 km/h
629 12-09-2010 04:00:00 14.1 C 10.07 g/m*3 14.1 C 0 km/h
630 12-09-2010 05:00:00 13.76 C 9.98 g/m*3 13.76 C 0 km/h
631 12-09-2010 06:00:00 13.52 C 9.93 g/m*3 13.52 C 0 km/h
632 12-09-2010 07:00:00 13.7 C 10.14 g/m*3 13.7 C 0 km/h
633 12-09-2010 08:00:00 14.26 C 10.3 g/m*3 14.26 C 0 km/h
634 12-09-2010 09:00:00 14.84 C 10.51 g/m*3 14.84 C 0 km/h
635 12-09-2010 10:00:00 16.94 C 11.16 g/m*3 16.94 C 0 km/h
636 12-09-2010 11:00:00 20.02 C 10.69 g/m*3 20.02 C 0 km/h
637 12-09-2010 12:00:00 21.62 C 10.75 g/m*3 21.62 C 0 km/h
638 12-09-2010 13:00:00 24.4 C 9.84 g/m*3 24.4 C 0 km/h
639 12-09-2010 14:00:00 23.86 C 9.2 g/m*3 23.86 C 0 km/h
640 12-09-2010 15:00:00 19.32 C 8.87 g/m*3 19.32 C 0 km/h
641 12-09-2010 16:00:00 17.78 C 9.19 g/m*3 17.78 C 0 km/h
642 12-09-2010 17:00:00 16.2 C 9.68 g/m*3 16.2 C 0 km/h
643 12-09-2010 18:00:00 14.92 C 10.59 g/m*3 14.92 C 0 km/h
644 12-09-2010 19:00:00 14.26 C 10.79 g/m*3 14.26 C 0 km/h
645 12-09-2010 20:00:00 13.82 C 10.81 g/m*3 13.82 C 0 km/h
646 12-09-2010 21:00:00 13.78 C 10.97 g/m*3 13.78 C 0 km/h
647 12-09-2010 22:00:00 13.78 C 11.07 g/m*3 13.78 C 0 km/h
648 12-09-2010 23:00:00 13.58 C 10.93 g/m*3 13.58 C 0 km/h
649 13-09-2010 00:00:00 13.68 C 11 g/m*3 13.68 C 0 km/h
650 13-09-2010 01:00:00 13.7 C 11.01 g/m*3 13.7 C 0 km/h
Sensor: Nr:Datum:Temp:Abs-Feuchte:Windchill:Wind:
Aussen-T/F 651 13-09-2010 02:00:00 13.52 C 10.89 g/m*3 13.52 C 0 km/h
652 13-09-2010 03:00:00 13.26 C 10.58 g/m*3 13.26 C 0 km/h
653 13-09-2010 04:00:00 13 C 10.21 g/m*3 13 C 0 km/h
654 13-09-2010 05:00:00 13.26 C 9.77 g/m*3 13.26 C 0 km/h
655 13-09-2010 06:00:00 13.3 C 9.57 g/m*3 13.3 C 0 km/h
656 13-09-2010 07:00:00 12.72 C 9.18 g/m*3 12.72 C 0 km/h
657 13-09-2010 08:00:00 13.04 C 9.62 g/m*3 13.04 C 0 km/h
658 13-09-2010 09:00:00 13.98 C 9.47 g/m*3 13.98 C 0 km/h
659 13-09-2010 10:00:00 15.32 C 9.05 g/m*3 15.32 C 0 km/h
660 13-09-2010 11:00:00 16.5 C 8.57 g/m*3 16.5 C 0 km/h
661 13-09-2010 12:00:00 17.24 C 7.93 g/m*3 17.24 C 0 km/h
662 13-09-2010 13:00:00 18.94 C 7.53 g/m*3 18.94 C 0 km/h
663 13-09-2010 14:00:00 20.18 C 6.95 g/m*3 20.18 C 0 km/h
664 13-09-2010 15:00:00 20.8 C 7.1 g/m*3 20.8 C 0 km/h
665 13-09-2010 16:00:00 21.56 C 6.93 g/m*3 21.56 C 0 km/h
666 13-09-2010 17:00:00 20.48 C 7.96 g/m*3 20.48 C 0 km/h
667 13-09-2010 18:00:00 18.22 C 8.62 g/m*3 18.22 C 0 km/h
668 13-09-2010 19:00:00 16.92 C 8.55 g/m*3 16.92 C 0 km/h
669 13-09-2010 20:00:00 15.24 C 8.9 g/m*3 15.24 C 0 km/h
670 13-09-2010 21:00:00 14.52 C 8.97 g/m*3 14.52 C 0 km/h
671 13-09-2010 22:00:00 13.7 C 8.86 g/m*3 13.7 C 0 km/h
672 13-09-2010 23:00:00 13.14 C 8.85 g/m*3 13.14 C 0 km/h
673 14-09-2010 00:00:00 12.82 C 9.2 g/m*3 12.82 C 0 km/h
674 14-09-2010 01:00:00 12.8 C 9.27 g/m*3 12.8 C 0 km/h
675 14-09-2010 02:00:00 13.1 C 9.33 g/m*3 13.1 C 0 km/h
Sensor: Nr:Datum:Temp:Abs-Feuchte:Windchill:Wind:
Aussen-T/F 676 14-09-2010 03:00:00 13.36 C 9.23 g/m*3 13.36 C 0 km/h
677 14-09-2010 04:00:00 12.94 C 9.42 g/m*3 12.94 C 0 km/h
678 14-09-2010 05:00:00 12.96 C 9.84 g/m*3 12.96 C 0 km/h
679 14-09-2010 06:00:00 13.9 C 9.28 g/m*3 13.9 C 0 km/h
680 14-09-2010 07:00:00 14.06 C 8.93 g/m*3 14.06 C 0 km/h
681 14-09-2010 08:00:00 14.1 C 9.32 g/m*3 14.1 C 0 km/h
682 14-09-2010 09:00:00 15.16 C 9.06 g/m*3 15.16 C 0 km/h
683 14-09-2010 10:00:00 16.1 C 9.07 g/m*3 16.1 C 0 km/h
684 14-09-2010 11:00:00 17.06 C 9.15 g/m*3 17.06 C 0 km/h
685 14-09-2010 12:00:00 18.44 C 9.18 g/m*3 18.44 C 0 km/h
686 14-09-2010 13:00:00 19.98 C 9.22 g/m*3 19.98 C 0 km/h
687 14-09-2010 14:00:00 19.66 C 8.84 g/m*3 19.66 C 0 km/h
688 14-09-2010 15:00:00 20.4 C 8.63 g/m*3 20.4 C 0 km/h
689 14-09-2010 16:00:00 20.68 C 7.88 g/m*3 20.68 C 0 km/h
690 14-09-2010 17:00:00 20.14 C 7.46 g/m*3 20.14 C 0 km/h
691 14-09-2010 18:00:00 19.34 C 7.81 g/m*3 19.34 C 0 km/h
692 14-09-2010 19:00:00 18.8 C 7.73 g/m*3 18.8 C 0 km/h
693 14-09-2010 20:00:00 18.6 C 7.7 g/m*3 18.6 C 0 km/h
694 14-09-2010 21:00:00 18.54 C 7.77 g/m*3 18.54 C 0 km/h
695 14-09-2010 22:00:00 18.5 C 7.83 g/m*3 18.5 C 0 km/h
696 14-09-2010 23:00:00 18.22 C 7.91 g/m*3 18.22 C 0 km/h
697 15-09-2010 00:00:00 18.02 C 7.87 g/m*3 18.02 C 0 km/h
698 15-09-2010 01:00:00 18.18 C 7.67 g/m*3 18.18 C 0 km/h
699 15-09-2010 02:00:00 18.32 C 7.64 g/m*3 18.32 C 0 km/h
700 15-09-2010 03:00:00 18.06 C 8.23 g/m*3 18.06 C 0 km/h
Sensor: Nr:Datum:Temp:Abs-Feuchte:Windchill:Wind:
Aussen-T/F 701 15-09-2010 04:00:00 17.7 C 9.11 g/m*3 17.7 C 0 km/h
702 15-09-2010 05:00:00 15 C 9.75 g/m*3 15 C 0 km/h
703 15-09-2010 06:00:00 12.78 C 10.09 g/m*3 12.78 C 0 km/h
704 15-09-2010 07:00:00 12.74 C 10.29 g/m*3 12.74 C 0 km/h
705 15-09-2010 08:00:00 12.7 C 10.35 g/m*3 12.7 C 0 km/h
706 15-09-2010 09:00:00 12.92 C 10.36 g/m*3 12.92 C 0 km/h
707 15-09-2010 10:00:00 14.06 C 9.95 g/m*3 14.06 C 0 km/h
708 15-09-2010 11:00:00 15.02 C 8.86 g/m*3 15.02 C 0 km/h
709 15-09-2010 12:00:00 16.5 C 7.02 g/m*3 16.5 C 0 km/h
710 15-09-2010 13:00:00 17.24 C 6.31 g/m*3 17.24 C 0 km/h
711 15-09-2010 14:00:00 18.38 C 5.66 g/m*3 18.38 C 0 km/h
712 15-09-2010 15:00:00 19.52 C 5.75 g/m*3 19.52 C 0 km/h
713 15-09-2010 16:00:00 19.52 C 5.98 g/m*3 19.52 C 0 km/h
714 15-09-2010 17:00:00 19.68 C 5.8 g/m*3 19.68 C 0 km/h
715 15-09-2010 18:00:00 17.84 C 5.32 g/m*3 17.84 C 0 km/h
716 15-09-2010 19:00:00 16.6 C 5.65 g/m*3 16.6 C 0 km/h
717 15-09-2010 20:00:00 15.84 C 6.26 g/m*3 15.84 C 0 km/h
718 15-09-2010 21:00:00 15.18 C 6.38 g/m*3 15.18 C 0 km/h
719 15-09-2010 22:00:00 14.96 C 5.96 g/m*3 14.96 C 0 km/h
720 15-09-2010 23:00:00 14.86 C 5.64 g/m*3 14.86 C 0 km/h
721 16-09-2010 00:00:00 14.18 C 5.9 g/m*3 14.18 C 0 km/h
722 16-09-2010 01:00:00 14.1 C 5.41 g/m*3 14.1 C 0 km/h
723 16-09-2010 02:00:00 13.94 C 5.79 g/m*3 13.94 C 0 km/h
724 16-09-2010 03:00:00 13.84 C 6.71 g/m*3 13.84 C 0 km/h
725 16-09-2010 04:00:00 13.58 C 6.98 g/m*3 13.58 C 0 km/h
Sensor: Nr:Datum:Temp:Abs-Feuchte:Windchill:Wind:
Aussen-T/F 726 16-09-2010 05:00:00 13.36 C 7.26 g/m*3 13.36 C 0 km/h
727 16-09-2010 06:00:00 12.44 C 8.08 g/m*3 12.44 C 0 km/h
728 16-09-2010 07:00:00 11.78 C 8.68 g/m*3 11.78 C 0 km/h
729 16-09-2010 08:00:00 11.86 C 8.83 g/m*3 11.86 C 0 km/h
730 16-09-2010 09:00:00 12.64 C 9.25 g/m*3 12.64 C 0 km/h
731 16-09-2010 10:00:00 14.12 C 8.65 g/m*3 14.12 C 0 km/h
732 16-09-2010 11:00:00 15.26 C 8.23 g/m*3 15.26 C 0 km/h
733 16-09-2010 12:00:00 17.02 C 7.68 g/m*3 17.02 C 0 km/h
734 16-09-2010 13:00:00 17.32 C 7.17 g/m*3 17.32 C 0 km/h
735 16-09-2010 14:00:00 15.28 C 8.71 g/m*3 15.28 C 0 km/h
736 16-09-2010 15:00:00 17.22 C 9.15 g/m*3 17.22 C 0 km/h
737 16-09-2010 16:00:00 16.36 C 8.49 g/m*3 16.36 C 0 km/h
738 16-09-2010 17:00:00 15.3 C 9.51 g/m*3 15.3 C 0 km/h
739 16-09-2010 18:00:00 14.9 C 8.95 g/m*3 14.9 C 0 km/h
740 16-09-2010 19:00:00 13.42 C 9.68 g/m*3 13.42 C 0 km/h
741 16-09-2010 20:00:00 12.84 C 10.02 g/m*3 12.84 C 0 km/h
742 16-09-2010 21:00:00 12.62 C 10.08 g/m*3 12.62 C 0 km/h
743 16-09-2010 22:00:00 12.2 C 9.58 g/m*3 12.2 C 0 km/h
744 16-09-2010 23:00:00 12.1 C 9.29 g/m*3 12.1 C 0 km/h
745 17-09-2010 00:00:00 12.16 C 9.24 g/m*3 12.16 C 0 km/h
746 17-09-2010 01:00:00 12.06 C 9.26 g/m*3 12.06 C 0 km/h
747 17-09-2010 02:00:00 11.96 C 9.29 g/m*3 11.96 C 0 km/h
748 17-09-2010 03:00:00 12.06 C 8.94 g/m*3 12.06 C 0 km/h
749 17-09-2010 04:00:00 11.94 C 8.73 g/m*3 11.94 C 0 km/h
750 17-09-2010 05:00:00 11.2 C 8.23 g/m*3 11.2 C 0 km/h
Sensor: Nr:Datum:Temp:Abs-Feuchte:Windchill:Wind:
Aussen-T/F 751 17-09-2010 06:00:00 10.6 C 8.59 g/m*3 10.6 C 0 km/h
752 17-09-2010 07:00:00 10.02 C 8.15 g/m*3 10.02 C 0 km/h
753 17-09-2010 08:00:00 10.22 C 7.66 g/m*3 10.22 C 0 km/h
754 17-09-2010 09:00:00 10.86 C 7.28 g/m*3 10.86 C 0 km/h
755 17-09-2010 10:00:00 12.06 C 7.55 g/m*3 12.06 C 0 km/h
756 17-09-2010 11:00:00 13.72 C 7.56 g/m*3 13.72 C 0 km/h
757 17-09-2010 12:00:00 15.7 C 6.58 g/m*3 15.7 C 0 km/h
758 17-09-2010 13:00:00 16.66 C 5.9 g/m*3 16.66 C 0 km/h
759 17-09-2010 14:00:00 17.62 C 5.29 g/m*3 17.62 C 0 km/h
760 17-09-2010 15:00:00 17.48 C 5.06 g/m*3 17.48 C 0 km/h
761 17-09-2010 16:00:00 19.06 C 4.94 g/m*3 19.06 C 0 km/h
762 17-09-2010 17:00:00 19.46 C 4.45 g/m*3 19.46 C 0 km/h
763 17-09-2010 18:00:00 16.66 C 6.1 g/m*3 16.66 C 0 km/h
764 17-09-2010 19:00:00 15.24 C 6.69 g/m*3 15.24 C 0 km/h
765 17-09-2010 20:00:00 14.26 C 7.06 g/m*3 14.26 C 0 km/h
766 17-09-2010 21:00:00 13.48 C 7.15 g/m*3 13.48 C 0 km/h
767 17-09-2010 22:00:00 13.34 C 6.72 g/m*3 13.34 C 0 km/h
768 17-09-2010 23:00:00 12.58 C 6.81 g/m*3 12.58 C 0 km/h
769 18-09-2010 00:00:00 12.12 C 6.94 g/m*3 12.12 C 0 km/h
770 18-09-2010 01:00:00 10.9 C 7 g/m*3 10.9 C 0 km/h
771 18-09-2010 02:00:00 10 C 7.2 g/m*3 10 C 0 km/h
772 18-09-2010 03:00:00 9.38 C 7.3 g/m*3 9.38 C 0 km/h
773 18-09-2010 04:00:00 8.54 C 7.19 g/m*3 8.54 C 0 km/h
774 18-09-2010 05:00:00 7.94 C 7.18 g/m*3 7.94 C 0 km/h
775 18-09-2010 06:00:00 7.62 C 7.36 g/m*3 7.62 C 0 km/h
Sensor: Nr:Datum:Temp:Abs-Feuchte:Windchill:Wind:
Aussen-T/F 776 18-09-2010 07:00:00 7.5 C 7.3 g/m*3 7.5 C 0 km/h
777 18-09-2010 08:00:00 7.46 C 7.23 g/m*3 7.46 C 0 km/h
778 18-09-2010 09:00:00 8.12 C 7.55 g/m*3 8.12 C 0 km/h
779 18-09-2010 10:00:00 10.2 C 8.18 g/m*3 10.2 C 0 km/h
780 18-09-2010 11:00:00 13.46 C 6.65 g/m*3 13.46 C 0 km/h
781 18-09-2010 12:00:00 15.14 C 5.92 g/m*3 15.14 C 0 km/h
782 18-09-2010 13:00:00 15.6 C 5.43 g/m*3 15.6 C 0 km/h
783 18-09-2010 14:00:00 15.26 C 4.77 g/m*3 15.26 C 0 km/h
784 18-09-2010 15:00:00 16.3 C 4.58 g/m*3 16.3 C 0 km/h
785 18-09-2010 16:00:00 16.22 C 4.86 g/m*3 16.22 C 0 km/h
786 18-09-2010 17:00:00 15.86 C 5.73 g/m*3 15.86 C 0 km/h
787 18-09-2010 18:00:00 15.66 C 6.06 g/m*3 15.66 C 0 km/h
788 18-09-2010 19:00:00 13.26 C 6.08 g/m*3 13.26 C 0 km/h
789 18-09-2010 20:00:00 11.08 C 6.6 g/m*3 11.08 C 0 km/h
790 18-09-2010 21:00:00 10.02 C 6.62 g/m*3 10.02 C 0 km/h
791 18-09-2010 22:00:00 8.98 C 6.69 g/m*3 8.98 C 0 km/h
792 18-09-2010 23:00:00 8.2 C 6.77 g/m*3 8.2 C 0 km/h
793 19-09-2010 00:00:00 7.56 C 6.72 g/m*3 7.56 C 0 km/h
794 19-09-2010 01:00:00 6.92 C 6.54 g/m*3 6.92 C 0 km/h
795 19-09-2010 02:00:00 6.44 C 6.53 g/m*3 6.44 C 0 km/h
796 19-09-2010 03:00:00 6.42 C 6.57 g/m*3 6.42 C 0 km/h
797 19-09-2010 04:00:00 6.2 C 6.5 g/m*3 6.2 C 0 km/h
798 19-09-2010 05:00:00 6.04 C 6.42 g/m*3 6.04 C 0 km/h
799 19-09-2010 06:00:00 5.76 C 6.33 g/m*3 5.76 C 0 km/h
800 19-09-2010 07:00:00 6 C 6.46 g/m*3 6 C 0 km/h
Sensor: Nr:Datum:Temp:Abs-Feuchte:Windchill:Wind:
Aussen-T/F 801 19-09-2010 08:00:00 6.96 C 6.79 g/m*3 6.96 C 0 km/h
802 19-09-2010 09:00:00 8.12 C 6.98 g/m*3 8.12 C 0 km/h
803 19-09-2010 10:00:00 10.72 C 6.69 g/m*3 10.72 C 0 km/h
804 19-09-2010 11:00:00 12.92 C 6.27 g/m*3 12.92 C 0 km/h
805 19-09-2010 12:00:00 14.94 C 5.67 g/m*3 14.94 C 0 km/h
806 19-09-2010 13:00:00 16.12 C 5.54 g/m*3 16.12 C 0 km/h
807 19-09-2010 14:00:00 17.38 C 5.68 g/m*3 17.38 C 0 km/h
808 19-09-2010 15:00:00 18.62 C 5.45 g/m*3 18.62 C 0 km/h
809 19-09-2010 16:00:00 19.04 C 5.29 g/m*3 19.04 C 0 km/h
810 19-09-2010 17:00:00 18.78 C 5.69 g/m*3 18.78 C 0 km/h
811 19-09-2010 18:00:00 17.08 C 5.99 g/m*3 17.08 C 0 km/h
812 19-09-2010 19:00:00 15.78 C 5.97 g/m*3 15.78 C 0 km/h
813 19-09-2010 20:00:00 14.46 C 6.3 g/m*3 14.46 C 0 km/h
814 19-09-2010 21:00:00 13.96 C 6.62 g/m*3 13.96 C 0 km/h
815 19-09-2010 22:00:00 13.32 C 6.78 g/m*3 13.32 C 0 km/h
816 19-09-2010 23:00:00 12.28 C 6.77 g/m*3 12.28 C 0 km/h
817 20-09-2010 00:00:00 11.68 C 6.87 g/m*3 11.68 C 0 km/h
818 20-09-2010 01:00:00 10.44 C 6.78 g/m*3 10.44 C 0 km/h
819 20-09-2010 02:00:00 9.84 C 6.88 g/m*3 9.84 C 0 km/h
820 20-09-2010 03:00:00 9.64 C 7.02 g/m*3 9.64 C 0 km/h
821 20-09-2010 04:00:00 8.98 C 6.89 g/m*3 8.98 C 0 km/h
822 20-09-2010 05:00:00 8.32 C 6.89 g/m*3 8.32 C 0 km/h
823 20-09-2010 06:00:00 8.48 C 7.03 g/m*3 8.48 C 0 km/h
824 20-09-2010 07:00:00 8.52 C 7.1 g/m*3 8.52 C 0 km/h
825 20-09-2010 08:00:00 9.18 C 6.87 g/m*3 9.18 C 0 km/h
Sensor: Nr:Datum:Temp:Abs-Feuchte:Windchill:Wind:
Aussen-T/F 826 20-09-2010 09:00:00 9.84 C 6.92 g/m*3 9.84 C 0 km/h
827 20-09-2010 10:00:00 12.4 C 7.21 g/m*3 12.4 C 0 km/h
828 20-09-2010 11:00:00 14.62 C 6.99 g/m*3 14.62 C 0 km/h
829 20-09-2010 12:00:00 16.26 C 6.34 g/m*3 16.26 C 0 km/h
830 20-09-2010 13:00:00 18.02 C 6.12 g/m*3 18.02 C 0 km/h
831 20-09-2010 14:00:00 20.02 C 5.81 g/m*3 20.02 C 0 km/h
832 20-09-2010 15:00:00 21.42 C 5.86 g/m*3 21.42 C 0 km/h
833 20-09-2010 16:00:00 22.46 C 6.22 g/m*3 22.46 C 0 km/h
834 20-09-2010 17:00:00 22.28 C 6.11 g/m*3 22.28 C 0 km/h
835 20-09-2010 18:00:00 21.3 C 6.67 g/m*3 21.3 C 0 km/h
836 20-09-2010 19:00:00 17.5 C 7.19 g/m*3 17.5 C 0 km/h
837 20-09-2010 20:00:00 15.34 C 7.54 g/m*3 15.34 C 0 km/h
838 20-09-2010 21:00:00 14.2 C 7.72 g/m*3 14.2 C 0 km/h
839 20-09-2010 22:00:00 13.22 C 8.07 g/m*3 13.22 C 0 km/h
840 20-09-2010 23:00:00 12.28 C 8.05 g/m*3 12.28 C 0 km/h
841 21-09-2010 00:00:00 11.52 C 7.88 g/m*3 11.52 C 0 km/h
842 21-09-2010 01:00:00 10.9 C 7.8 g/m*3 10.9 C 0 km/h
843 21-09-2010 02:00:00 10.24 C 7.69 g/m*3 10.24 C 0 km/h
844 21-09-2010 03:00:00 9.74 C 7.71 g/m*3 9.74 C 0 km/h
845 21-09-2010 04:00:00 9.22 C 7.51 g/m*3 9.22 C 0 km/h
846 21-09-2010 05:00:00 8.78 C 7.46 g/m*3 8.78 C 0 km/h
847 21-09-2010 06:00:00 8.34 C 7.37 g/m*3 8.34 C 0 km/h
848 21-09-2010 07:00:00 8.14 C 7.34 g/m*3 8.14 C 0 km/h
849 21-09-2010 08:00:00 8.26 C 7.53 g/m*3 8.26 C 0 km/h
850 21-09-2010 09:00:00 9.18 C 7.97 g/m*3 9.18 C 0 km/h
Sensor: Nr:Datum:Temp:Abs-Feuchte:Windchill:Wind:
Aussen-T/F 851 21-09-2010 10:00:00 11.12 C 8.71 g/m*3 11.12 C 0 km/h
852 21-09-2010 11:00:00 14.12 C 8.65 g/m*3 14.12 C 0 km/h
853 21-09-2010 12:00:00 16.14 C 8.99 g/m*3 16.14 C 0 km/h
854 21-09-2010 13:00:00 17.02 C 9.65 g/m*3 17.02 C 0 km/h
855 21-09-2010 14:00:00 17.82 C 9.48 g/m*3 17.82 C 0 km/h
856 21-09-2010 15:00:00 23.12 C 8.2 g/m*3 23.12 C 0 km/h
857 21-09-2010 16:00:00 25.16 C 7.62 g/m*3 25.16 C 0 km/h
858 21-09-2010 17:00:00 24.6 C 7.56 g/m*3 24.6 C 0 km/h
859 21-09-2010 18:00:00 22.18 C 7.88 g/m*3 22.18 C 0 km/h
860 21-09-2010 19:00:00 18.64 C 8.36 g/m*3 18.64 C 0 km/h
861 21-09-2010 20:00:00 16.3 C 8.52 g/m*3 16.3 C 0 km/h
862 21-09-2010 21:00:00 15.06 C 8.49 g/m*3 15.06 C 0 km/h
863 21-09-2010 22:00:00 13.9 C 8.51 g/m*3 13.9 C 0 km/h
864 21-09-2010 23:00:00 12.98 C 8.54 g/m*3 12.98 C 0 km/h
865 22-09-2010 00:00:00 12.2 C 8.55 g/m*3 12.2 C 0 km/h
866 22-09-2010 01:00:00 11.5 C 8.41 g/m*3 11.5 C 0 km/h
867 22-09-2010 02:00:00 10.78 C 8.15 g/m*3 10.78 C 0 km/h
868 22-09-2010 03:00:00 10.22 C 8 g/m*3 10.22 C 0 km/h
869 22-09-2010 04:00:00 9.72 C 7.94 g/m*3 9.72 C 0 km/h
870 22-09-2010 05:00:00 9.84 C 8.15 g/m*3 9.84 C 0 km/h
871 22-09-2010 06:00:00 9.78 C 8.15 g/m*3 9.78 C 0 km/h
872 22-09-2010 07:00:00 9.56 C 8.04 g/m*3 9.56 C 0 km/h
873 22-09-2010 08:00:00 9.36 C 7.96 g/m*3 9.36 C 0 km/h
874 22-09-2010 09:00:00 10.18 C 8.15 g/m*3 10.18 C 0 km/h
875 22-09-2010 10:00:00 12.42 C 8.64 g/m*3 12.42 C 0 km/h
Sensor: Nr:Datum:Temp:Abs-Feuchte:Windchill:Wind:
Aussen-T/F 876 22-09-2010 11:00:00 13.78 C 9.19 g/m*3 13.78 C 0 km/h
877 22-09-2010 12:00:00 16.54 C 9.97 g/m*3 16.54 C 0 km/h
878 22-09-2010 13:00:00 19.76 C 10.09 g/m*3 19.76 C 0 km/h
879 22-09-2010 14:00:00 22.86 C 10.07 g/m*3 22.86 C 0 km/h
880 22-09-2010 15:00:00 25.06 C 9.29 g/m*3 25.06 C 0 km/h
881 22-09-2010 16:00:00 27.32 C 8.59 g/m*3 27.32 C 0 km/h
882 22-09-2010 17:00:00 27.06 C 8.16 g/m*3 27.06 C 0 km/h
883 22-09-2010 18:00:00 24.88 C 9.1 g/m*3 24.88 C 0 km/h
884 22-09-2010 19:00:00 20.88 C 9.2 g/m*3 20.88 C 0 km/h
885 22-09-2010 20:00:00 18.54 C 9.1 g/m*3 18.54 C 0 km/h
886 22-09-2010 21:00:00 17.46 C 9.31 g/m*3 17.46 C 0 km/h
887 22-09-2010 22:00:00 16.18 C 9.26 g/m*3 16.18 C 0 km/h
888 22-09-2010 23:00:00 14.92 C 8.78 g/m*3 14.92 C 0 km/h
889 23-09-2010 00:00:00 14.02 C 8.65 g/m*3 14.02 C 0 km/h
890 23-09-2010 01:00:00 13.22 C 8.71 g/m*3 13.22 C 0 km/h
891 23-09-2010 02:00:00 12.44 C 8.7 g/m*3 12.44 C 0 km/h
892 23-09-2010 03:00:00 11.8 C 8.57 g/m*3 11.8 C 0 km/h
893 23-09-2010 04:00:00 11.16 C 8.39 g/m*3 11.16 C 0 km/h
894 23-09-2010 05:00:00 10.64 C 8.22 g/m*3 10.64 C 0 km/h
895 23-09-2010 06:00:00 10.46 C 8.2 g/m*3 10.46 C 0 km/h
896 23-09-2010 07:00:00 10.52 C 8.25 g/m*3 10.52 C 0 km/h
897 23-09-2010 08:00:00 10.88 C 8.42 g/m*3 10.88 C 0 km/h
898 23-09-2010 09:00:00 11.64 C 8.65 g/m*3 11.64 C 0 km/h
899 23-09-2010 10:00:00 12.98 C 9.24 g/m*3 12.98 C 0 km/h
900 23-09-2010 11:00:00 15.64 C 10.08 g/m*3 15.64 C 0 km/h
Sensor: Nr:Datum:Temp:Abs-Feuchte:Windchill:Wind:
Aussen-T/F 901 23-09-2010 12:00:00 18.66 C 10.61 g/m*3 18.66 C 0 km/h
902 23-09-2010 13:00:00 22.3 C 10.7 g/m*3 22.3 C 0 km/h
903 23-09-2010 14:00:00 24.06 C 10.22 g/m*3 24.06 C 0 km/h
904 23-09-2010 15:00:00 25.04 C 9.37 g/m*3 25.04 C 0 km/h
905 23-09-2010 16:00:00 25.14 C 9.88 g/m*3 25.14 C 0 km/h
906 23-09-2010 17:00:00 23.48 C 10.73 g/m*3 23.48 C 0 km/h
907 23-09-2010 18:00:00 22.12 C 10.63 g/m*3 22.12 C 0 km/h
908 23-09-2010 19:00:00 19.9 C 11.06 g/m*3 19.9 C 0 km/h
909 23-09-2010 20:00:00 18.5 C 11.3 g/m*3 18.5 C 0 km/h
910 23-09-2010 21:00:00 18.5 C 11.49 g/m*3 18.5 C 0 km/h
911 23-09-2010 22:00:00 17.94 C 11.82 g/m*3 17.94 C 0 km/h
912 23-09-2010 23:00:00 16.44 C 12.26 g/m*3 16.44 C 0 km/h
913 24-09-2010 00:00:00 15.7 C 12.18 g/m*3 15.7 C 0 km/h
914 24-09-2010 01:00:00 15.54 C 12.3 g/m*3 15.54 C 0 km/h
915 24-09-2010 02:00:00 15.38 C 12.15 g/m*3 15.38 C 0 km/h
916 24-09-2010 03:00:00 14.94 C 11.91 g/m*3 14.94 C 0 km/h
917 24-09-2010 04:00:00 14.78 C 11.89 g/m*3 14.78 C 0 km/h
918 24-09-2010 05:00:00 14.54 C 11.72 g/m*3 14.54 C 0 km/h
919 24-09-2010 06:00:00 14.7 C 11.83 g/m*3 14.7 C 0 km/h
920 24-09-2010 07:00:00 14.4 C 11.62 g/m*3 14.4 C 0 km/h
921 24-09-2010 08:00:00 14.58 C 11.82 g/m*3 14.58 C 0 km/h
922 24-09-2010 09:00:00 14.88 C 12.07 g/m*3 14.88 C 0 km/h
923 24-09-2010 10:00:00 14.98 C 12.06 g/m*3 14.98 C 0 km/h
924 24-09-2010 11:00:00 15.22 C 12.22 g/m*3 15.22 C 0 km/h
925 24-09-2010 12:00:00 15.14 C 12.18 g/m*3 15.14 C 0 km/h
Sensor: Nr:Datum:Temp:Abs-Feuchte:Windchill:Wind:
Aussen-T/F 926 24-09-2010 13:00:00 14.56 C 11.73 g/m*3 14.56 C 0 km/h
927 24-09-2010 14:00:00 13.54 C 11.02 g/m*3 13.54 C 0 km/h
928 24-09-2010 15:00:00 13.08 C 10.8 g/m*3 13.08 C 0 km/h
929 24-09-2010 16:00:00 13.8 C 11.32 g/m*3 13.8 C 0 km/h
930 24-09-2010 17:00:00 13.48 C 11.03 g/m*3 13.48 C 0 km/h
931 24-09-2010 18:00:00 13.26 C 10.83 g/m*3 13.26 C 0 km/h
932 24-09-2010 19:00:00 12.84 C 10.64 g/m*3 12.84 C 0 km/h
933 24-09-2010 20:00:00 12.7 C 10.58 g/m*3 12.7 C 0 km/h
934 24-09-2010 21:00:00 12.82 C 10.65 g/m*3 12.82 C 0 km/h
935 24-09-2010 22:00:00 12.7 C 10.58 g/m*3 12.7 C 0 km/h
936 24-09-2010 23:00:00 12.4 C 10.38 g/m*3 12.4 C 0 km/h
937 25-09-2010 00:00:00 12.48 C 10.43 g/m*3 12.48 C 0 km/h
938 25-09-2010 01:00:00 12.52 C 10.46 g/m*3 12.52 C 0 km/h
939 25-09-2010 02:00:00 12.6 C 10.51 g/m*3 12.6 C 0 km/h
940 25-09-2010 03:00:00 12.62 C 10.52 g/m*3 12.62 C 0 km/h
941 25-09-2010 04:00:00 12.54 C 10.47 g/m*3 12.54 C 0 km/h
942 25-09-2010 05:00:00 12.38 C 10.35 g/m*3 12.38 C 0 km/h
943 25-09-2010 06:00:00 12.06 C 10.06 g/m*3 12.06 C 0 km/h
944 25-09-2010 07:00:00 11.88 C 9.94 g/m*3 11.88 C 0 km/h
945 25-09-2010 08:00:00 11.26 C 9.5 g/m*3 11.26 C 0 km/h
946 25-09-2010 09:00:00 10.48 C 8.81 g/m*3 10.48 C 0 km/h
947 25-09-2010 10:00:00 11.04 C 8.25 g/m*3 11.04 C 0 km/h
948 25-09-2010 11:00:00 12.3 C 7.45 g/m*3 12.3 C 0 km/h
949 25-09-2010 12:00:00 12.44 C 6.9 g/m*3 12.44 C 0 km/h
950 25-09-2010 13:00:00 13.26 C 6.04 g/m*3 13.26 C 0 km/h
Sensor: Nr:Datum:Temp:Abs-Feuchte:Windchill:Wind:
Aussen-T/F 951 25-09-2010 14:00:00 14.24 C 5.36 g/m*3 14.24 C 0 km/h
952 25-09-2010 15:00:00 15.04 C 4.68 g/m*3 15.04 C 0 km/h
953 25-09-2010 16:00:00 14.72 C 4.97 g/m*3 14.72 C 0 km/h
954 25-09-2010 17:00:00 15.6 C 5.08 g/m*3 15.6 C 0 km/h
955 25-09-2010 18:00:00 14.22 C 5.06 g/m*3 14.22 C 0 km/h
956 25-09-2010 19:00:00 12.98 C 5.75 g/m*3 12.98 C 0 km/h
957 25-09-2010 20:00:00 11.7 C 5.88 g/m*3 11.7 C 0 km/h
958 25-09-2010 21:00:00 10.12 C 6.31 g/m*3 10.12 C 0 km/h
959 25-09-2010 22:00:00 10.28 C 6.68 g/m*3 10.28 C 0 km/h
960 25-09-2010 23:00:00 9.28 C 7.4 g/m*3 9.28 C 0 km/h
961 26-09-2010 00:00:00 9.44 C 7.76 g/m*3 9.44 C 0 km/h
962 26-09-2010 01:00:00 9.48 C 7.24 g/m*3 9.48 C 0 km/h
963 26-09-2010 02:00:00 9.42 C 7.05 g/m*3 9.42 C 0 km/h
964 26-09-2010 03:00:00 9.2 C 7.07 g/m*3 9.2 C 0 km/h
965 26-09-2010 04:00:00 8.88 C 7.28 g/m*3 8.88 C 0 km/h
966 26-09-2010 05:00:00 9.02 C 7.33 g/m*3 9.02 C 0 km/h
967 26-09-2010 06:00:00 8.9 C 7.38 g/m*3 8.9 C 0 km/h
968 26-09-2010 07:00:00 8.8 C 7.45 g/m*3 8.8 C 0 km/h
969 26-09-2010 08:00:00 9.62 C 7.3 g/m*3 9.62 C 0 km/h
970 26-09-2010 09:00:00 10.26 C 7.18 g/m*3 10.26 C 0 km/h
971 26-09-2010 10:00:00 11.84 C 6.75 g/m*3 11.84 C 0 km/h
972 26-09-2010 11:00:00 13.22 C 6.44 g/m*3 13.22 C 0 km/h
973 26-09-2010 12:00:00 14.48 C 6.39 g/m*3 14.48 C 0 km/h
974 26-09-2010 13:00:00 13 C 7.58 g/m*3 13 C 0 km/h
975 26-09-2010 14:00:00 13.3 C 8.3 g/m*3 13.3 C 0 km/h
Sensor: Nr:Datum:Temp:Abs-Feuchte:Windchill:Wind:
Aussen-T/F 976 26-09-2010 15:00:00 14.18 C 8.12 g/m*3 14.18 C 0 km/h
977 26-09-2010 16:00:00 14.92 C 7.04 g/m*3 14.92 C 0 km/h
978 26-09-2010 17:00:00 15.18 C 6.61 g/m*3 15.18 C 0 km/h
979 26-09-2010 18:00:00 12.96 C 6.95 g/m*3 12.96 C 0 km/h
980 26-09-2010 19:00:00 12.24 C 7.1 g/m*3 12.24 C 0 km/h
981 26-09-2010 20:00:00 11.78 C 7.21 g/m*3 11.78 C 0 km/h
982 26-09-2010 21:00:00 11.16 C 7.12 g/m*3 11.16 C 0 km/h
983 26-09-2010 22:00:00 9.7 C 7.06 g/m*3 9.7 C 0 km/h
984 26-09-2010 23:00:00 8.84 C 7.17 g/m*3 8.84 C 0 km/h
985 27-09-2010 00:00:00 8.12 C 7.07 g/m*3 8.12 C 0 km/h
986 27-09-2010 01:00:00 7.46 C 7.04 g/m*3 7.46 C 0 km/h
987 27-09-2010 02:00:00 6.84 C 6.86 g/m*3 6.84 C 0 km/h
988 27-09-2010 03:00:00 6.46 C 6.75 g/m*3 6.46 C 0 km/h
989 27-09-2010 04:00:00 6.24 C 6.8 g/m*3 6.24 C 0 km/h
990 27-09-2010 05:00:00 6.24 C 6.83 g/m*3 6.24 C 0 km/h
991 27-09-2010 06:00:00 6.32 C 6.89 g/m*3 6.32 C 0 km/h
992 27-09-2010 07:00:00 6.74 C 7.13 g/m*3 6.74 C 0 km/h
993 27-09-2010 08:00:00 7.7 C 7.61 g/m*3 7.7 C 0 km/h
994 27-09-2010 09:00:00 9.24 C 8.2 g/m*3 9.24 C 0 km/h
995 27-09-2010 10:00:00 10.76 C 7.57 g/m*3 10.76 C 0 km/h
996 27-09-2010 11:00:00 11.98 C 6.79 g/m*3 11.98 C 0 km/h
997 27-09-2010 12:00:00 12.78 C 6.82 g/m*3 12.78 C 0 km/h
998 27-09-2010 13:00:00 13.48 C 6.73 g/m*3 13.48 C 0 km/h
999 27-09-2010 14:00:00 13.26 C 6.66 g/m*3 13.26 C 0 km/h
1000 27-09-2010 15:00:00 13.4 C 6.65 g/m*3 13.4 C 0 km/h
Sensor: Nr:Datum:Temp:Abs-Feuchte:Windchill:Wind:
Aussen-T/F 1001 27-09-2010 16:00:00 13.38 C 7.2 g/m*3 13.38 C 0 km/h
1002 27-09-2010 17:00:00 12.9 C 7.69 g/m*3 12.9 C 0 km/h
1003 27-09-2010 18:00:00 11.94 C 7.73 g/m*3 11.94 C 0 km/h
1004 27-09-2010 19:00:00 10.58 C 8.13 g/m*3 10.58 C 0 km/h
1005 27-09-2010 20:00:00 10.3 C 8.39 g/m*3 10.3 C 0 km/h
1006 27-09-2010 21:00:00 10.34 C 8.55 g/m*3 10.34 C 0 km/h
1007 27-09-2010 22:00:00 10.3 C 8.6 g/m*3 10.3 C 0 km/h
1008 27-09-2010 23:00:00 10.16 C 8.64 g/m*3 10.16 C 0 km/h
1009 28-09-2010 00:00:00 10 C 8.68 g/m*3 10 C 0 km/h
1010 28-09-2010 01:00:00 9.98 C 8.75 g/m*3 9.98 C 0 km/h
1011 28-09-2010 02:00:00 9.9 C 8.78 g/m*3 9.9 C 0 km/h
1012 28-09-2010 03:00:00 9.9 C 8.87 g/m*3 9.9 C 0 km/h
1013 28-09-2010 04:00:00 9.92 C 8.86 g/m*3 9.92 C 0 km/h
1014 28-09-2010 05:00:00 10 C 8.93 g/m*3 10 C 0 km/h
1015 28-09-2010 06:00:00 10.08 C 8.97 g/m*3 10.08 C 0 km/h
1016 28-09-2010 07:00:00 10 C 8.93 g/m*3 10 C 0 km/h
1017 28-09-2010 08:00:00 10.04 C 8.95 g/m*3 10.04 C 0 km/h
1018 28-09-2010 09:00:00 10.24 C 9.06 g/m*3 10.24 C 0 km/h
1019 28-09-2010 10:00:00 10.58 C 9.26 g/m*3 10.58 C 0 km/h
1020 28-09-2010 11:00:00 11.18 C 9.62 g/m*3 11.18 C 0 km/h
1021 28-09-2010 12:00:00 11.48 C 9.72 g/m*3 11.48 C 0 km/h
1022 28-09-2010 13:00:00 11.74 C 9.71 g/m*3 11.74 C 0 km/h
1023 28-09-2010 14:00:00 11.76 C 9.66 g/m*3 11.76 C 0 km/h
1024 28-09-2010 15:00:00 11.74 C 9.73 g/m*3 11.74 C 0 km/h
1025 28-09-2010 16:00:00 11.84 C 9.85 g/m*3 11.84 C 0 km/h
Sensor: Nr:Datum:Temp:Abs-Feuchte:Windchill:Wind:
Aussen-T/F 1026 28-09-2010 17:00:00 11.98 C 10.01 g/m*3 11.98 C 0 km/h
1027 28-09-2010 18:00:00 11.86 C 9.99 g/m*3 11.86 C 0 km/h
1028 28-09-2010 19:00:00 11.72 C 9.95 g/m*3 11.72 C 0 km/h
1029 28-09-2010 20:00:00 11.6 C 9.87 g/m*3 11.6 C 0 km/h
1030 28-09-2010 21:00:00 11.58 C 9.86 g/m*3 11.58 C 0 km/h
1031 28-09-2010 22:00:00 11.62 C 9.89 g/m*3 11.62 C 0 km/h
1032 28-09-2010 23:00:00 11.6 C 9.87 g/m*3 11.6 C 0 km/h
1033 29-09-2010 00:00:00 11.64 C 9.9 g/m*3 11.64 C 0 km/h
1034 29-09-2010 01:00:00 11.62 C 9.89 g/m*3 11.62 C 0 km/h
1035 29-09-2010 02:00:00 11.56 C 9.85 g/m*3 11.56 C 0 km/h
1036 29-09-2010 03:00:00 11.48 C 9.8 g/m*3 11.48 C 0 km/h
1037 29-09-2010 04:00:00 11.48 C 9.8 g/m*3 11.48 C 0 km/h
1038 29-09-2010 05:00:00 11.4 C 9.75 g/m*3 11.4 C 0 km/h
1039 29-09-2010 06:00:00 11.52 C 9.82 g/m*3 11.52 C 0 km/h
1040 29-09-2010 07:00:00 11.04 C 9.53 g/m*3 11.04 C 0 km/h
1041 29-09-2010 08:00:00 11.18 C 9.62 g/m*3 11.18 C 0 km/h
1042 29-09-2010 09:00:00 11.44 C 9.57 g/m*3 11.44 C 0 km/h
1043 29-09-2010 10:00:00 12.92 C 8.98 g/m*3 12.92 C 0 km/h
1044 29-09-2010 11:00:00 13.96 C 8.42 g/m*3 13.96 C 0 km/h
1045 29-09-2010 12:00:00 14.4 C 8.03 g/m*3 14.4 C 0 km/h
1046 29-09-2010 13:00:00 15.74 C 7.89 g/m*3 15.74 C 0 km/h
1047 29-09-2010 14:00:00 16.82 C 7.64 g/m*3 16.82 C 0 km/h
1048 29-09-2010 15:00:00 19.16 C 6.88 g/m*3 19.16 C 0 km/h
1049 29-09-2010 16:00:00 18.14 C 7.62 g/m*3 18.14 C 0 km/h
1050 29-09-2010 17:00:00 18.3 C 7.54 g/m*3 18.3 C 0 km/h
Sensor: Nr:Datum:Temp:Abs-Feuchte:Windchill:Wind:
Aussen-T/F 1051 29-09-2010 18:00:00 14.62 C 7.84 g/m*3 14.62 C 0 km/h
1052 29-09-2010 19:00:00 13.08 C 7.68 g/m*3 13.08 C 0 km/h
1053 29-09-2010 20:00:00 13.12 C 7.7 g/m*3 13.12 C 0 km/h
1054 29-09-2010 21:00:00 12.5 C 7.94 g/m*3 12.5 C 0 km/h
1055 29-09-2010 22:00:00 12.38 C 8.36 g/m*3 12.38 C 0 km/h
1056 29-09-2010 23:00:00 11.96 C 8.33 g/m*3 11.96 C 0 km/h
1057 30-09-2010 00:00:00 12.16 C 8.44 g/m*3 12.16 C 0 km/h
1058 30-09-2010 01:00:00 11.86 C 7.75 g/m*3 11.86 C 0 km/h
1059 30-09-2010 02:00:00 11.46 C 7.62 g/m*3 11.46 C 0 km/h
1060 30-09-2010 03:00:00 11.16 C 7.87 g/m*3 11.16 C 0 km/h
1061 30-09-2010 04:00:00 11.02 C 7.88 g/m*3 11.02 C 0 km/h
1062 30-09-2010 05:00:00 10.76 C 7.79 g/m*3 10.76 C 0 km/h
1063 30-09-2010 06:00:00 10.7 C 7.33 g/m*3 10.7 C 0 km/h
1064 30-09-2010 07:00:00 10.66 C 7.66 g/m*3 10.66 C 0 km/h
1065 30-09-2010 08:00:00 10.9 C 7.76 g/m*3 10.9 C 0 km/h
1066 30-09-2010 09:00:00 11.4 C 7.86 g/m*3 11.4 C 0 km/h
1067 30-09-2010 10:00:00 11.64 C 8.27 g/m*3 11.64 C 0 km/h
1068 30-09-2010 11:00:00 11.86 C 8.47 g/m*3 11.86 C 0 km/h
1069 30-09-2010 12:00:00 11.98 C 8.94 g/m*3 11.98 C 0 km/h
1070 30-09-2010 13:00:00 12.58 C 9.55 g/m*3 12.58 C 0 km/h
1071 30-09-2010 14:00:00 12.94 C 9.9 g/m*3 12.94 C 0 km/h
1072 30-09-2010 15:00:00 13.26 C 10.12 g/m*3 13.26 C 0 km/h
1073 30-09-2010 16:00:00 13.4 C 10.16 g/m*3 13.4 C 0 km/h
1074 30-09-2010 17:00:00 12.96 C 9.98 g/m*3 12.96 C 0 km/h
1075 30-09-2010 18:00:00 12.48 C 9.82 g/m*3 12.48 C 0 km/h
Sensor: Nr:Datum:Temp:Abs-Feuchte:Windchill:Wind:
Aussen-T/F 1076 30-09-2010 19:00:00 12.14 C 9.78 g/m*3 12.14 C 0 km/h
1077 30-09-2010 20:00:00 12.16 C 9.92 g/m*3 12.16 C 0 km/h
1078 30-09-2010 21:00:00 12.08 C 9.96 g/m*3 12.08 C 0 km/h
1079 30-09-2010 22:00:00 11.96 C 9.93 g/m*3 11.96 C 0 km/h
1080 30-09-2010 23:00:00 12 C 10 g/m*3 12 C 0 km/h
1081 01-10-2010 00:00:00 12.02 C 10.05 g/m*3 12.02 C 0 km/h
1082 01-10-2010 01:00:00 11.58 C 9.86 g/m*3 11.58 C 0 km/h
1083 01-10-2010 02:00:00 11.44 C 9.78 g/m*3 11.44 C 0 km/h
1084 01-10-2010 03:00:00 11.56 C 9.85 g/m*3 11.56 C 0 km/h
1085 01-10-2010 04:00:00 11.7 C 9.94 g/m*3 11.7 C 0 km/h
1086 01-10-2010 05:00:00 11.62 C 9.89 g/m*3 11.62 C 0 km/h
1087 01-10-2010 06:00:00 11.4 C 9.75 g/m*3 11.4 C 0 km/h
1088 01-10-2010 07:00:00 11 C 9.51 g/m*3 11 C 0 km/h
1089 01-10-2010 08:00:00 10.3 C 9.1 g/m*3 10.3 C 0 km/h
1090 01-10-2010 09:00:00 11.24 C 9.65 g/m*3 11.24 C 0 km/h
1091 01-10-2010 10:00:00 11.72 C 9.63 g/m*3 11.72 C 0 km/h
1092 01-10-2010 11:00:00 12.46 C 8.84 g/m*3 12.46 C 0 km/h
1093 01-10-2010 12:00:00 12.68 C 8.49 g/m*3 12.68 C 0 km/h
1094 01-10-2010 13:00:00 13.18 C 8.12 g/m*3 13.18 C 0 km/h
1095 01-10-2010 14:00:00 13.32 C 7.94 g/m*3 13.32 C 0 km/h
1096 01-10-2010 15:00:00 15.3 C 7.78 g/m*3 15.3 C 0 km/h
1097 01-10-2010 16:00:00 16.74 C 7.61 g/m*3 16.74 C 0 km/h
1098 01-10-2010 17:00:00 16.14 C 8.35 g/m*3 16.14 C 0 km/h
1099 01-10-2010 18:00:00 14.34 C 8.79 g/m*3 14.34 C 0 km/h
1100 01-10-2010 19:00:00 12.18 C 8.56 g/m*3 12.18 C 0 km/h
Sensor: Nr:Datum:Temp:Abs-Feuchte:Windchill:Wind:
Aussen-T/F 1101 01-10-2010 20:00:00 11.26 C 8.51 g/m*3 11.26 C 0 km/h
1102 01-10-2010 21:00:00 10.86 C 8.53 g/m*3 10.86 C 0 km/h
1103 01-10-2010 22:00:00 10.98 C 8.76 g/m*3 10.98 C 0 km/h
1104 01-10-2010 23:00:00 11.06 C 8.74 g/m*3 11.06 C 0 km/h
1105 02-10-2010 00:00:00 11.12 C 8.71 g/m*3 11.12 C 0 km/h
1106 02-10-2010 01:00:00 10.92 C 8.74 g/m*3 10.92 C 0 km/h
1107 02-10-2010 02:00:00 10.96 C 8.97 g/m*3 10.96 C 0 km/h
1108 02-10-2010 03:00:00 11.1 C 9.15 g/m*3 11.1 C 0 km/h
1109 02-10-2010 04:00:00 11.08 C 9.26 g/m*3 11.08 C 0 km/h
1110 02-10-2010 05:00:00 10.98 C 9.3 g/m*3 10.98 C 0 km/h
1111 02-10-2010 06:00:00 11 C 9.39 g/m*3 11 C 0 km/h
1112 02-10-2010 07:00:00 11.14 C 9.55 g/m*3 11.14 C 0 km/h
1113 02-10-2010 08:00:00 11.46 C 9.79 g/m*3 11.46 C 0 km/h
1114 02-10-2010 09:00:00 12 C 10.12 g/m*3 12 C 0 km/h
1115 02-10-2010 10:00:00 13.14 C 10.75 g/m*3 13.14 C 0 km/h
1116 02-10-2010 11:00:00 14.32 C 11.27 g/m*3 14.32 C 0 km/h
1117 02-10-2010 12:00:00 15.04 C 11.52 g/m*3 15.04 C 0 km/h
1118 02-10-2010 13:00:00 15.74 C 11.53 g/m*3 15.74 C 0 km/h
1119 02-10-2010 14:00:00 15.64 C 11.41 g/m*3 15.64 C 0 km/h
1120 02-10-2010 15:00:00 16 C 11.47 g/m*3 16 C 0 km/h
1121 02-10-2010 16:00:00 16.24 C 11.09 g/m*3 16.24 C 0 km/h
1122 02-10-2010 17:00:00 16.28 C 10.92 g/m*3 16.28 C 0 km/h
1123 02-10-2010 18:00:00 15.42 C 10.92 g/m*3 15.42 C 0 km/h
1124 02-10-2010 19:00:00 14.94 C 10.94 g/m*3 14.94 C 0 km/h
1125 02-10-2010 20:00:00 14.8 C 11.1 g/m*3 14.8 C 0 km/h
Sensor: Nr:Datum:Temp:Abs-Feuchte:Windchill:Wind:
Aussen-T/F 1126 02-10-2010 21:00:00 14.5 C 11.02 g/m*3 14.5 C 0 km/h
1127 02-10-2010 22:00:00 14.48 C 11.16 g/m*3 14.48 C 0 km/h
1128 02-10-2010 23:00:00 14.56 C 11.13 g/m*3 14.56 C 0 km/h
1129 03-10-2010 00:00:00 14.44 C 11.08 g/m*3 14.44 C 0 km/h
1130 03-10-2010 01:00:00 14.7 C 10.7 g/m*3 14.7 C 0 km/h
1131 03-10-2010 02:00:00 14.58 C 10.32 g/m*3 14.58 C 0 km/h
1132 03-10-2010 03:00:00 13.92 C 10.59 g/m*3 13.92 C 0 km/h
1133 03-10-2010 04:00:00 14.08 C 10.62 g/m*3 14.08 C 0 km/h
1134 03-10-2010 05:00:00 14.26 C 10.34 g/m*3 14.26 C 0 km/h
1135 03-10-2010 06:00:00 13.46 C 10.24 g/m*3 13.46 C 0 km/h
1136 03-10-2010 07:00:00 13.42 C 10.43 g/m*3 13.42 C 0 km/h
1137 03-10-2010 08:00:00 13.98 C 10.41 g/m*3 13.98 C 0 km/h
1138 03-10-2010 09:00:00 15.12 C 10.08 g/m*3 15.12 C 0 km/h
1139 03-10-2010 10:00:00 16.78 C 9.91 g/m*3 16.78 C 0 km/h
1140 03-10-2010 11:00:00 18.14 C 10.13 g/m*3 18.14 C 0 km/h
1141 03-10-2010 12:00:00 19.68 C 9.74 g/m*3 19.68 C 0 km/h
1142 03-10-2010 13:00:00 21.36 C 9.43 g/m*3 21.36 C 0 km/h
1143 03-10-2010 14:00:00 23.34 C 9.09 g/m*3 23.34 C 0 km/h
1144 03-10-2010 15:00:00 24.72 C 8.61 g/m*3 24.72 C 0 km/h
1145 03-10-2010 16:00:00 25.12 C 8.67 g/m*3 25.12 C 0 km/h
1146 03-10-2010 17:00:00 25.22 C 9.37 g/m*3 25.22 C 0 km/h
1147 03-10-2010 18:00:00 21.54 C 10.55 g/m*3 21.54 C 0 km/h
1148 03-10-2010 19:00:00 18.78 C 10.84 g/m*3 18.78 C 0 km/h
1149 03-10-2010 20:00:00 18.34 C 10.88 g/m*3 18.34 C 0 km/h
1150 03-10-2010 21:00:00 17.96 C 11.03 g/m*3 17.96 C 0 km/h
Sensor: Nr:Datum:Temp:Abs-Feuchte:Windchill:Wind:
Aussen-T/F 1151 03-10-2010 22:00:00 17.56 C 10.86 g/m*3 17.56 C 0 km/h
1152 03-10-2010 23:00:00 17.56 C 10.32 g/m*3 17.56 C 0 km/h
1153 04-10-2010 00:00:00 17.28 C 9.86 g/m*3 17.28 C 0 km/h
1154 04-10-2010 01:00:00 17.18 C 9.59 g/m*3 17.18 C 0 km/h
1155 04-10-2010 02:00:00 16.82 C 9.65 g/m*3 16.82 C 0 km/h
1156 04-10-2010 03:00:00 15.76 C 9.96 g/m*3 15.76 C 0 km/h
1157 04-10-2010 04:00:00 15.1 C 9.99 g/m*3 15.1 C 0 km/h
1158 04-10-2010 05:00:00 14.3 C 9.95 g/m*3 14.3 C 0 km/h
1159 04-10-2010 06:00:00 13.92 C 9.94 g/m*3 13.92 C 0 km/h
1160 04-10-2010 07:00:00 13.62 C 9.83 g/m*3 13.62 C 0 km/h
1161 04-10-2010 08:00:00 14.26 C 9.8 g/m*3 14.26 C 0 km/h
1162 04-10-2010 09:00:00 15 C 9.23 g/m*3 15 C 0 km/h
1163 04-10-2010 10:00:00 15.66 C 8.97 g/m*3 15.66 C 0 km/h
1164 04-10-2010 11:00:00 17.62 C 8.92 g/m*3 17.62 C 0 km/h
1165 04-10-2010 12:00:00 17.84 C 8.76 g/m*3 17.84 C 0 km/h
1166 04-10-2010 13:00:00 18.72 C 8.62 g/m*3 18.72 C 0 km/h
1167 04-10-2010 14:00:00 19.76 C 8.72 g/m*3 19.76 C 0 km/h
1168 04-10-2010 15:00:00 22.5 C 8.63 g/m*3 22.5 C 0 km/h
1169 04-10-2010 16:00:00 23.64 C 8.23 g/m*3 23.64 C 0 km/h
1170 04-10-2010 17:00:00 21.14 C 9.16 g/m*3 21.14 C 0 km/h
1171 04-10-2010 18:00:00 18.68 C 9.66 g/m*3 18.68 C 0 km/h
1172 04-10-2010 19:00:00 16.52 C 10.09 g/m*3 16.52 C 0 km/h
1173 04-10-2010 20:00:00 16.22 C 10.02 g/m*3 16.22 C 0 km/h
1174 04-10-2010 21:00:00 15.42 C 9.94 g/m*3 15.42 C 0 km/h
1175 04-10-2010 22:00:00 14.56 C 9.91 g/m*3 14.56 C 0 km/h
Sensor: Nr:Datum:Temp:Abs-Feuchte:Windchill:Wind:
Aussen-T/F 1176 04-10-2010 23:00:00 14.2 C 9.92 g/m*3 14.2 C 0 km/h
1177 05-10-2010 00:00:00 14.2 C 10.01 g/m*3 14.2 C 0 km/h
1178 05-10-2010 01:00:00 13.94 C 9.9 g/m*3 13.94 C 0 km/h
1179 05-10-2010 02:00:00 13.52 C 9.84 g/m*3 13.52 C 0 km/h
1180 05-10-2010 03:00:00 13.6 C 10 g/m*3 13.6 C 0 km/h
1181 05-10-2010 04:00:00 13.6 C 10.1 g/m*3 13.6 C 0 km/h
1182 05-10-2010 05:00:00 13.6 C 10.14 g/m*3 13.6 C 0 km/h
1183 05-10-2010 06:00:00 13.42 C 10.38 g/m*3 13.42 C 0 km/h
1184 05-10-2010 07:00:00 13.4 C 10.56 g/m*3 13.4 C 0 km/h
1185 05-10-2010 08:00:00 13.14 C 10.41 g/m*3 13.14 C 0 km/h
1186 05-10-2010 09:00:00 13.3 C 10.68 g/m*3 13.3 C 0 km/h
1187 05-10-2010 10:00:00 14.8 C 11.81 g/m*3 14.8 C 0 km/h
1188 05-10-2010 11:00:00 17.48 C 13.01 g/m*3 17.48 C 0 km/h
1189 05-10-2010 12:00:00 18.1 C 11.43 g/m*3 18.1 C 0 km/h
1190 05-10-2010 13:00:00 19.18 C 11.23 g/m*3 19.18 C 0 km/h
1191 05-10-2010 14:00:00 19.26 C 10.95 g/m*3 19.26 C 0 km/h
1192 05-10-2010 15:00:00 18.8 C 12.63 g/m*3 18.8 C 0 km/h
1193 05-10-2010 16:00:00 18.5 C 12.47 g/m*3 18.5 C 0 km/h
1194 05-10-2010 17:00:00 17.1 C 11.67 g/m*3 17.1 C 0 km/h
1195 05-10-2010 18:00:00 17.02 C 11.44 g/m*3 17.02 C 0 km/h
1196 05-10-2010 19:00:00 16.66 C 11.31 g/m*3 16.66 C 0 km/h
1197 05-10-2010 20:00:00 16.36 C 10.94 g/m*3 16.36 C 0 km/h
1198 05-10-2010 21:00:00 15.68 C 10.26 g/m*3 15.68 C 0 km/h
1199 05-10-2010 22:00:00 15.3 C 9.98 g/m*3 15.3 C 0 km/h
1200 05-10-2010 23:00:00 15.6 C 9.97 g/m*3 15.6 C 0 km/h
Sensor: Nr:Datum:Temp:Abs-Feuchte:Windchill:Wind:
Aussen-T/F 1201 06-10-2010 00:00:00 15.6 C 9.97 g/m*3 15.6 C 0 km/h
1202 06-10-2010 01:00:00 15.5 C 9.99 g/m*3 15.5 C 0 km/h
1203 06-10-2010 02:00:00 15.44 C 10.17 g/m*3 15.44 C 0 km/h
1204 06-10-2010 03:00:00 15.28 C 10.1 g/m*3 15.28 C 0 km/h
1205 06-10-2010 04:00:00 15.1 C 10.09 g/m*3 15.1 C 0 km/h
1206 06-10-2010 05:00:00 14.92 C 10.26 g/m*3 14.92 C 0 km/h
1207 06-10-2010 06:00:00 14.82 C 10.1 g/m*3 14.82 C 0 km/h
1208 06-10-2010 07:00:00 14.66 C 9.95 g/m*3 14.66 C 0 km/h
1209 06-10-2010 08:00:00 14.52 C 10.19 g/m*3 14.52 C 0 km/h
1210 06-10-2010 09:00:00 15.54 C 10.12 g/m*3 15.54 C 0 km/h
1211 06-10-2010 10:00:00 16.24 C 9.93 g/m*3 16.24 C 0 km/h
1212 06-10-2010 11:00:00 17.76 C 9.27 g/m*3 17.76 C 0 km/h
1213 06-10-2010 12:00:00 19.04 C 8.69 g/m*3 19.04 C 0 km/h
1214 06-10-2010 13:00:00 20.2 C 8.5 g/m*3 20.2 C 0 km/h
1215 06-10-2010 14:00:00 21.62 C 8.24 g/m*3 21.62 C 0 km/h
1216 06-10-2010 15:00:00 23.06 C 8.25 g/m*3 23.06 C 0 km/h
1217 06-10-2010 16:00:00 22.84 C 8.96 g/m*3 22.84 C 0 km/h
1218 06-10-2010 17:00:00 21.08 C 10.16 g/m*3 21.08 C 0 km/h
1219 06-10-2010 18:00:00 18.94 C 10.23 g/m*3 18.94 C 0 km/h
1220 06-10-2010 19:00:00 17.3 C 10.19 g/m*3 17.3 C 0 km/h
1221 06-10-2010 20:00:00 16.9 C 10.13 g/m*3 16.9 C 0 km/h
1222 06-10-2010 21:00:00 16.36 C 10.42 g/m*3 16.36 C 0 km/h
1223 06-10-2010 22:00:00 15.74 C 10.52 g/m*3 15.74 C 0 km/h
1224 06-10-2010 23:00:00 14.9 C 10.32 g/m*3 14.9 C 0 km/h
1225 07-10-2010 00:00:00 14.22 C 10.17 g/m*3 14.22 C 0 km/h
Sensor: Nr:Datum:Temp:Abs-Feuchte:Windchill:Wind:
Aussen-T/F 1226 07-10-2010 01:00:00 14.24 C 10.5 g/m*3 14.24 C 0 km/h
1227 07-10-2010 02:00:00 14.24 C 10.43 g/m*3 14.24 C 0 km/h
1228 07-10-2010 03:00:00 14.08 C 10.35 g/m*3 14.08 C 0 km/h
1229 07-10-2010 04:00:00 13.82 C 10.31 g/m*3 13.82 C 0 km/h
1230 07-10-2010 05:00:00 13.3 C 10.17 g/m*3 13.3 C 0 km/h
1231 07-10-2010 06:00:00 13.84 C 10.51 g/m*3 13.84 C 0 km/h
1232 07-10-2010 07:00:00 14.12 C 10.6 g/m*3 14.12 C 0 km/h
1233 07-10-2010 08:00:00 14.66 C 10.9 g/m*3 14.66 C 0 km/h
1234 07-10-2010 09:00:00 15.06 C 10.6 g/m*3 15.06 C 0 km/h
1235 07-10-2010 10:00:00 16.18 C 10.33 g/m*3 16.18 C 0 km/h
1236 07-10-2010 11:00:00 17.26 C 10.32 g/m*3 17.26 C 0 km/h
1237 07-10-2010 12:00:00 18.4 C 9.97 g/m*3 18.4 C 0 km/h
1238 07-10-2010 13:00:00 19.26 C 9.83 g/m*3 19.26 C 0 km/h
1239 07-10-2010 14:00:00 19.88 C 9.78 g/m*3 19.88 C 0 km/h
1240 07-10-2010 15:00:00 20.5 C 9.5 g/m*3 20.5 C 0 km/h
1241 07-10-2010 16:00:00 19.94 C 9.47 g/m*3 19.94 C 0 km/h
1242 07-10-2010 17:00:00 19.16 C 9.57 g/m*3 19.16 C 0 km/h
1243 07-10-2010 18:00:00 17.88 C 10.22 g/m*3 17.88 C 0 km/h
1244 07-10-2010 19:00:00 16.9 C 10.38 g/m*3 16.9 C 0 km/h
1245 07-10-2010 20:00:00 16.3 C 10.35 g/m*3 16.3 C 0 km/h
1246 07-10-2010 21:00:00 16.22 C 10.13 g/m*3 16.22 C 0 km/h
1247 07-10-2010 22:00:00 16 C 9.86 g/m*3 16 C 0 km/h
1248 07-10-2010 23:00:00 16.02 C 9.74 g/m*3 16.02 C 0 km/h
1249 08-10-2010 00:00:00 15.82 C 9.89 g/m*3 15.82 C 0 km/h
1250 08-10-2010 01:00:00 15.62 C 9.67 g/m*3 15.62 C 0 km/h
Sensor: Nr:Datum:Temp:Abs-Feuchte:Windchill:Wind:
Aussen-T/F 1251 08-10-2010 02:00:00 15.44 C 9.35 g/m*3 15.44 C 0 km/h
1252 08-10-2010 03:00:00 14.92 C 8.75 g/m*3 14.92 C 0 km/h
1253 08-10-2010 04:00:00 14.52 C 8.57 g/m*3 14.52 C 0 km/h
1254 08-10-2010 05:00:00 14.24 C 8.81 g/m*3 14.24 C 0 km/h
1255 08-10-2010 06:00:00 13.98 C 8.96 g/m*3 13.98 C 0 km/h
1256 08-10-2010 07:00:00 14.02 C 9.13 g/m*3 14.02 C 0 km/h
1257 08-10-2010 08:00:00 14.2 C 9.23 g/m*3 14.2 C 0 km/h
1258 08-10-2010 09:00:00 14.6 C 9.41 g/m*3 14.6 C 0 km/h
1259 08-10-2010 10:00:00 15.28 C 9.47 g/m*3 15.28 C 0 km/h
1260 08-10-2010 11:00:00 15.86 C 9.29 g/m*3 15.86 C 0 km/h
1261 08-10-2010 12:00:00 16.54 C 9.09 g/m*3 16.54 C 0 km/h
1262 08-10-2010 13:00:00 16.94 C 8.77 g/m*3 16.94 C 0 km/h
1263 08-10-2010 14:00:00 18.76 C 8.77 g/m*3 18.76 C 0 km/h
1264 08-10-2010 15:00:00 20.32 C 8.52 g/m*3 20.32 C 0 km/h
1265 08-10-2010 16:00:00 22.2 C 8.95 g/m*3 22.2 C 0 km/h
1266 08-10-2010 17:00:00 21.78 C 9.24 g/m*3 21.78 C 0 km/h
1267 08-10-2010 18:00:00 19.06 C 9.68 g/m*3 19.06 C 0 km/h
1268 08-10-2010 19:00:00 15.88 C 9.98 g/m*3 15.88 C 0 km/h
1269 08-10-2010 20:00:00 14.78 C 9.79 g/m*3 14.78 C 0 km/h
1270 08-10-2010 21:00:00 14.08 C 9.65 g/m*3 14.08 C 0 km/h
1271 08-10-2010 22:00:00 13.28 C 9.51 g/m*3 13.28 C 0 km/h
1272 08-10-2010 23:00:00 12.58 C 9.3 g/m*3 12.58 C 0 km/h
1273 09-10-2010 00:00:00 11.9 C 9.11 g/m*3 11.9 C 0 km/h
1274 09-10-2010 01:00:00 11.34 C 8.96 g/m*3 11.34 C 0 km/h
1275 09-10-2010 02:00:00 10.74 C 8.68 g/m*3 10.74 C 0 km/h
Sensor: Nr:Datum:Temp:Abs-Feuchte:Windchill:Wind:
Aussen-T/F 1276 09-10-2010 03:00:00 10.24 C 8.43 g/m*3 10.24 C 0 km/h
1277 09-10-2010 04:00:00 9.78 C 8.32 g/m*3 9.78 C 0 km/h
1278 09-10-2010 05:00:00 9.52 C 8.29 g/m*3 9.52 C 0 km/h
1279 09-10-2010 06:00:00 9.42 C 8.31 g/m*3 9.42 C 0 km/h
1280 09-10-2010 07:00:00 9.24 C 8.24 g/m*3 9.24 C 0 km/h
1281 09-10-2010 08:00:00 9.2 C 8.22 g/m*3 9.2 C 0 km/h
1282 09-10-2010 09:00:00 9.28 C 8.24 g/m*3 9.28 C 0 km/h
1283 09-10-2010 10:00:00 10.44 C 8.87 g/m*3 10.44 C 0 km/h
1284 09-10-2010 11:00:00 12.52 C 9.53 g/m*3 12.52 C 0 km/h
1285 09-10-2010 12:00:00 14.68 C 8.2 g/m*3 14.68 C 0 km/h
1286 09-10-2010 13:00:00 17.1 C 7.89 g/m*3 17.1 C 0 km/h
1287 09-10-2010 14:00:00 19.96 C 7.03 g/m*3 19.96 C 0 km/h
1288 09-10-2010 15:00:00 21.86 C 6.28 g/m*3 21.86 C 0 km/h
1289 09-10-2010 16:00:00 22.16 C 6.23 g/m*3 22.16 C 0 km/h
1290 09-10-2010 17:00:00 20.8 C 6.19 g/m*3 20.8 C 0 km/h
1291 09-10-2010 18:00:00 17.02 C 6.26 g/m*3 17.02 C 0 km/h
1292 09-10-2010 19:00:00 13.8 C 6.12 g/m*3 13.8 C 0 km/h
1293 09-10-2010 20:00:00 12.84 C 6.58 g/m*3 12.84 C 0 km/h
1294 09-10-2010 21:00:00 11.48 C 6.99 g/m*3 11.48 C 0 km/h
1295 09-10-2010 22:00:00 10.6 C 7.03 g/m*3 10.6 C 0 km/h
1296 09-10-2010 23:00:00 9.62 C 6.92 g/m*3 9.62 C 0 km/h
1297 10-10-2010 00:00:00 8.94 C 6.99 g/m*3 8.94 C 0 km/h
1298 10-10-2010 01:00:00 8.38 C 6.93 g/m*3 8.38 C 0 km/h
1299 10-10-2010 02:00:00 7.76 C 6.82 g/m*3 7.76 C 0 km/h
1300 10-10-2010 03:00:00 7.14 C 6.66 g/m*3 7.14 C 0 km/h
Sensor: Nr:Datum:Temp:Abs-Feuchte:Windchill:Wind:
Aussen-T/F 1301 10-10-2010 04:00:00 6.76 C 6.61 g/m*3 6.76 C 0 km/h
1302 10-10-2010 05:00:00 6.28 C 6.45 g/m*3 6.28 C 0 km/h
1303 10-10-2010 06:00:00 5.86 C 6.36 g/m*3 5.86 C 0 km/h
1304 10-10-2010 07:00:00 5.5 C 6.31 g/m*3 5.5 C 0 km/h
1305 10-10-2010 08:00:00 6.36 C 6.69 g/m*3 6.36 C 0 km/h
1306 10-10-2010 09:00:00 7.26 C 6.79 g/m*3 7.26 C 0 km/h
1307 10-10-2010 10:00:00 8.92 C 6.6 g/m*3 8.92 C 0 km/h
1308 10-10-2010 11:00:00 10.92 C 6.57 g/m*3 10.92 C 0 km/h
1309 10-10-2010 12:00:00 12.8 C 6.47 g/m*3 12.8 C 0 km/h
1310 10-10-2010 13:00:00 15.86 C 5.67 g/m*3 15.86 C 0 km/h
1311 10-10-2010 14:00:00 18.62 C 5.45 g/m*3 18.62 C 0 km/h
1312 10-10-2010 15:00:00 20.4 C 5.91 g/m*3 20.4 C 0 km/h
1313 10-10-2010 16:00:00 21.28 C 5.7 g/m*3 21.28 C 0 km/h
1314 10-10-2010 17:00:00 20.64 C 5.6 g/m*3 20.64 C 0 km/h
1315 10-10-2010 18:00:00 17.2 C 5.45 g/m*3 17.2 C 0 km/h
1316 10-10-2010 19:00:00 14.18 C 5.49 g/m*3 14.18 C 0 km/h
1317 10-10-2010 20:00:00 13.02 C 4.91 g/m*3 13.02 C 0 km/h
1318 10-10-2010 21:00:00 12.44 C 4.01 g/m*3 12.44 C 0 km/h
1319 10-10-2010 22:00:00 11.46 C 4.12 g/m*3 11.46 C 0 km/h
1320 10-10-2010 23:00:00 10.72 C 4.52 g/m*3 10.72 C 0 km/h
1321 11-10-2010 00:00:00 9.98 C 4.88 g/m*3 9.98 C 0 km/h
1322 11-10-2010 01:00:00 9.44 C 4.91 g/m*3 9.44 C 0 km/h
1323 11-10-2010 02:00:00 9.08 C 4.87 g/m*3 9.08 C 0 km/h
1324 11-10-2010 03:00:00 8.24 C 4.99 g/m*3 8.24 C 0 km/h
1325 11-10-2010 04:00:00 7.58 C 5.1 g/m*3 7.58 C 0 km/h
Sensor: Nr:Datum:Temp:Abs-Feuchte:Windchill:Wind:
Aussen-T/F 1326 11-10-2010 05:00:00 6.64 C 5.24 g/m*3 6.64 C 0 km/h
1327 11-10-2010 06:00:00 5.72 C 5.32 g/m*3 5.72 C 0 km/h
1328 11-10-2010 07:00:00 5.22 C 5.36 g/m*3 5.22 C 0 km/h
1329 11-10-2010 08:00:00 4.96 C 5.39 g/m*3 4.96 C 0 km/h
1330 11-10-2010 09:00:00 5.6 C 5.7 g/m*3 5.6 C 0 km/h
1331 11-10-2010 10:00:00 7.12 C 6.11 g/m*3 7.12 C 0 km/h
1332 11-10-2010 11:00:00 9.46 C 6.36 g/m*3 9.46 C 0 km/h
1333 11-10-2010 12:00:00 11.62 C 6.45 g/m*3 11.62 C 0 km/h
1334 11-10-2010 13:00:00 14.92 C 5.9 g/m*3 14.92 C 0 km/h
1335 11-10-2010 14:00:00 17.48 C 5.45 g/m*3 17.48 C 0 km/h
1336 11-10-2010 15:00:00 19.78 C 5.05 g/m*3 19.78 C 0 km/h
1337 11-10-2010 16:00:00 20.96 C 4.61 g/m*3 20.96 C 0 km/h
1338 11-10-2010 17:00:00 19.56 C 3.6 g/m*3 19.56 C 0 km/h
1339 11-10-2010 18:00:00 16.12 C 3.98 g/m*3 16.12 C 0 km/h
1340 11-10-2010 19:00:00 13.18 C 4.33 g/m*3 13.18 C 0 km/h
1341 11-10-2010 20:00:00 11.32 C 4.82 g/m*3 11.32 C 0 km/h
1342 11-10-2010 21:00:00 10.025 C 4.96 g/m*3 10.03 C 0 km/h
1343 11-10-2010 22:00:00 9.2 C 4.84 g/m*3 9.2 C 0 km/h
1344 11-10-2010 23:00:00 8.24 C 4.87 g/m*3 8.24 C 0 km/h
1345 12-10-2010 00:00:00 7.16 C 5.01 g/m*3 7.16 C 0 km/h
1346 12-10-2010 01:00:00 6.4 C 5.13 g/m*3 6.4 C 0 km/h
1347 12-10-2010 02:00:00 5.74 C 5.24 g/m*3 5.74 C 0 km/h
1348 12-10-2010 03:00:00 5.04 C 5.31 g/m*3 5.04 C 0 km/h
1349 12-10-2010 04:00:00 4.42 C 5.34 g/m*3 4.42 C 0 km/h
1350 12-10-2010 05:00:00 3.8 C 5.31 g/m*3 3.8 C 0 km/h
Sensor: Nr:Datum:Temp:Abs-Feuchte:Windchill:Wind:
Aussen-T/F 1351 12-10-2010 06:00:00 3.46 C 5.26 g/m*3 3.46 C 0 km/h
1352 12-10-2010 07:00:00 2.94 C 5.15 g/m*3 2.94 C 0 km/h
1353 12-10-2010 08:00:00 3.56 C 5.52 g/m*3 3.56 C 0 km/h
1354 12-10-2010 09:00:00 4.9 C 5.93 g/m*3 4.9 C 0 km/h
1355 12-10-2010 10:00:00 5.82 C 6.07 g/m*3 5.82 C 0 km/h
1356 12-10-2010 11:00:00 7.16 C 6.36 g/m*3 7.16 C 0 km/h
1357 12-10-2010 12:00:00 9.56 C 6.18 g/m*3 9.56 C 0 km/h
1358 12-10-2010 13:00:00 12.58 C 5.72 g/m*3 12.58 C 0 km/h
1359 12-10-2010 14:00:00 15.26 C 5.65 g/m*3 15.26 C 0 km/h
1360 12-10-2010 15:00:00 16.94 C 5.42 g/m*3 16.94 C 0 km/h
1361 12-10-2010 16:00:00 17.66 C 5.42 g/m*3 17.66 C 0 km/h
1362 12-10-2010 17:00:00 17.22 C 4.57 g/m*3 17.22 C 0 km/h
1363 12-10-2010 18:00:00 14.5 C 5.65 g/m*3 14.5 C 0 km/h
1364 12-10-2010 19:00:00 11.42 C 6.45 g/m*3 11.42 C 0 km/h
1365 12-10-2010 20:00:00 9.84 C 6.47 g/m*3 9.84 C 0 km/h
1366 12-10-2010 21:00:00 8.36 C 6.26 g/m*3 8.36 C 0 km/h
1367 12-10-2010 22:00:00 7.74 C 6.15 g/m*3 7.74 C 0 km/h
1368 12-10-2010 23:00:00 7.78 C 6 g/m*3 7.78 C 0 km/h
1369 13-10-2010 00:00:00 7.6 C 5.86 g/m*3 7.6 C 0 km/h
1370 13-10-2010 01:00:00 7.02 C 5.82 g/m*3 7.02 C 0 km/h
1371 13-10-2010 02:00:00 6.8 C 5.83 g/m*3 6.8 C 0 km/h
1372 13-10-2010 03:00:00 6.44 C 5.69 g/m*3 6.44 C 0 km/h
1373 13-10-2010 04:00:00 6.2 C 5.59 g/m*3 6.2 C 0 km/h
1374 13-10-2010 05:00:00 6.1 C 5.6 g/m*3 6.1 C 0 km/h
1375 13-10-2010 06:00:00 5.84 C 5.6 g/m*3 5.84 C 0 km/h
Sensor: Nr:Datum:Temp:Abs-Feuchte:Windchill:Wind:
Aussen-T/F 1376 13-10-2010 07:00:00 5.42 C 5.53 g/m*3 5.42 C 0 km/h
1377 13-10-2010 08:00:00 5.62 C 5.49 g/m*3 5.62 C 0 km/h
1378 13-10-2010 09:00:00 5.86 C 5.45 g/m*3 5.86 C 0 km/h
1379 13-10-2010 10:00:00 6.66 C 5.3 g/m*3 6.66 C 0 km/h
1380 13-10-2010 11:00:00 7.04 C 5.08 g/m*3 7.04 C 0 km/h
1381 13-10-2010 12:00:00 8.14 C 5.06 g/m*3 8.14 C 0 km/h
1382 13-10-2010 13:00:00 8.8 C 4.89 g/m*3 8.8 C 0 km/h
1383 13-10-2010 14:00:00 9.8 C 4.95 g/m*3 9.8 C 0 km/h
1384 13-10-2010 15:00:00 11.78 C 4.94 g/m*3 11.78 C 0 km/h
1385 13-10-2010 16:00:00 12.06 C 5.01 g/m*3 12.06 C 0 km/h
1386 13-10-2010 17:00:00 12.34 C 5.23 g/m*3 12.34 C 0 km/h
1387 13-10-2010 18:00:00 9.94 C 5.5 g/m*3 9.94 C 0 km/h
1388 13-10-2010 19:00:00 7.48 C 5.76 g/m*3 7.48 C 0 km/h
1389 13-10-2010 20:00:00 6.96 C 5.81 g/m*3 6.96 C 0 km/h
1390 13-10-2010 21:00:00 5.82 C 5.72 g/m*3 5.82 C 0 km/h
1391 13-10-2010 22:00:00 5.16 C 5.73 g/m*3 5.16 C 0 km/h
1392 13-10-2010 23:00:00 4.52 C 5.61 g/m*3 4.52 C 0 km/h
1393 14-10-2010 00:00:00 3.88 C 5.51 g/m*3 3.88 C 0 km/h
1394 14-10-2010 01:00:00 3.38 C 5.47 g/m*3 3.38 C 0 km/h
1395 14-10-2010 02:00:00 3.62 C 5.65 g/m*3 3.62 C 0 km/h
1396 14-10-2010 03:00:00 3.52 C 5.57 g/m*3 3.52 C 0 km/h
1397 14-10-2010 04:00:00 3.54 C 5.55 g/m*3 3.54 C 0 km/h
1398 14-10-2010 05:00:00 3.62 C 5.63 g/m*3 3.62 C 0 km/h
1399 14-10-2010 06:00:00 3.92 C 5.7 g/m*3 3.92 C 0 km/h
1400 14-10-2010 07:00:00 4.12 C 5.76 g/m*3 4.12 C 0 km/h
Sensor: Nr:Datum:Temp:Abs-Feuchte:Windchill:Wind:
Aussen-T/F 1401 14-10-2010 08:00:00 4.44 C 5.84 g/m*3 4.44 C 0 km/h
1402 14-10-2010 09:00:00 4.56 C 5.86 g/m*3 4.56 C 0 km/h
1403 14-10-2010 10:00:00 5.16 C 5.88 g/m*3 5.16 C 0 km/h
1404 14-10-2010 11:00:00 6.2 C 5.75 g/m*3 6.2 C 0 km/h
1405 14-10-2010 12:00:00 7.86 C 5.59 g/m*3 7.86 C 0 km/h
1406 14-10-2010 13:00:00 9.36 C 5.58 g/m*3 9.36 C 0 km/h
1407 14-10-2010 14:00:00 11.86 C 5.85 g/m*3 11.86 C 0 km/h
1408 14-10-2010 15:00:00 13.94 C 5.72 g/m*3 13.94 C 0 km/h
1409 14-10-2010 16:00:00 14.4 C 5.83 g/m*3 14.4 C 0 km/h
1410 14-10-2010 17:00:00 13.24 C 5.5 g/m*3 13.24 C 0 km/h
1411 14-10-2010 18:00:00 11.04 C 5.96 g/m*3 11.04 C 0 km/h
1412 14-10-2010 19:00:00 10.26 C 6.25 g/m*3 10.26 C 0 km/h
1413 14-10-2010 20:00:00 10.2 C 6.24 g/m*3 10.2 C 0 km/h
1414 14-10-2010 21:00:00 9.8 C 6.33 g/m*3 9.8 C 0 km/h
1415 14-10-2010 22:00:00 9.74 C 6.51 g/m*3 9.74 C 0 km/h
1416 14-10-2010 23:00:00 9.68 C 6.68 g/m*3 9.68 C 0 km/h
1417 15-10-2010 00:00:00 9.5 C 6.75 g/m*3 9.5 C 0 km/h
1418 15-10-2010 01:00:00 9.42 C 6.88 g/m*3 9.42 C 0 km/h
1419 15-10-2010 02:00:00 9.24 C 7.13 g/m*3 9.24 C 0 km/h
1420 15-10-2010 03:00:00 9.28 C 7.25 g/m*3 9.28 C 0 km/h
1421 15-10-2010 04:00:00 9.28 C 7.36 g/m*3 9.28 C 0 km/h
1422 15-10-2010 05:00:00 9.2 C 7.41 g/m*3 9.2 C 0 km/h
1423 15-10-2010 06:00:00 9.3 C 7.66 g/m*3 9.3 C 0 km/h
1424 15-10-2010 07:00:00 9.28 C 7.74 g/m*3 9.28 C 0 km/h
1425 15-10-2010 08:00:00 9.24 C 7.86 g/m*3 9.24 C 0 km/h
Sensor: Nr:Datum:Temp:Abs-Feuchte:Windchill:Wind:
Aussen-T/F 1426 15-10-2010 09:00:00 9.82 C 8.19 g/m*3 9.82 C 0 km/h
1427 15-10-2010 10:00:00 10.72 C 8.06 g/m*3 10.72 C 0 km/h
1428 15-10-2010 11:00:00 11.52 C 7.76 g/m*3 11.52 C 0 km/h
1429 15-10-2010 12:00:00 12.42 C 7.33 g/m*3 12.42 C 0 km/h
1430 15-10-2010 13:00:00 13.38 C 6.9 g/m*3 13.38 C 0 km/h
1431 15-10-2010 14:00:00 12.78 C 6.76 g/m*3 12.78 C 0 km/h
1432 15-10-2010 15:00:00 12.86 C 6.68 g/m*3 12.86 C 0 km/h
1433 15-10-2010 16:00:00 12.24 C 6.79 g/m*3 12.24 C 0 km/h
1434 15-10-2010 17:00:00 11.56 C 7.07 g/m*3 11.56 C 0 km/h
1435 15-10-2010 18:00:00 10.88 C 7.03 g/m*3 10.88 C 0 km/h
1436 15-10-2010 19:00:00 10.52 C 7.01 g/m*3 10.52 C 0 km/h
1437 15-10-2010 20:00:00 10.36 C 7.02 g/m*3 10.36 C 0 km/h
1438 15-10-2010 21:00:00 10.1 C 7.19 g/m*3 10.1 C 0 km/h
1439 15-10-2010 22:00:00 9.3 C 7.67 g/m*3 9.3 C 0 km/h
1440 15-10-2010 23:00:00 9.2 C 8.04 g/m*3 9.2 C 0 km/h
1441 16-10-2010 00:00:00 9.02 C 8.16 g/m*3 9.02 C 0 km/h
1442 16-10-2010 01:00:00 8.82 C 8.19 g/m*3 8.82 C 0 km/h
1443 16-10-2010 02:00:00 8.78 C 8.22 g/m*3 8.78 C 0 km/h
1444 16-10-2010 03:00:00 8.68 C 8.21 g/m*3 8.68 C 0 km/h
1445 16-10-2010 04:00:00 8.54 C 8.13 g/m*3 8.54 C 0 km/h
1446 16-10-2010 05:00:00 8.36 C 8.04 g/m*3 8.36 C 0 km/h
1447 16-10-2010 06:00:00 8.3 C 8.01 g/m*3 8.3 C 0 km/h
1448 16-10-2010 07:00:00 8.12 C 7.88 g/m*3 8.12 C 0 km/h
1449 16-10-2010 08:00:00 8.1 C 7.77 g/m*3 8.1 C 0 km/h
1450 16-10-2010 09:00:00 8.24 C 7.81 g/m*3 8.24 C 0 km/h
Sensor: Nr:Datum:Temp:Abs-Feuchte:Windchill:Wind:
Aussen-T/F 1451 16-10-2010 10:00:00 8.64 C 8.03 g/m*3 8.64 C 0 km/h
1452 16-10-2010 11:00:00 8.96 C 8.11 g/m*3 8.96 C 0 km/h
1453 16-10-2010 12:00:00 9.38 C 8.11 g/m*3 9.38 C 0 km/h
1454 16-10-2010 13:00:00 9.72 C 8.16 g/m*3 9.72 C 0 km/h
1455 16-10-2010 14:00:00 9.96 C 7.89 g/m*3 9.96 C 0 km/h
1456 16-10-2010 15:00:00 10.08 C 7.82 g/m*3 10.08 C 0 km/h
1457 16-10-2010 16:00:00 9.9 C 7.84 g/m*3 9.9 C 0 km/h
1458 16-10-2010 17:00:00 9.36 C 7.9 g/m*3 9.36 C 0 km/h
1459 16-10-2010 18:00:00 8.38 C 6.98 g/m*3 8.38 C 0 km/h
1460 16-10-2010 19:00:00 6.96 C 6.55 g/m*3 6.96 C 0 km/h
1461 16-10-2010 20:00:00 6.56 C 6.31 g/m*3 6.56 C 0 km/h
1462 16-10-2010 21:00:00 6.28 C 6.21 g/m*3 6.28 C 0 km/h
1463 16-10-2010 22:00:00 5.9 C 6.37 g/m*3 5.9 C 0 km/h
1464 16-10-2010 23:00:00 5.96 C 6.56 g/m*3 5.96 C 0 km/h
1465 17-10-2010 00:00:00 6.14 C 6.7 g/m*3 6.14 C 0 km/h
1466 17-10-2010 01:00:00 6.24 C 6.71 g/m*3 6.24 C 0 km/h
1467 17-10-2010 02:00:00 6.22 C 6.61 g/m*3 6.22 C 0 km/h
1468 17-10-2010 03:00:00 6.24 C 6.49 g/m*3 6.24 C 0 km/h
1469 17-10-2010 04:00:00 6.22 C 6.33 g/m*3 6.22 C 0 km/h
1470 17-10-2010 05:00:00 6.3 C 6.43 g/m*3 6.3 C 0 km/h
1471 17-10-2010 06:00:00 6.34 C 6.46 g/m*3 6.34 C 0 km/h
1472 17-10-2010 07:00:00 6.34 C 6.29 g/m*3 6.34 C 0 km/h
1473 17-10-2010 08:00:00 6.58 C 6.17 g/m*3 6.58 C 0 km/h
1474 17-10-2010 09:00:00 6.88 C 6.15 g/m*3 6.88 C 0 km/h
1475 17-10-2010 10:00:00 7.32 C 6.14 g/m*3 7.32 C 0 km/h
Sensor: Nr:Datum:Temp:Abs-Feuchte:Windchill:Wind:
Aussen-T/F 1476 17-10-2010 11:00:00 7.7 C 5.98 g/m*3 7.7 C 0 km/h
1477 17-10-2010 12:00:00 7.88 C 5.97 g/m*3 7.88 C 0 km/h
1478 17-10-2010 13:00:00 8.1 C 5.96 g/m*3 8.1 C 0 km/h
1479 17-10-2010 14:00:00 8.36 C 6.14 g/m*3 8.36 C 0 km/h
1480 17-10-2010 15:00:00 8.52 C 6.12 g/m*3 8.52 C 0 km/h
1481 17-10-2010 16:00:00 8.46 C 6.28 g/m*3 8.46 C 0 km/h
1482 17-10-2010 17:00:00 8.3 C 6.32 g/m*3 8.3 C 0 km/h
1483 17-10-2010 18:00:00 7.9 C 6.32 g/m*3 7.9 C 0 km/h
1484 17-10-2010 19:00:00 7.68 C 6.38 g/m*3 7.68 C 0 km/h
1485 17-10-2010 20:00:00 7.68 C 6.43 g/m*3 7.68 C 0 km/h
1486 17-10-2010 21:00:00 7.62 C 6.44 g/m*3 7.62 C 0 km/h
1487 17-10-2010 22:00:00 7.38 C 6.43 g/m*3 7.38 C 0 km/h
1488 17-10-2010 23:00:00 7.04 C 6.31 g/m*3 7.04 C 0 km/h
1489 18-10-2010 00:00:00 6.48 C 6.19 g/m*3 6.48 C 0 km/h
1490 18-10-2010 01:00:00 5.18 C 5.97 g/m*3 5.18 C 0 km/h
1491 18-10-2010 02:00:00 5.8 C 6.35 g/m*3 5.8 C 0 km/h
1492 18-10-2010 03:00:00 6 C 6.3 g/m*3 6 C 0 km/h
1493 18-10-2010 04:00:00 6.02 C 6.25 g/m*3 6.02 C 0 km/h
1494 18-10-2010 05:00:00 5.84 C 6.1 g/m*3 5.84 C 0 km/h
1495 18-10-2010 06:00:00 5.8 C 6.16 g/m*3 5.8 C 0 km/h
1496 18-10-2010 07:00:00 5.76 C 6.14 g/m*3 5.76 C 0 km/h
1497 18-10-2010 08:00:00 5.78 C 6.2 g/m*3 5.78 C 0 km/h
1498 18-10-2010 09:00:00 6.66 C 6.44 g/m*3 6.66 C 0 km/h
1499 18-10-2010 10:00:00 7.56 C 5.99 g/m*3 7.56 C 0 km/h
1500 18-10-2010 11:00:00 7.76 C 5.06 g/m*3 7.76 C 0 km/h
Sensor: Nr:Datum:Temp:Abs-Feuchte:Windchill:Wind:
Aussen-T/F 1501 18-10-2010 12:00:00 8.26 C 4.98 g/m*3 8.26 C 0 km/h
1502 18-10-2010 13:00:00 8.82 C 4.85 g/m*3 8.82 C 0 km/h
1503 18-10-2010 14:00:00 8.88 C 4.86 g/m*3 8.88 C 0 km/h
1504 18-10-2010 15:00:00 8.74 C 4.86 g/m*3 8.74 C 0 km/h
1505 18-10-2010 16:00:00 8.74 C 4.91 g/m*3 8.74 C 0 km/h
1506 18-10-2010 17:00:00 8.52 C 4.86 g/m*3 8.52 C 0 km/h
1507 18-10-2010 18:00:00 7.76 C 4.97 g/m*3 7.76 C 0 km/h
1508 18-10-2010 19:00:00 6.32 C 4.89 g/m*3 6.32 C 0 km/h
1509 18-10-2010 20:00:00 5.6 C 5.05 g/m*3 5.6 C 0 km/h
1510 18-10-2010 21:00:00 5.18 C 5.03 g/m*3 5.18 C 0 km/h
1511 18-10-2010 22:00:00 4.92 C 5.06 g/m*3 4.92 C 0 km/h
1512 18-10-2010 23:00:00 4.86 C 5.17 g/m*3 4.86 C 0 km/h
1513 19-10-2010 00:00:00 5.14 C 5.24 g/m*3 5.14 C 0 km/h
1514 19-10-2010 01:00:00 5.42 C 5.27 g/m*3 5.42 C 0 km/h
1515 19-10-2010 02:00:00 5.5 C 5.32 g/m*3 5.5 C 0 km/h
1516 19-10-2010 03:00:00 4.96 C 5.75 g/m*3 4.96 C 0 km/h
1517 19-10-2010 04:00:00 5.04 C 6.04 g/m*3 5.04 C 0 km/h
1518 19-10-2010 05:00:00 5.42 C 6.06 g/m*3 5.42 C 0 km/h
1519 19-10-2010 06:00:00 5.6 C 6.31 g/m*3 5.6 C 0 km/h
1520 19-10-2010 07:00:00 5.98 C 6.38 g/m*3 5.98 C 0 km/h
1521 19-10-2010 08:00:00 5.98 C 6.42 g/m*3 5.98 C 0 km/h
1522 19-10-2010 09:00:00 6.54 C 6.62 g/m*3 6.54 C 0 km/h
1523 19-10-2010 10:00:00 7.34 C 6.65 g/m*3 7.34 C 0 km/h
1524 19-10-2010 11:00:00 7.5 C 6.93 g/m*3 7.5 C 0 km/h
1525 19-10-2010 12:00:00 7.98 C 7.08 g/m*3 7.98 C 0 km/h
Sensor: Nr:Datum:Temp:Abs-Feuchte:Windchill:Wind:
Aussen-T/F 1526 19-10-2010 13:00:00 9.08 C 7.48 g/m*3 9.08 C 0 km/h
1527 19-10-2010 14:00:00 9.8 C 7.42 g/m*3 9.8 C 0 km/h
1528 19-10-2010 15:00:00 10.34 C 7.37 g/m*3 10.34 C 0 km/h
1529 19-10-2010 16:00:00 12.46 C 7 g/m*3 12.46 C 0 km/h
1530 19-10-2010 17:00:00 10.3 C 7.22 g/m*3 10.3 C 0 km/h
1531 19-10-2010 18:00:00 9.04 C 6.96 g/m*3 9.04 C 0 km/h
1532 19-10-2010 19:00:00 7.98 C 6.85 g/m*3 7.98 C 0 km/h
1533 19-10-2010 20:00:00 7.36 C 6.46 g/m*3 7.36 C 0 km/h
1534 19-10-2010 21:00:00 6.94 C 6.22 g/m*3 6.94 C 0 km/h
1535 19-10-2010 22:00:00 6.52 C 6.16 g/m*3 6.52 C 0 km/h
1536 19-10-2010 23:00:00 6.54 C 6.2 g/m*3 6.54 C 0 km/h
1537 20-10-2010 00:00:00 6.34 C 6.16 g/m*3 6.34 C 0 km/h
1538 20-10-2010 01:00:00 6.38 C 6.16 g/m*3 6.38 C 0 km/h
1539 20-10-2010 02:00:00 5.94 C 6.39 g/m*3 5.94 C 0 km/h
1540 20-10-2010 03:00:00 5.76 C 6.53 g/m*3 5.76 C 0 km/h
1541 20-10-2010 04:00:00 5.84 C 6.51 g/m*3 5.84 C 0 km/h
1542 20-10-2010 05:00:00 5.62 C 6.56 g/m*3 5.62 C 0 km/h
1543 20-10-2010 06:00:00 5.52 C 6.61 g/m*3 5.52 C 0 km/h
1544 20-10-2010 07:00:00 5.5 C 6.64 g/m*3 5.5 C 0 km/h
1545 20-10-2010 08:00:00 5.6 C 6.66 g/m*3 5.6 C 0 km/h
1546 20-10-2010 09:00:00 6 C 6.84 g/m*3 6 C 0 km/h
1547 20-10-2010 10:00:00 6.92 C 6.95 g/m*3 6.92 C 0 km/h
1548 20-10-2010 11:00:00 6.84 C 6.44 g/m*3 6.84 C 0 km/h
1549 20-10-2010 12:00:00 6.92 C 6.38 g/m*3 6.92 C 0 km/h
1550 20-10-2010 13:00:00 7.92 C 6.2 g/m*3 7.92 C 0 km/h
Sensor: Nr:Datum:Temp:Abs-Feuchte:Windchill:Wind:
Aussen-T/F 1551 20-10-2010 14:00:00 9.48 C 5.67 g/m*3 9.48 C 0 km/h
1552 20-10-2010 15:00:00 7.68 C 5.56 g/m*3 7.68 C 0 km/h
1553 20-10-2010 16:00:00 7.36 C 5.06 g/m*3 7.36 C 0 km/h
1554 20-10-2010 17:00:00 7.02 C 4.92 g/m*3 7.02 C 0 km/h
1555 20-10-2010 18:00:00 6.32 C 5.04 g/m*3 6.32 C 0 km/h
1556 20-10-2010 19:00:00 4.64 C 5.24 g/m*3 4.64 C 0 km/h
1557 20-10-2010 20:00:00 4.54 C 5.25 g/m*3 4.54 C 0 km/h
1558 20-10-2010 21:00:00 4.46 C 5.11 g/m*3 4.46 C 0 km/h
1559 20-10-2010 22:00:00 4.48 C 5.07 g/m*3 4.48 C 0 km/h
1560 20-10-2010 23:00:00 4.32 C 5.05 g/m*3 4.32 C 0 km/h
1561 21-10-2010 00:00:00 4.6 C 5.11 g/m*3 4.6 C 0 km/h
1562 21-10-2010 01:00:00 4.44 C 5.04 g/m*3 4.44 C 0 km/h
1563 21-10-2010 02:00:00 3.74 C 4.97 g/m*3 3.74 C 0 km/h
1564 21-10-2010 03:00:00 3.32 C 4.98 g/m*3 3.32 C 0 km/h
1565 21-10-2010 04:00:00 2.64 C 4.9 g/m*3 2.64 C 0 km/h
1566 21-10-2010 05:00:00 1.92 C 4.82 g/m*3 1.92 C 0 km/h
1567 21-10-2010 06:00:00 1.7 C 4.9 g/m*3 1.7 C 0 km/h
1568 21-10-2010 07:00:00 1.66 C 5 g/m*3 1.66 C 0 km/h
1569 21-10-2010 08:00:00 2.1 C 5.14 g/m*3 2.1 C 0 km/h
1570 21-10-2010 09:00:00 3 C 5.24 g/m*3 3 C 0 km/h
1571 21-10-2010 10:00:00 4.16 C 5.06 g/m*3 4.16 C 0 km/h
1572 21-10-2010 11:00:00 5.64 C 4.99 g/m*3 5.64 C 0 km/h
1573 21-10-2010 12:00:00 6.98 C 4.63 g/m*3 6.98 C 0 km/h
1574 21-10-2010 13:00:00 8.7 C 4.13 g/m*3 8.7 C 0 km/h
1575 21-10-2010 14:00:00 10.38 C 3.87 g/m*3 10.38 C 0 km/h
Sensor: Nr:Datum:Temp:Abs-Feuchte:Windchill:Wind:
Aussen-T/F 1576 21-10-2010 15:00:00 10.66 C 3.63 g/m*3 10.66 C 0 km/h
1577 21-10-2010 16:00:00 10.4 C 3.64 g/m*3 10.4 C 0 km/h
1578 21-10-2010 17:00:00 10.96 C 3.55 g/m*3 10.96 C 0 km/h
1579 21-10-2010 18:00:00 7.38 C 3.99 g/m*3 7.38 C 0 km/h
1580 21-10-2010 19:00:00 5.64 C 4.05 g/m*3 5.64 C 0 km/h
1581 21-10-2010 20:00:00 4.86 C 3.96 g/m*3 4.86 C 0 km/h
1582 21-10-2010 21:00:00 4.62 C 3.74 g/m*3 4.62 C 0 km/h
1583 21-10-2010 22:00:00 3.84 C 3.84 g/m*3 3.84 C 0 km/h
1584 21-10-2010 23:00:00 3.14 C 3.89 g/m*3 3.14 C 0 km/h
1585 22-10-2010 00:00:00 2.38 C 4.06 g/m*3 2.38 C 0 km/h
1586 22-10-2010 01:00:00 1.74 C 4.11 g/m*3 1.74 C 0 km/h
1587 22-10-2010 02:00:00 2.12 C 4.09 g/m*3 2.12 C 0 km/h
1588 22-10-2010 03:00:00 2.16 C 4.08 g/m*3 2.16 C 0 km/h
1589 22-10-2010 04:00:00 1.48 C 4.09 g/m*3 1.48 C 0 km/h
1590 22-10-2010 05:00:00 1.38 C 4.11 g/m*3 1.38 C 0 km/h
1591 22-10-2010 06:00:00 1.66 C 4.06 g/m*3 1.66 C 0 km/h
1592 22-10-2010 07:00:00 0.94 C 3.98 g/m*3 0.94 C 0 km/h
1593 22-10-2010 08:00:00 1.28 C 4.04 g/m*3 1.28 C 0 km/h
1594 22-10-2010 09:00:00 2.06 C 4.3 g/m*3 2.06 C 0 km/h
1595 22-10-2010 10:00:00 4.3 C 4.23 g/m*3 4.3 C 0 km/h
1596 22-10-2010 11:00:00 5.36 C 3.94 g/m*3 5.36 C 0 km/h
1597 22-10-2010 12:00:00 6.56 C 3.9 g/m*3 6.56 C 0 km/h
1598 22-10-2010 13:00:00 7.18 C 3.89 g/m*3 7.18 C 0 km/h
1599 22-10-2010 14:00:00 7.36 C 3.87 g/m*3 7.36 C 0 km/h
1600 22-10-2010 15:00:00 7.22 C 3.82 g/m*3 7.22 C 0 km/h
Sensor: Nr:Datum:Temp:Abs-Feuchte:Windchill:Wind:
Aussen-T/F 1601 22-10-2010 16:00:00 7.42 C 4.33 g/m*3 7.42 C 0 km/h
1602 22-10-2010 17:00:00 7.22 C 4.28 g/m*3 7.22 C 0 km/h
1603 22-10-2010 18:00:00 6.18 C 4.1 g/m*3 6.18 C 0 km/h
1604 22-10-2010 19:00:00 6.2 C 3.69 g/m*3 6.2 C 0 km/h
1605 22-10-2010 20:00:00 6.02 C 3.82 g/m*3 6.02 C 0 km/h
1606 22-10-2010 21:00:00 5.72 C 3.9 g/m*3 5.72 C 0 km/h
1607 22-10-2010 22:00:00 4.14 C 4.09 g/m*3 4.14 C 0 km/h
1608 22-10-2010 23:00:00 2.76 C 4.31 g/m*3 2.76 C 0 km/h
1609 23-10-2010 00:00:00 1.7 C 4.3 g/m*3 1.7 C 0 km/h
1610 23-10-2010 01:00:00 1.08 C 4.29 g/m*3 1.08 C 0 km/h
1611 23-10-2010 02:00:00 0.54 C 4.24 g/m*3 0.54 C 0 km/h
1612 23-10-2010 03:00:00 0.1 C 4.19 g/m*3 0.1 C 0 km/h
1613 23-10-2010 04:00:00 -0.34 C 4.14 g/m*3 -0.34 C 0 km/h
1614 23-10-2010 05:00:00 -0.82 C 4.03 g/m*3 -0.82 C 0 km/h
1615 23-10-2010 06:00:00 -1.04 C 4 g/m*3 -1.04 C 0 km/h
1616 23-10-2010 07:00:00 -0.86 C 4.09 g/m*3 -0.86 C 0 km/h
1617 23-10-2010 08:00:00 -0.78 C 4.18 g/m*3 -0.78 C 0 km/h
1618 23-10-2010 09:00:00 -0.82 C 4.14 g/m*3 -0.82 C 0 km/h
1619 23-10-2010 10:00:00 1.06 C 4.78 g/m*3 1.06 C 0 km/h
1620 23-10-2010 11:00:00 4.08 C 5.33 g/m*3 4.08 C 0 km/h
1621 23-10-2010 12:00:00 6.64 C 5.16 g/m*3 6.64 C 0 km/h
1622 23-10-2010 13:00:00 8.56 C 4.97 g/m*3 8.56 C 0 km/h
1623 23-10-2010 14:00:00 9.08 C 4.25 g/m*3 9.08 C 0 km/h
1624 23-10-2010 15:00:00 8.42 C 4.64 g/m*3 8.42 C 0 km/h
1625 23-10-2010 16:00:00 7.92 C 4.93 g/m*3 7.92 C 0 km/h
Sensor: Nr:Datum:Temp:Abs-Feuchte:Windchill:Wind:
Aussen-T/F 1626 23-10-2010 17:00:00 7.88 C 5.35 g/m*3 7.88 C 0 km/h
1627 23-10-2010 18:00:00 8.04 C 5.49 g/m*3 8.04 C 0 km/h
1628 23-10-2010 19:00:00 8.56 C 5.16 g/m*3 8.56 C 0 km/h
1629 23-10-2010 20:00:00 9.14 C 5.27 g/m*3 9.14 C 0 km/h
1630 23-10-2010 21:00:00 9.26 C 5.77 g/m*3 9.26 C 0 km/h
1631 23-10-2010 22:00:00 9.375 C 5.85 g/m*3 9.38 C 0 km/h
1632 23-10-2010 23:00:00 9.32 C 5.67 g/m*3 9.32 C 0 km/h
1633 24-10-2010 00:00:00 9.02 C 5.74 g/m*3 9.02 C 0 km/h
1634 24-10-2010 01:00:00 8.98 C 5.85 g/m*3 8.98 C 0 km/h
1635 24-10-2010 02:00:00 8.46 C 6.28 g/m*3 8.46 C 0 km/h
1636 24-10-2010 03:00:00 8.46 C 6.3 g/m*3 8.46 C 0 km/h
1637 24-10-2010 04:00:00 8.66 C 6.02 g/m*3 8.66 C 0 km/h
1638 24-10-2010 05:00:00 8.5 C 5.98 g/m*3 8.5 C 0 km/h
1639 24-10-2010 06:00:00 7.98 C 6.24 g/m*3 7.98 C 0 km/h
1640 24-10-2010 07:00:00 7.06 C 6.72 g/m*3 7.06 C 0 km/h
1641 24-10-2010 08:00:00 6.96 C 6.91 g/m*3 6.96 C 0 km/h
1642 24-10-2010 09:00:00 7.14 C 7.02 g/m*3 7.14 C 0 km/h
1643 24-10-2010 10:00:00 7 C 6.65 g/m*3 7 C 0 km/h
1644 24-10-2010 11:00:00 8.3 C 5.85 g/m*3 8.3 C 0 km/h
1645 24-10-2010 12:00:00 9.36 C 4.75 g/m*3 9.36 C 0 km/h
1646 24-10-2010 13:00:00 10.46 C 4.6 g/m*3 10.46 C 0 km/h
1647 24-10-2010 14:00:00 11.62 C 4.29 g/m*3 11.62 C 0 km/h
1648 24-10-2010 15:00:00 12.3 C 4.23 g/m*3 12.3 C 0 km/h
1649 24-10-2010 16:00:00 13.04 C 3.75 g/m*3 13.04 C 0 km/h
1650 24-10-2010 17:00:00 12.02 C 4.01 g/m*3 12.02 C 0 km/h
Sensor: Nr:Datum:Temp:Abs-Feuchte:Windchill:Wind:
Aussen-T/F 1651 24-10-2010 18:00:00 9.56 C 4.75 g/m*3 9.56 C 0 km/h
1652 24-10-2010 19:00:00 7.42 C 5.14 g/m*3 7.42 C 0 km/h
1653 24-10-2010 20:00:00 6.48 C 5.18 g/m*3 6.48 C 0 km/h
1654 24-10-2010 21:00:00 6.12 C 5.38 g/m*3 6.12 C 0 km/h
1655 24-10-2010 22:00:00 5.62 C 5.56 g/m*3 5.62 C 0 km/h
1656 24-10-2010 23:00:00 4.84 C 5.49 g/m*3 4.84 C 0 km/h
1657 25-10-2010 00:00:00 4.8 C 5.7 g/m*3 4.8 C 0 km/h
1658 25-10-2010 01:00:00 4.5 C 5.65 g/m*3 4.5 C 0 km/h
1659 25-10-2010 02:00:00 4.42 C 5.69 g/m*3 4.42 C 0 km/h
1660 25-10-2010 03:00:00 4.62 C 5.76 g/m*3 4.62 C 0 km/h
1661 25-10-2010 04:00:00 5.1 C 5.73 g/m*3 5.1 C 0 km/h
1662 25-10-2010 05:00:00 5.1 C 5.62 g/m*3 5.1 C 0 km/h
1663 25-10-2010 06:00:00 5.04 C 5.55 g/m*3 5.04 C 0 km/h
1664 25-10-2010 07:00:00 4.86 C 5.51 g/m*3 4.86 C 0 km/h
1665 25-10-2010 08:00:00 4.9 C 5.52 g/m*3 4.9 C 0 km/h
1666 25-10-2010 09:00:00 5.06 C 5.47 g/m*3 5.06 C 0 km/h
1667 25-10-2010 10:00:00 5.8 C 5.5 g/m*3 5.8 C 0 km/h
1668 25-10-2010 11:00:00 6.54 C 5.44 g/m*3 6.54 C 0 km/h
1669 25-10-2010 12:00:00 7.84 C 5.3 g/m*3 7.84 C 0 km/h
1670 25-10-2010 13:00:00 8.74 C 5.12 g/m*3 8.74 C 0 km/h
1671 25-10-2010 14:00:00 10.1 C 4.63 g/m*3 10.1 C 0 km/h
1672 25-10-2010 15:00:00 10.4 C 3.91 g/m*3 10.4 C 0 km/h
1673 25-10-2010 16:00:00 10.72 C 3.91 g/m*3 10.72 C 0 km/h
1674 25-10-2010 17:00:00 10.68 C 4.06 g/m*3 10.68 C 0 km/h
1675 25-10-2010 18:00:00 8.36 C 4.25 g/m*3 8.36 C 0 km/h
Sensor: Nr:Datum:Temp:Abs-Feuchte:Windchill:Wind:
Aussen-T/F 1676 25-10-2010 19:00:00 6.22 C 4.68 g/m*3 6.22 C 0 km/h
1677 25-10-2010 20:00:00 4.66 C 4.77 g/m*3 4.66 C 0 km/h
1678 25-10-2010 21:00:00 3.92 C 4.92 g/m*3 3.92 C 0 km/h
1679 25-10-2010 22:00:00 3 C 4.83 g/m*3 3 C 0 km/h
1680 25-10-2010 23:00:00 2.28 C 4.79 g/m*3 2.28 C 0 km/h
1681 26-10-2010 00:00:00 1.88 C 4.78 g/m*3 1.88 C 0 km/h
1682 26-10-2010 01:00:00 1.48 C 4.76 g/m*3 1.48 C 0 km/h
1683 26-10-2010 02:00:00 0.82 C 4.64 g/m*3 0.82 C 0 km/h
1684 26-10-2010 03:00:00 0.3 C 4.5 g/m*3 0.3 C 0 km/h
1685 26-10-2010 04:00:00 0.12 C 4.51 g/m*3 0.12 C 0 km/h
1686 26-10-2010 05:00:00 0.08 C 4.56 g/m*3 0.08 C 0 km/h
1687 26-10-2010 06:00:00 0.14 C 4.6 g/m*3 0.14 C 0 km/h
1688 26-10-2010 07:00:00 -0.32 C 4.45 g/m*3 -0.32 C 0 km/h
1689 26-10-2010 08:00:00 -0.42 C 4.42 g/m*3 -0.42 C 0 km/h
1690 26-10-2010 09:00:00 -0.36 C 4.44 g/m*3 -0.36 C 0 km/h
1691 26-10-2010 10:00:00 0.1 C 4.58 g/m*3 0.1 C 0 km/h
1692 26-10-2010 11:00:00 1.22 C 4.82 g/m*3 1.22 C 0 km/h
1693 26-10-2010 12:00:00 3.16 C 5.19 g/m*3 3.16 C 0 km/h
1694 26-10-2010 13:00:00 5.54 C 5.61 g/m*3 5.54 C 0 km/h
1695 26-10-2010 14:00:00 8.88 C 5.51 g/m*3 8.88 C 0 km/h
1696 26-10-2010 15:00:00 9.72 C 5.28 g/m*3 9.72 C 0 km/h
1697 26-10-2010 16:00:00 9.24 C 5.41 g/m*3 9.24 C 0 km/h
1698 26-10-2010 17:00:00 8.04 C 5.69 g/m*3 8.04 C 0 km/h
1699 26-10-2010 18:00:00 7.08 C 5.64 g/m*3 7.08 C 0 km/h
1700 26-10-2010 19:00:00 6.58 C 5.68 g/m*3 6.58 C 0 km/h
Sensor: Nr:Datum:Temp:Abs-Feuchte:Windchill:Wind:
Aussen-T/F 1701 26-10-2010 20:00:00 6.34 C 5.66 g/m*3 6.34 C 0 km/h
1702 26-10-2010 21:00:00 6.06 C 5.58 g/m*3 6.06 C 0 km/h
1703 26-10-2010 22:00:00 5.7 C 5.71 g/m*3 5.7 C 0 km/h
1704 26-10-2010 23:00:00 5.6 C 5.73 g/m*3 5.6 C 0 km/h
1705 27-10-2010 00:00:00 5.16 C 5.6 g/m*3 5.16 C 0 km/h
1706 27-10-2010 01:00:00 5.36 C 5.14 g/m*3 5.36 C 0 km/h
1707 27-10-2010 02:00:00 5.54 C 5.11 g/m*3 5.54 C 0 km/h
1708 27-10-2010 03:00:00 5.48 C 5.26 g/m*3 5.48 C 0 km/h
1709 27-10-2010 04:00:00 5.42 C 5.24 g/m*3 5.42 C 0 km/h
1710 27-10-2010 05:00:00 5.64 C 5.16 g/m*3 5.64 C 0 km/h
1711 27-10-2010 06:00:00 5.68 C 5.22 g/m*3 5.68 C 0 km/h
1712 27-10-2010 07:00:00 5.76 C 5.16 g/m*3 5.76 C 0 km/h
1713 27-10-2010 08:00:00 5.68 C 5.09 g/m*3 5.68 C 0 km/h
1714 27-10-2010 09:00:00 5.84 C 5.65 g/m*3 5.84 C 0 km/h
1715 27-10-2010 10:00:00 7 C 5.8 g/m*3 7 C 0 km/h
1716 27-10-2010 11:00:00 8.22 C 5.45 g/m*3 8.22 C 0 km/h
1717 27-10-2010 12:00:00 9.62 C 4.46 g/m*3 9.62 C 0 km/h
1718 27-10-2010 13:00:00 10.92 C 3.84 g/m*3 10.92 C 0 km/h
1719 27-10-2010 14:00:00 11.06 C 3.64 g/m*3 11.06 C 0 km/h
1720 27-10-2010 15:00:00 11.56 C 3.55 g/m*3 11.56 C 0 km/h
1721 27-10-2010 16:00:00 11.98 C 3.43 g/m*3 11.98 C 0 km/h
1722 27-10-2010 17:00:00 11.6 C 3.55 g/m*3 11.6 C 0 km/h
1723 27-10-2010 18:00:00 10.44 C 4.27 g/m*3 10.44 C 0 km/h
1724 27-10-2010 19:00:00 10.04 C 4.41 g/m*3 10.04 C 0 km/h
1725 27-10-2010 20:00:00 9.8 C 4.42 g/m*3 9.8 C 0 km/h
Sensor: Nr:Datum:Temp:Abs-Feuchte:Windchill:Wind:
Aussen-T/F 1726 27-10-2010 21:00:00 9.56 C 4.71 g/m*3 9.56 C 0 km/h
1727 27-10-2010 22:00:00 9.2 C 4.89 g/m*3 9.2 C 0 km/h
1728 27-10-2010 23:00:00 9.02 C 4.86 g/m*3 9.02 C 0 km/h
1729 28-10-2010 00:00:00 8.66 C 4.87 g/m*3 8.66 C 0 km/h
1730 28-10-2010 01:00:00 8.46 C 4.91 g/m*3 8.46 C 0 km/h
1731 28-10-2010 02:00:00 8.06 C 5.05 g/m*3 8.06 C 0 km/h
1732 28-10-2010 03:00:00 7.62 C 4.86 g/m*3 7.62 C 0 km/h
1733 28-10-2010 04:00:00 7.66 C 5.06 g/m*3 7.66 C 0 km/h
1734 28-10-2010 05:00:00 7.52 C 5.05 g/m*3 7.52 C 0 km/h
1735 28-10-2010 06:00:00 7.98 C 4.41 g/m*3 7.98 C 0 km/h
1736 28-10-2010 07:00:00 8.48 C 4.31 g/m*3 8.48 C 0 km/h
1737 28-10-2010 08:00:00 8.7 C 4.67 g/m*3 8.7 C 0 km/h
1738 28-10-2010 09:00:00 8.86 C 4.91 g/m*3 8.86 C 0 km/h
1739 28-10-2010 10:00:00 7.9 C 6.09 g/m*3 7.9 C 0 km/h
1740 28-10-2010 11:00:00 9.7 C 5.97 g/m*3 9.7 C 0 km/h
1741 28-10-2010 12:00:00 10.72 C 5.78 g/m*3 10.72 C 0 km/h
1742 28-10-2010 13:00:00 11.34 C 5.69 g/m*3 11.34 C 0 km/h
1743 28-10-2010 14:00:00 12.3 C 5.67 g/m*3 12.3 C 0 km/h
1744 28-10-2010 15:00:00 12.72 C 5.66 g/m*3 12.72 C 0 km/h
1745 28-10-2010 16:00:00 11.62 C 6.12 g/m*3 11.62 C 0 km/h
1746 28-10-2010 17:00:00 11.08 C 6.14 g/m*3 11.08 C 0 km/h
1747 28-10-2010 18:00:00 9.86 C 6.13 g/m*3 9.86 C 0 km/h
1748 28-10-2010 19:00:00 9.18 C 6.22 g/m*3 9.18 C 0 km/h
1749 28-10-2010 20:00:00 9 C 6.24 g/m*3 9 C 0 km/h
1750 28-10-2010 21:00:00 8.38 C 6.3 g/m*3 8.38 C 0 km/h
Sensor: Nr:Datum:Temp:Abs-Feuchte:Windchill:Wind:
Aussen-T/F 1751 28-10-2010 22:00:00 7.56 C 6.36 g/m*3 7.56 C 0 km/h
1752 28-10-2010 23:00:00 6.78 C 6.32 g/m*3 6.78 C 0 km/h
1753 29-10-2010 00:00:00 6.26 C 6.26 g/m*3 6.26 C 0 km/h
1754 29-10-2010 01:00:00 6.28 C 6.4 g/m*3 6.28 C 0 km/h
1755 29-10-2010 02:00:00 6.46 C 6.57 g/m*3 6.46 C 0 km/h
1756 29-10-2010 03:00:00 7.23333 C 6.82 g/m*3 7.23 C 0 km/h
1757 02-11-2010 08:00:00 8.77778 C 6.98 g/m*3 8.78 C 0 km/h
1758 02-11-2010 09:00:00 9.9 C 6.85 g/m*3 9.9 C 0 km/h
1759 02-11-2010 10:00:00 11.04 C 6.74 g/m*3 11.04 C 0 km/h
1760 02-11-2010 11:00:00 11.88 C 6.43 g/m*3 11.88 C 0 km/h
1761 02-11-2010 12:00:00 12.52 C 6.49 g/m*3 12.52 C 0 km/h
1762 02-11-2010 13:00:00 12.72 C 6.33 g/m*3 12.72 C 0 km/h
1763 02-11-2010 14:00:00 12.8 C 6.36 g/m*3 12.8 C 0 km/h
1764 02-11-2010 15:00:00 12.92 C 6.39 g/m*3 12.92 C 0 km/h
1765 02-11-2010 16:00:00 12.34 C 6.44 g/m*3 12.34 C 0 km/h
1766 02-11-2010 17:00:00 11.34 C 6.61 g/m*3 11.34 C 0 km/h
1767 02-11-2010 18:00:00 11.22 C 6.66 g/m*3 11.22 C 0 km/h
1768 02-11-2010 19:00:00 11.46 C 6.66 g/m*3 11.46 C 0 km/h
1769 02-11-2010 20:00:00 11 C 7.01 g/m*3 11 C 0 km/h
1770 02-11-2010 21:00:00 10.94 C 7.18 g/m*3 10.94 C 0 km/h
1771 02-11-2010 22:00:00 11.08 C 7.42 g/m*3 11.08 C 0 km/h
1772 02-11-2010 23:00:00 11.14 C 7.57 g/m*3 11.14 C 0 km/h
1773 03-11-2010 00:00:00 11.32 C 7.66 g/m*3 11.32 C 0 km/h
1774 03-11-2010 01:00:00 10.88 C 7.49 g/m*3 10.88 C 0 km/h
1775 03-11-2010 02:00:00 11.68 C 7.56 g/m*3 11.68 C 0 km/h
Sensor: Nr:Datum:Temp:Abs-Feuchte:Windchill:Wind:
Aussen-T/F 1776 03-11-2010 03:00:00 12.06 C 7.34 g/m*3 12.06 C 0 km/h
1777 03-11-2010 04:00:00 12.44 C 7.47 g/m*3 12.44 C 0 km/h
1778 03-11-2010 05:00:00 12.72 C 7.49 g/m*3 12.72 C 0 km/h
1779 03-11-2010 06:00:00 12.66 C 7.62 g/m*3 12.66 C 0 km/h
1780 03-11-2010 07:00:00 12.76 C 7.66 g/m*3 12.76 C 0 km/h
1781 03-11-2010 08:00:00 13.28 C 7.57 g/m*3 13.28 C 0 km/h
1782 03-11-2010 09:00:00 13.78 C 7.64 g/m*3 13.78 C 0 km/h
1783 03-11-2010 10:00:00 14.2 C 7.55 g/m*3 14.2 C 0 km/h
1784 03-11-2010 11:00:00 14.42 C 7.65 g/m*3 14.42 C 0 km/h
1785 03-11-2010 12:00:00 13.94 C 7.74 g/m*3 13.94 C 0 km/h
1786 03-11-2010 13:00:00 13.54 C 7.83 g/m*3 13.54 C 0 km/h
1787 03-11-2010 14:00:00 13.66 C 7.94 g/m*3 13.66 C 0 km/h
1788 03-11-2010 15:00:00 13.78 C 8.07 g/m*3 13.78 C 0 km/h
1789 03-11-2010 16:00:00 13.46 C 8.1 g/m*3 13.46 C 0 km/h
1790 03-11-2010 17:00:00 13.06 C 8.2 g/m*3 13.06 C 0 km/h
1791 03-11-2010 18:00:00 12.66 C 8.31 g/m*3 12.66 C 0 km/h
1792 03-11-2010 19:00:00 12.96 C 8.26 g/m*3 12.96 C 0 km/h
1793 03-11-2010 20:00:00 13.38 C 8.2 g/m*3 13.38 C 0 km/h
1794 03-11-2010 21:00:00 13.54 C 8.16 g/m*3 13.54 C 0 km/h
1795 03-11-2010 22:00:00 14.1 C 8.16 g/m*3 14.1 C 0 km/h
1796 03-11-2010 23:00:00 14.2 C 8.4 g/m*3 14.2 C 0 km/h
1797 04-11-2010 00:00:00 14.3 C 8.77 g/m*3 14.3 C 0 km/h
1798 04-11-2010 01:00:00 14.74 C 9.06 g/m*3 14.74 C 0 km/h
1799 04-11-2010 02:00:00 14.96 C 9.06 g/m*3 14.96 C 0 km/h
1800 04-11-2010 03:00:00 15.16 C 9.12 g/m*3 15.16 C 0 km/h
Sensor: Nr:Datum:Temp:Abs-Feuchte:Windchill:Wind:
Aussen-T/F 1801 04-11-2010 04:00:00 15.22 C 9.3 g/m*3 15.22 C 0 km/h
1802 04-11-2010 05:00:00 15.54 C 9.41 g/m*3 15.54 C 0 km/h
1803 04-11-2010 06:00:00 15.7 C 9.61 g/m*3 15.7 C 0 km/h
1804 04-11-2010 07:00:00 15.92 C 9.52 g/m*3 15.92 C 0 km/h
1805 04-11-2010 08:00:00 16.2 C 9.43 g/m*3 16.2 C 0 km/h
1806 04-11-2010 09:00:00 16.64 C 9.06 g/m*3 16.64 C 0 km/h
1807 04-11-2010 10:00:00 17.24 C 8.84 g/m*3 17.24 C 0 km/h
1808 04-11-2010 11:00:00 17.82 C 8.45 g/m*3 17.82 C 0 km/h
1809 04-11-2010 12:00:00 18.44 C 8.17 g/m*3 18.44 C 0 km/h
1810 04-11-2010 13:00:00 18.54 C 8.18 g/m*3 18.54 C 0 km/h
1811 04-11-2010 14:00:00 18.44 C 8.01 g/m*3 18.44 C 0 km/h
1812 04-11-2010 15:00:00 18.24 C 8.13 g/m*3 18.24 C 0 km/h
1813 04-11-2010 16:00:00 17.52 C 8.42 g/m*3 17.52 C 0 km/h
1814 04-11-2010 17:00:00 16.92 C 8.44 g/m*3 16.92 C 0 km/h
1815 04-11-2010 18:00:00 16.78 C 8.43 g/m*3 16.78 C 0 km/h
1816 04-11-2010 19:00:00 16.92 C 8.47 g/m*3 16.92 C 0 km/h
1817 04-11-2010 20:00:00 16.12 C 8.12 g/m*3 16.12 C 0 km/h
1818 04-11-2010 21:00:00 15.74 C 8.05 g/m*3 15.74 C 0 km/h
1819 04-11-2010 22:00:00 15.38 C 7.87 g/m*3 15.38 C 0 km/h
1820 04-11-2010 23:00:00 15.4 C 7.88 g/m*3 15.4 C 0 km/h
1821 05-11-2010 00:00:00 15.34 C 7.88 g/m*3 15.34 C 0 km/h
1822 05-11-2010 01:00:00 15.14 C 7.53 g/m*3 15.14 C 0 km/h
1823 05-11-2010 02:00:00 14.74 C 7.45 g/m*3 14.74 C 0 km/h
1824 05-11-2010 03:00:00 14.46 C 7.37 g/m*3 14.46 C 0 km/h
1825 05-11-2010 04:00:00 14.2 C 7.38 g/m*3 14.2 C 0 km/h
Sensor: Nr:Datum:Temp:Abs-Feuchte:Windchill:Wind:
Aussen-T/F 1826 05-11-2010 05:00:00 14.14 C 7.18 g/m*3 14.14 C 0 km/h
1827 05-11-2010 06:00:00 13.82 C 7.13 g/m*3 13.82 C 0 km/h
1828 05-11-2010 07:00:00 13.46 C 6.95 g/m*3 13.46 C 0 km/h
1829 05-11-2010 08:00:00 13.88 C 6.61 g/m*3 13.88 C 0 km/h
1830 05-11-2010 09:00:00 14.52 C 6.72 g/m*3 14.52 C 0 km/h
1831 05-11-2010 10:00:00 14.9 C 6.88 g/m*3 14.9 C 0 km/h
1832 05-11-2010 11:00:00 15.22 C 6.99 g/m*3 15.22 C 0 km/h
1833 05-11-2010 12:00:00 15.14 C 7.09 g/m*3 15.14 C 0 km/h
1834 05-11-2010 13:00:00 15.1 C 7.1 g/m*3 15.1 C 0 km/h
1835 05-11-2010 14:00:00 14.8 C 7.4 g/m*3 14.8 C 0 km/h
1836 05-11-2010 15:00:00 14.6 C 7.48 g/m*3 14.6 C 0 km/h
1837 05-11-2010 16:00:00 14.56 C 7.49 g/m*3 14.56 C 0 km/h
1838 05-11-2010 17:00:00 14.64 C 7.55 g/m*3 14.64 C 0 km/h
1839 05-11-2010 18:00:00 14.76 C 7.58 g/m*3 14.76 C 0 km/h
1840 05-11-2010 19:00:00 14.36 C 7.57 g/m*3 14.36 C 0 km/h
1841 05-11-2010 20:00:00 14.44 C 7.58 g/m*3 14.44 C 0 km/h
1842 05-11-2010 21:00:00 14.28 C 7.61 g/m*3 14.28 C 0 km/h
1843 05-11-2010 22:00:00 14.02 C 7.58 g/m*3 14.02 C 0 km/h
1844 05-11-2010 23:00:00 13.94 C 7.57 g/m*3 13.94 C 0 km/h
1845 06-11-2010 00:00:00 14.04 C 7.57 g/m*3 14.04 C 0 km/h
1846 06-11-2010 01:00:00 14.02 C 7.61 g/m*3 14.02 C 0 km/h
1847 06-11-2010 02:00:00 13.38 C 7.69 g/m*3 13.38 C 0 km/h
1848 06-11-2010 03:00:00 12.9 C 7.98 g/m*3 12.9 C 0 km/h
1849 06-11-2010 04:00:00 12.78 C 8.12 g/m*3 12.78 C 0 km/h
1850 06-11-2010 05:00:00 13.12 C 8 g/m*3 13.12 C 0 km/h
Sensor: Nr:Datum:Temp:Abs-Feuchte:Windchill:Wind:
Aussen-T/F 1851 06-11-2010 06:00:00 13.46 C 7.86 g/m*3 13.46 C 0 km/h
1852 06-11-2010 07:00:00 13.48 C 7.57 g/m*3 13.48 C 0 km/h
1853 06-11-2010 08:00:00 13.34 C 7.5 g/m*3 13.34 C 0 km/h
1854 06-11-2010 09:00:00 11.92 C 7.55 g/m*3 11.92 C 0 km/h
1855 06-11-2010 10:00:00 10.18 C 7.93 g/m*3 10.18 C 0 km/h
1856 06-11-2010 11:00:00 10.58 C 8.19 g/m*3 10.58 C 0 km/h
1857 06-11-2010 12:00:00 9.78 C 7.67 g/m*3 9.78 C 0 km/h
1858 06-11-2010 13:00:00 9.08 C 7.46 g/m*3 9.08 C 0 km/h
1859 06-11-2010 14:00:00 8.92 C 7.67 g/m*3 8.92 C 0 km/h
1860 06-11-2010 15:00:00 8.64 C 7.67 g/m*3 8.64 C 0 km/h
1861 06-11-2010 16:00:00 8.2 C 7.54 g/m*3 8.2 C 0 km/h
1862 06-11-2010 17:00:00 7.84 C 7.49 g/m*3 7.84 C 0 km/h
1863 06-11-2010 18:00:00 7.44 C 7.34 g/m*3 7.44 C 0 km/h
1864 06-11-2010 19:00:00 7.42 C 7.41 g/m*3 7.42 C 0 km/h
1865 06-11-2010 20:00:00 7.2 C 7.3 g/m*3 7.2 C 0 km/h
1866 06-11-2010 21:00:00 7.26 C 7.33 g/m*3 7.26 C 0 km/h
1867 06-11-2010 22:00:00 7.48 C 7.43 g/m*3 7.48 C 0 km/h
1868 06-11-2010 23:00:00 7.36 C 7.38 g/m*3 7.36 C 0 km/h
1869 07-11-2010 00:00:00 7.22 C 7.31 g/m*3 7.22 C 0 km/h
1870 07-11-2010 01:00:00 7.18 C 7.29 g/m*3 7.18 C 0 km/h
1871 07-11-2010 02:00:00 6.98 C 7.24 g/m*3 6.98 C 0 km/h
1872 07-11-2010 03:00:00 7.3 C 7.4 g/m*3 7.3 C 0 km/h
1873 07-11-2010 04:00:00 7.18 C 7.34 g/m*3 7.18 C 0 km/h
1874 07-11-2010 05:00:00 6.8 C 7.19 g/m*3 6.8 C 0 km/h
1875 07-11-2010 06:00:00 6.48 C 7.04 g/m*3 6.48 C 0 km/h
Sensor: Nr:Datum:Temp:Abs-Feuchte:Windchill:Wind:
Aussen-T/F 1876 07-11-2010 07:00:00 6.7 C 7.14 g/m*3 6.7 C 0 km/h
1877 07-11-2010 08:00:00 7.16 C 7.28 g/m*3 7.16 C 0 km/h
1878 07-11-2010 09:00:00 7.46 C 7.47 g/m*3 7.46 C 0 km/h
1879 07-11-2010 10:00:00 7.82 C 7.68 g/m*3 7.82 C 0 km/h
1880 07-11-2010 11:00:00 8.06 C 7.67 g/m*3 8.06 C 0 km/h
1881 07-11-2010 12:00:00 8.74 C 7.87 g/m*3 8.74 C 0 km/h
1882 07-11-2010 13:00:00 8.48 C 7.5 g/m*3 8.48 C 0 km/h
1883 07-11-2010 14:00:00 8.22 C 7.43 g/m*3 8.22 C 0 km/h
1884 07-11-2010 15:00:00 7.5 C 7.17 g/m*3 7.5 C 0 km/h
1885 07-11-2010 16:00:00 6.82 C 6.97 g/m*3 6.82 C 0 km/h
1886 07-11-2010 17:00:00 6.76 C 7.02 g/m*3 6.76 C 0 km/h
1887 07-11-2010 18:00:00 6.58 C 6.94 g/m*3 6.58 C 0 km/h
1888 07-11-2010 19:00:00 5.72 C 6.61 g/m*3 5.72 C 0 km/h
1889 07-11-2010 20:00:00 5.18 C 6.4 g/m*3 5.18 C 0 km/h
1890 07-11-2010 21:00:00 4.98 C 6.32 g/m*3 4.98 C 0 km/h
1891 07-11-2010 22:00:00 4.9 C 6.32 g/m*3 4.9 C 0 km/h
1892 07-11-2010 23:00:00 4.64 C 6.22 g/m*3 4.64 C 0 km/h
1893 08-11-2010 00:00:00 4.04 C 5.95 g/m*3 4.04 C 0 km/h
1894 08-11-2010 01:00:00 4.12 C 5.97 g/m*3 4.12 C 0 km/h
1895 08-11-2010 02:00:00 4.04 C 5.97 g/m*3 4.04 C 0 km/h
1896 08-11-2010 03:00:00 4.46 C 6.16 g/m*3 4.46 C 0 km/h
1897 08-11-2010 04:00:00 4.4 C 6.14 g/m*3 4.4 C 0 km/h
1898 08-11-2010 05:00:00 4.6 C 6.22 g/m*3 4.6 C 0 km/h
1899 08-11-2010 06:00:00 4.86 C 6.33 g/m*3 4.86 C 0 km/h
1900 08-11-2010 07:00:00 4.74 C 6.26 g/m*3 4.74 C 0 km/h
Sensor: Nr:Datum:Temp:Abs-Feuchte:Windchill:Wind:
Aussen-T/F 1901 08-11-2010 08:00:00 4.96 C 6.34 g/m*3 4.96 C 0 km/h
1902 08-11-2010 09:00:00 5.84 C 6.58 g/m*3 5.84 C 0 km/h
1903 08-11-2010 10:00:00 7.08 C 6.5 g/m*3 7.08 C 0 km/h
1904 08-11-2010 11:00:00 7.26 C 5.75 g/m*3 7.26 C 0 km/h
1905 08-11-2010 12:00:00 6.78 C 5.3 g/m*3 6.78 C 0 km/h
1906 08-11-2010 13:00:00 7.24 C 5.15 g/m*3 7.24 C 0 km/h
1907 08-11-2010 14:00:00 6.88 C 4.74 g/m*3 6.88 C 0 km/h
1908 08-11-2010 15:00:00 5.6 C 4.67 g/m*3 5.6 C 0 km/h
1909 08-11-2010 16:00:00 2.98 C 4.87 g/m*3 2.98 C 0 km/h
1910 08-11-2010 17:00:00 2.08 C 4.85 g/m*3 2.08 C 0 km/h
1911 08-11-2010 18:00:00 1.46 C 4.79 g/m*3 1.46 C 0 km/h
1912 08-11-2010 19:00:00 2.26 C 5.11 g/m*3 2.26 C 0 km/h
1913 08-11-2010 20:00:00 3.5 C 5.42 g/m*3 3.5 C 0 km/h
1914 08-11-2010 21:00:00 3.9 C 5.56 g/m*3 3.9 C 0 km/h
1915 08-11-2010 22:00:00 4.22 C 5.72 g/m*3 4.22 C 0 km/h
1916 08-11-2010 23:00:00 4.44 C 5.62 g/m*3 4.44 C 0 km/h
1917 09-11-2010 00:00:00 4.24 C 5.65 g/m*3 4.24 C 0 km/h
1918 09-11-2010 01:00:00 4.2 C 5.73 g/m*3 4.2 C 0 km/h
1919 09-11-2010 02:00:00 4.2 C 5.79 g/m*3 4.2 C 0 km/h
1920 09-11-2010 03:00:00 4.46 C 5.97 g/m*3 4.46 C 0 km/h
1921 09-11-2010 04:00:00 4.44 C 5.96 g/m*3 4.44 C 0 km/h
1922 09-11-2010 05:00:00 4.74 C 6.08 g/m*3 4.74 C 0 km/h
1923 09-11-2010 06:00:00 5.1 C 6.16 g/m*3 5.1 C 0 km/h
1924 09-11-2010 07:00:00 5.58 C 6.24 g/m*3 5.58 C 0 km/h
1925 09-11-2010 08:00:00 6.42 C 6.09 g/m*3 6.42 C 0 km/h
Sensor: Nr:Datum:Temp:Abs-Feuchte:Windchill:Wind:
Aussen-T/F 1926 09-11-2010 09:00:00 6.9 C 6.1 g/m*3 6.9 C 0 km/h
1927 09-11-2010 10:00:00 7.9 C 6.26 g/m*3 7.9 C 0 km/h
1928 09-11-2010 11:00:00 9.16 C 6.29 g/m*3 9.16 C 0 km/h
1929 09-11-2010 12:00:00 9.52 C 6.43 g/m*3 9.52 C 0 km/h
1930 09-11-2010 13:00:00 9.66 C 6.47 g/m*3 9.66 C 0 km/h
1931 09-11-2010 14:00:00 8.86 C 6.85 g/m*3 8.86 C 0 km/h
1932 09-11-2010 15:00:00 8.42 C 7.07 g/m*3 8.42 C 0 km/h
1933 09-11-2010 16:00:00 7.92 C 7.19 g/m*3 7.92 C 0 km/h
1934 09-11-2010 17:00:00 7.3 C 7.05 g/m*3 7.3 C 0 km/h
1935 09-11-2010 18:00:00 6.64 C 6.83 g/m*3 6.64 C 0 km/h
1936 09-11-2010 19:00:00 6.86 C 7.02 g/m*3 6.86 C 0 km/h
1937 09-11-2010 20:00:00 6.78 C 7.03 g/m*3 6.78 C 0 km/h
1938 09-11-2010 21:00:00 6.84 C 7.05 g/m*3 6.84 C 0 km/h
1939 09-11-2010 22:00:00 6.78 C 7.03 g/m*3 6.78 C 0 km/h
1940 09-11-2010 23:00:00 6.84 C 7.05 g/m*3 6.84 C 0 km/h
1941 10-11-2010 00:00:00 6.56 C 6.93 g/m*3 6.56 C 0 km/h
1942 10-11-2010 01:00:00 6.92 C 7.14 g/m*3 6.92 C 0 km/h
1943 10-11-2010 02:00:00 6.9 C 7.14 g/m*3 6.9 C 0 km/h
1944 10-11-2010 03:00:00 7.1 C 7.18 g/m*3 7.1 C 0 km/h
1945 10-11-2010 04:00:00 6.88 C 7.12 g/m*3 6.88 C 0 km/h
1946 10-11-2010 05:00:00 6.9 C 7.13 g/m*3 6.9 C 0 km/h
1947 10-11-2010 06:00:00 6.82 C 7.09 g/m*3 6.82 C 0 km/h
1948 10-11-2010 07:00:00 6.34 C 6.87 g/m*3 6.34 C 0 km/h
1949 10-11-2010 08:00:00 6.72 C 7.05 g/m*3 6.72 C 0 km/h
1950 10-11-2010 09:00:00 8.22 C 7.56 g/m*3 8.22 C 0 km/h
Sensor: Nr:Datum:Temp:Abs-Feuchte:Windchill:Wind:
Aussen-T/F 1951 10-11-2010 10:00:00 9.6 C 6.93 g/m*3 9.6 C 0 km/h
1952 10-11-2010 11:00:00 9.64 C 6.48 g/m*3 9.64 C 0 km/h
1953 10-11-2010 12:00:00 10.18 C 6.48 g/m*3 10.18 C 0 km/h
1954 10-11-2010 13:00:00 11.08 C 6.16 g/m*3 11.08 C 0 km/h
1955 10-11-2010 14:00:00 10.52 C 6.02 g/m*3 10.52 C 0 km/h
1956 10-11-2010 15:00:00 7.86 C 6.41 g/m*3 7.86 C 0 km/h
1957 10-11-2010 16:00:00 6.24 C 6.18 g/m*3 6.24 C 0 km/h
1958 10-11-2010 17:00:00 5.94 C 5.81 g/m*3 5.94 C 0 km/h
1959 10-11-2010 18:00:00 5.22 C 5.67 g/m*3 5.22 C 0 km/h
1960 10-11-2010 19:00:00 5.2 C 5.63 g/m*3 5.2 C 0 km/h
1961 10-11-2010 20:00:00 5.34 C 5.5 g/m*3 5.34 C 0 km/h
1962 10-11-2010 21:00:00 4.46 C 5.52 g/m*3 4.46 C 0 km/h
1963 10-11-2010 22:00:00 4.55 C 5.59 g/m*3 4.55 C 0 km/h
1964 10-11-2010 23:00:00 4.3 C 5.34 g/m*3 4.3 C 0 km/h
1965 11-11-2010 00:00:00 4.6 C 5.29 g/m*3 4.6 C 0 km/h
1966 11-11-2010 01:00:00 4.5 C 5.44 g/m*3 4.5 C 0 km/h
1967 11-11-2010 02:00:00 5.02 C 5.42 g/m*3 5.02 C 0 km/h
1968 11-11-2010 03:00:00 4.84 C 5.23 g/m*3 4.84 C 0 km/h
1969 11-11-2010 04:00:00 4.3 C 5.24 g/m*3 4.3 C 0 km/h
1970 11-11-2010 05:00:00 4.12 C 5.2 g/m*3 4.12 C 0 km/h
1971 11-11-2010 06:00:00 3.7 C 5.01 g/m*3 3.7 C 0 km/h
1972 11-11-2010 07:00:00 3.56 C 4.98 g/m*3 3.56 C 0 km/h
1973 11-11-2010 08:00:00 2.32 C 4.71 g/m*3 2.32 C 0 km/h
1974 11-11-2010 09:00:00 3.66 C 5.28 g/m*3 3.66 C 0 km/h
1975 11-11-2010 10:00:00 5.58 C 4.59 g/m*3 5.58 C 0 km/h
Sensor: Nr:Datum:Temp:Abs-Feuchte:Windchill:Wind:
Aussen-T/F 1976 11-11-2010 11:00:00 6.94 C 3.78 g/m*3 6.94 C 0 km/h
1977 11-11-2010 12:00:00 7.46 C 3.98 g/m*3 7.46 C 0 km/h
1978 11-11-2010 13:00:00 7.7 C 4.15 g/m*3 7.7 C 0 km/h
1979 11-11-2010 14:00:00 7.36 C 4.24 g/m*3 7.36 C 0 km/h
1980 11-11-2010 15:00:00 6.8 C 4.45 g/m*3 6.8 C 0 km/h
1981 11-11-2010 16:00:00 5.54 C 5.08 g/m*3 5.54 C 0 km/h
1982 11-11-2010 17:00:00 5.28 C 5.48 g/m*3 5.28 C 0 km/h
1983 11-11-2010 18:00:00 5.64 C 5.87 g/m*3 5.64 C 0 km/h
1984 11-11-2010 19:00:00 6.22 C 6.27 g/m*3 6.22 C 0 km/h
1985 11-11-2010 20:00:00 7.5 C 6.34 g/m*3 7.5 C 0 km/h
1986 11-11-2010 21:00:00 8.44 C 6.57 g/m*3 8.44 C 0 km/h
1987 11-11-2010 22:00:00 9.34 C 7.23 g/m*3 9.34 C 0 km/h
1988 11-11-2010 23:00:00 9.78 C 7.69 g/m*3 9.78 C 0 km/h
1989 12-11-2010 00:00:00 9.74 C 6.82 g/m*3 9.74 C 0 km/h
1990 12-11-2010 01:00:00 9.84 C 5.93 g/m*3 9.84 C 0 km/h
1991 12-11-2010 02:00:00 9.88 C 5.63 g/m*3 9.88 C 0 km/h
1992 12-11-2010 03:00:00 9.6 C 5.81 g/m*3 9.6 C 0 km/h
1993 12-11-2010 04:00:00 9.8 C 5.6 g/m*3 9.8 C 0 km/h
1994 12-11-2010 05:00:00 9.94 C 5.77 g/m*3 9.94 C 0 km/h
1995 12-11-2010 06:00:00 10.62 C 5.77 g/m*3 10.62 C 0 km/h
1996 12-11-2010 07:00:00 10.62 C 5.8 g/m*3 10.62 C 0 km/h
1997 12-11-2010 08:00:00 10.7 C 5.81 g/m*3 10.7 C 0 km/h
1998 12-11-2010 09:00:00 10.84 C 5.85 g/m*3 10.84 C 0 km/h
1999 12-11-2010 10:00:00 10.7 C 6.11 g/m*3 10.7 C 0 km/h
2000 12-11-2010 11:00:00 11.42 C 6.08 g/m*3 11.42 C 0 km/h
Sensor: Nr:Datum:Temp:Abs-Feuchte:Windchill:Wind:
Aussen-T/F 2001 12-11-2010 12:00:00 11.88 C 5.99 g/m*3 11.88 C 0 km/h
2002 12-11-2010 13:00:00 11.64 C 6.29 g/m*3 11.64 C 0 km/h
2003 12-11-2010 14:00:00 11.6 C 6.55 g/m*3 11.6 C 0 km/h
2004 12-11-2010 15:00:00 11.6 C 6.57 g/m*3 11.6 C 0 km/h
2005 12-11-2010 16:00:00 11.54 C 6.73 g/m*3 11.54 C 0 km/h
2006 12-11-2010 17:00:00 11.16 C 7.2 g/m*3 11.16 C 0 km/h
2007 12-11-2010 18:00:00 10.48 C 7.73 g/m*3 10.48 C 0 km/h
2008 12-11-2010 19:00:00 10.52 C 8.29 g/m*3 10.52 C 0 km/h
2009 12-11-2010 20:00:00 11.52 C 8.77 g/m*3 11.52 C 0 km/h
2010 12-11-2010 21:00:00 12.16 C 9.28 g/m*3 12.16 C 0 km/h
2011 12-11-2010 22:00:00 13.3 C 9.22 g/m*3 13.3 C 0 km/h
2012 12-11-2010 23:00:00 13.88 C 8.69 g/m*3 13.88 C 0 km/h
2013 13-11-2010 00:00:00 13.82 C 8.85 g/m*3 13.82 C 0 km/h
2014 13-11-2010 01:00:00 13.86 C 9.06 g/m*3 13.86 C 0 km/h
2015 13-11-2010 02:00:00 13.78 C 9.28 g/m*3 13.78 C 0 km/h
2016 13-11-2010 03:00:00 14.2 C 9.33 g/m*3 14.2 C 0 km/h
2017 13-11-2010 04:00:00 14.14 C 9.25 g/m*3 14.14 C 0 km/h
2018 13-11-2010 05:00:00 14.5 C 9.1 g/m*3 14.5 C 0 km/h
2019 13-11-2010 06:00:00 14.62 C 9.05 g/m*3 14.62 C 0 km/h
2020 13-11-2010 07:00:00 14.72 C 9 g/m*3 14.72 C 0 km/h
2021 13-11-2010 08:00:00 14.72 C 9 g/m*3 14.72 C 0 km/h
2022 13-11-2010 09:00:00 14.18 C 9.15 g/m*3 14.18 C 0 km/h
2023 13-11-2010 10:00:00 14.32 C 9.23 g/m*3 14.32 C 0 km/h
2024 13-11-2010 11:00:00 14.76 C 9 g/m*3 14.76 C 0 km/h
2025 13-11-2010 12:00:00 14.8 C 8.84 g/m*3 14.8 C 0 km/h
Sensor: Nr:Datum:Temp:Abs-Feuchte:Windchill:Wind:
Aussen-T/F 2026 13-11-2010 13:00:00 14.76 C 8.85 g/m*3 14.76 C 0 km/h
2027 13-11-2010 14:00:00 14.78 C 8.68 g/m*3 14.78 C 0 km/h
2028 13-11-2010 15:00:00 14.82 C 8.55 g/m*3 14.82 C 0 km/h
2029 13-11-2010 16:00:00 14.68 C 8.68 g/m*3 14.68 C 0 km/h
2030 13-11-2010 17:00:00 14.26 C 8.75 g/m*3 14.26 C 0 km/h
2031 13-11-2010 18:00:00 14.68 C 8.7 g/m*3 14.68 C 0 km/h
2032 13-11-2010 19:00:00 14.94 C 8.51 g/m*3 14.94 C 0 km/h
2033 13-11-2010 20:00:00 15 C 8.28 g/m*3 15 C 0 km/h
2034 13-11-2010 21:00:00 14.52 C 8.39 g/m*3 14.52 C 0 km/h
2035 13-11-2010 22:00:00 14.86 C 8.11 g/m*3 14.86 C 0 km/h
2036 13-11-2010 23:00:00 14.74 C 8.05 g/m*3 14.74 C 0 km/h
2037 14-11-2010 00:00:00 15.08 C 8.07 g/m*3 15.08 C 0 km/h
2038 14-11-2010 01:00:00 14.24 C 8.27 g/m*3 14.24 C 0 km/h
2039 14-11-2010 02:00:00 13.58 C 8.7 g/m*3 13.58 C 0 km/h
2040 14-11-2010 03:00:00 14.36 C 8.39 g/m*3 14.36 C 0 km/h
2041 14-11-2010 04:00:00 14.02 C 8.38 g/m*3 14.02 C 0 km/h
2042 14-11-2010 05:00:00 13.9 C 8.46 g/m*3 13.9 C 0 km/h
2043 14-11-2010 06:00:00 13.42 C 8.36 g/m*3 13.42 C 0 km/h
2044 14-11-2010 07:00:00 11.92 C 8 g/m*3 11.92 C 0 km/h
2045 14-11-2010 08:00:00 12.66 C 7.53 g/m*3 12.66 C 0 km/h
2046 14-11-2010 09:00:00 14.28 C 7.24 g/m*3 14.28 C 0 km/h
2047 14-11-2010 10:00:00 15.02 C 7.22 g/m*3 15.02 C 0 km/h
2048 14-11-2010 11:00:00 15.44 C 7.22 g/m*3 15.44 C 0 km/h
2049 14-11-2010 12:00:00 16.16 C 7.4 g/m*3 16.16 C 0 km/h
2050 14-11-2010 13:00:00 17.46 C 7.44 g/m*3 17.46 C 0 km/h
Sensor: Nr:Datum:Temp:Abs-Feuchte:Windchill:Wind:
Aussen-T/F 2051 14-11-2010 14:00:00 17.64 C 7.25 g/m*3 17.64 C 0 km/h
2052 14-11-2010 15:00:00 17.7 C 7.12 g/m*3 17.7 C 0 km/h
2053 14-11-2010 16:00:00 15.72 C 7.64 g/m*3 15.72 C 0 km/h
2054 14-11-2010 17:00:00 14.74 C 8.13 g/m*3 14.74 C 0 km/h
2055 14-11-2010 18:00:00 14.16 C 8.02 g/m*3 14.16 C 0 km/h
2056 14-11-2010 19:00:00 13.96 C 7.89 g/m*3 13.96 C 0 km/h
2057 14-11-2010 20:00:00 14.02 C 7.68 g/m*3 14.02 C 0 km/h
2058 14-11-2010 21:00:00 13.92 C 7.27 g/m*3 13.92 C 0 km/h
2059 14-11-2010 22:00:00 13.78 C 7.09 g/m*3 13.78 C 0 km/h
2060 14-11-2010 23:00:00 13.42 C 6.94 g/m*3 13.42 C 0 km/h
2061 15-11-2010 00:00:00 12.88 C 6.98 g/m*3 12.88 C 0 km/h
2062 15-11-2010 01:00:00 12.22 C 6.91 g/m*3 12.22 C 0 km/h
2063 15-11-2010 02:00:00 11.78 C 6.92 g/m*3 11.78 C 0 km/h
2064 15-11-2010 03:00:00 10.9 C 7.02 g/m*3 10.9 C 0 km/h
2065 15-11-2010 04:00:00 10.24 C 6.95 g/m*3 10.24 C 0 km/h
2066 15-11-2010 05:00:00 9.92 C 6.53 g/m*3 9.92 C 0 km/h
2067 15-11-2010 06:00:00 9.34 C 6.27 g/m*3 9.34 C 0 km/h
2068 15-11-2010 07:00:00 8.96 C 6.42 g/m*3 8.96 C 0 km/h
2069 15-11-2010 08:00:00 9.1 C 6.28 g/m*3 9.1 C 0 km/h
2070 15-11-2010 09:00:00 9.16 C 6.07 g/m*3 9.16 C 0 km/h
2071 15-11-2010 10:00:00 9.82 C 5.87 g/m*3 9.82 C 0 km/h
2072 15-11-2010 11:00:00 10.3 C 5.75 g/m*3 10.3 C 0 km/h
2073 15-11-2010 12:00:00 10.84 C 5.57 g/m*3 10.84 C 0 km/h
2074 15-11-2010 13:00:00 10.48 C 5.62 g/m*3 10.48 C 0 km/h
2075 15-11-2010 14:00:00 10.24 C 5.5 g/m*3 10.24 C 0 km/h
Sensor: Nr:Datum:Temp:Abs-Feuchte:Windchill:Wind:
Aussen-T/F 2076 15-11-2010 15:00:00 9.68 C 5.54 g/m*3 9.68 C 0 km/h
2077 15-11-2010 16:00:00 8.96 C 5.7 g/m*3 8.96 C 0 km/h
2078 15-11-2010 17:00:00 8.16 C 5.81 g/m*3 8.16 C 0 km/h
2079 15-11-2010 18:00:00 8.14 C 5.89 g/m*3 8.14 C 0 km/h
2080 15-11-2010 19:00:00 7.98 C 5.88 g/m*3 7.98 C 0 km/h
2081 15-11-2010 20:00:00 7.6 C 5.95 g/m*3 7.6 C 0 km/h
2082 15-11-2010 21:00:00 7.16 C 5.93 g/m*3 7.16 C 0 km/h
2083 15-11-2010 22:00:00 6.94 C 5.97 g/m*3 6.94 C 0 km/h
2084 15-11-2010 23:00:00 6.68 C 5.99 g/m*3 6.68 C 0 km/h
2085 16-11-2010 00:00:00 5.88 C 5.95 g/m*3 5.88 C 0 km/h
2086 16-11-2010 01:00:00 5.2 C 5.87 g/m*3 5.2 C 0 km/h
2087 16-11-2010 02:00:00 5.48 C 6.1 g/m*3 5.48 C 0 km/h
2088 16-11-2010 03:00:00 5.86 C 6.21 g/m*3 5.86 C 0 km/h
2089 16-11-2010 04:00:00 5.22 C 5.97 g/m*3 5.22 C 0 km/h
2090 16-11-2010 05:00:00 5.5 C 6.07 g/m*3 5.5 C 0 km/h
2091 16-11-2010 06:00:00 5.22 C 5.83 g/m*3 5.22 C 0 km/h
2092 16-11-2010 07:00:00 5.18 C 5.79 g/m*3 5.18 C 0 km/h
2093 16-11-2010 08:00:00 5.42 C 5.83 g/m*3 5.42 C 0 km/h
2094 16-11-2010 09:00:00 5.88 C 5.82 g/m*3 5.88 C 0 km/h
2095 16-11-2010 10:00:00 6.26 C 5.74 g/m*3 6.26 C 0 km/h
2096 16-11-2010 11:00:00 6.56 C 5.65 g/m*3 6.56 C 0 km/h
2097 16-11-2010 12:00:00 7.34 C 5.53 g/m*3 7.34 C 0 km/h
2098 16-11-2010 13:00:00 7.54 C 5.59 g/m*3 7.54 C 0 km/h
2099 16-11-2010 14:00:00 7.68 C 5.52 g/m*3 7.68 C 0 km/h
2100 16-11-2010 15:00:00 7.24 C 5.51 g/m*3 7.24 C 0 km/h
Sensor: Nr:Datum:Temp:Abs-Feuchte:Windchill:Wind:
Aussen-T/F 2101 16-11-2010 16:00:00 7.08 C 5.53 g/m*3 7.08 C 0 km/h
2102 16-11-2010 17:00:00 6.8 C 5.64 g/m*3 6.8 C 0 km/h
2103 16-11-2010 18:00:00 6.22 C 5.67 g/m*3 6.22 C 0 km/h
2104 16-11-2010 19:00:00 5.92 C 5.75 g/m*3 5.92 C 0 km/h
2105 16-11-2010 20:00:00 5.56 C 5.71 g/m*3 5.56 C 0 km/h
2106 16-11-2010 21:00:00 5.42 C 5.66 g/m*3 5.42 C 0 km/h
2107 16-11-2010 22:00:00 5.24 C 5.61 g/m*3 5.24 C 0 km/h
2108 16-11-2010 23:00:00 4.6 C 5.58 g/m*3 4.6 C 0 km/h
2109 17-11-2010 00:00:00 4.78 C 5.72 g/m*3 4.78 C 0 km/h
2110 17-11-2010 01:00:00 5.08 C 5.62 g/m*3 5.08 C 0 km/h
2111 17-11-2010 02:00:00 5 C 5.59 g/m*3 5 C 0 km/h
2112 17-11-2010 03:00:00 4.92 C 5.66 g/m*3 4.92 C 0 km/h
2113 17-11-2010 04:00:00 4.8 C 5.65 g/m*3 4.8 C 0 km/h
2114 17-11-2010 05:00:00 4.74 C 5.72 g/m*3 4.74 C 0 km/h
2115 17-11-2010 06:00:00 4.7 C 5.73 g/m*3 4.7 C 0 km/h
2116 17-11-2010 07:00:00 4.72 C 5.67 g/m*3 4.72 C 0 km/h
2117 17-11-2010 08:00:00 5.1 C 4.98 g/m*3 5.1 C 0 km/h
2118 17-11-2010 09:00:00 5.56 C 4.64 g/m*3 5.56 C 0 km/h
2119 17-11-2010 10:00:00 5.78 C 4.66 g/m*3 5.78 C 0 km/h
2120 17-11-2010 11:00:00 6.04 C 4.6 g/m*3 6.04 C 0 km/h
2121 17-11-2010 12:00:00 6.28 C 4.6 g/m*3 6.28 C 0 km/h
2122 17-11-2010 13:00:00 6.54 C 4.63 g/m*3 6.54 C 0 km/h
2123 17-11-2010 14:00:00 6.18 C 4.55 g/m*3 6.18 C 0 km/h
2124 17-11-2010 15:00:00 5.86 C 4.67 g/m*3 5.86 C 0 km/h
2125 17-11-2010 16:00:00 5.54 C 4.8 g/m*3 5.54 C 0 km/h
Sensor: Nr:Datum:Temp:Abs-Feuchte:Windchill:Wind:
Aussen-T/F 2126 17-11-2010 17:00:00 5.26 C 4.91 g/m*3 5.26 C 0 km/h
2127 17-11-2010 18:00:00 5.2 C 4.97 g/m*3 5.2 C 0 km/h
2128 17-11-2010 19:00:00 5.3 C 4.99 g/m*3 5.3 C 0 km/h
2129 17-11-2010 20:00:00 5.3 C 5.12 g/m*3 5.3 C 0 km/h
2130 17-11-2010 21:00:00 5.26 C 5.21 g/m*3 5.26 C 0 km/h
2131 17-11-2010 22:00:00 5.04 C 5.34 g/m*3 5.04 C 0 km/h
2132 17-11-2010 23:00:00 4.52 C 5.58 g/m*3 4.52 C 0 km/h
2133 18-11-2010 00:00:00 4.56 C 5.74 g/m*3 4.56 C 0 km/h
2134 18-11-2010 01:00:00 4.28 C 5.71 g/m*3 4.28 C 0 km/h
2135 18-11-2010 02:00:00 4.28 C 5.77 g/m*3 4.28 C 0 km/h
2136 18-11-2010 03:00:00 4.06 C 5.75 g/m*3 4.06 C 0 km/h
2137 18-11-2010 04:00:00 4.28 C 5.88 g/m*3 4.28 C 0 km/h
2138 18-11-2010 05:00:00 4.28 C 5.89 g/m*3 4.28 C 0 km/h
2139 18-11-2010 06:00:00 3.92 C 5.81 g/m*3 3.92 C 0 km/h
2140 18-11-2010 07:00:00 3.98 C 5.84 g/m*3 3.98 C 0 km/h
2141 18-11-2010 08:00:00 4.22 C 5.94 g/m*3 4.22 C 0 km/h
2142 18-11-2010 09:00:00 4.94 C 6.2 g/m*3 4.94 C 0 km/h
2143 18-11-2010 10:00:00 5.96 C 6.24 g/m*3 5.96 C 0 km/h
2144 18-11-2010 11:00:00 6.9 C 6.02 g/m*3 6.9 C 0 km/h
2145 18-11-2010 12:00:00 7.54 C 5.92 g/m*3 7.54 C 0 km/h
2146 18-11-2010 13:00:00 8.36 C 5.7 g/m*3 8.36 C 0 km/h
2147 18-11-2010 14:00:00 8.14 C 5.32 g/m*3 8.14 C 0 km/h
2148 18-11-2010 15:00:00 7.76 C 5.39 g/m*3 7.76 C 0 km/h
2149 18-11-2010 16:00:00 6.9 C 5.77 g/m*3 6.9 C 0 km/h
2150 18-11-2010 17:00:00 6.12 C 5.87 g/m*3 6.12 C 0 km/h
Sensor: Nr:Datum:Temp:Abs-Feuchte:Windchill:Wind:
Aussen-T/F 2151 18-11-2010 18:00:00 6.2 C 6.02 g/m*3 6.2 C 0 km/h
2152 18-11-2010 19:00:00 5.94 C 6.01 g/m*3 5.94 C 0 km/h
2153 18-11-2010 20:00:00 5.58 C 6.23 g/m*3 5.58 C 0 km/h
2154 18-11-2010 21:00:00 5.52 C 6.27 g/m*3 5.52 C 0 km/h
2155 18-11-2010 22:00:00 5.5 C 6.32 g/m*3 5.5 C 0 km/h
2156 18-11-2010 23:00:00 5.64 C 6.42 g/m*3 5.64 C 0 km/h
2157 19-11-2010 00:00:00 5.66 C 6.26 g/m*3 5.66 C 0 km/h
2158 19-11-2010 01:00:00 5.58 C 6.11 g/m*3 5.58 C 0 km/h
2159 19-11-2010 02:00:00 5.34 C 6.17 g/m*3 5.34 C 0 km/h
2160 19-11-2010 03:00:00 5.12 C 6.08 g/m*3 5.12 C 0 km/h
2161 19-11-2010 04:00:00 5.04 C 6.05 g/m*3 5.04 C 0 km/h
2162 19-11-2010 05:00:00 4.94 C 6.04 g/m*3 4.94 C 0 km/h
2163 19-11-2010 06:00:00 4.9 C 6.02 g/m*3 4.9 C 0 km/h
2164 19-11-2010 07:00:00 5.14 C 6.1 g/m*3 5.14 C 0 km/h
2165 19-11-2010 08:00:00 5.44 C 6.23 g/m*3 5.44 C 0 km/h
2166 19-11-2010 09:00:00 6.32 C 6.26 g/m*3 6.32 C 0 km/h
2167 19-11-2010 10:00:00 7.62 C 6.28 g/m*3 7.62 C 0 km/h
2168 19-11-2010 11:00:00 8.84 C 6.06 g/m*3 8.84 C 0 km/h
2169 19-11-2010 12:00:00 9.52 C 5.85 g/m*3 9.52 C 0 km/h
2170 19-11-2010 13:00:00 9.74 C 5.82 g/m*3 9.74 C 0 km/h
2171 19-11-2010 14:00:00 9.94 C 5.69 g/m*3 9.94 C 0 km/h
2172 19-11-2010 15:00:00 8.5 C 5.93 g/m*3 8.5 C 0 km/h
2173 19-11-2010 16:00:00 7.04 C 6.23 g/m*3 7.04 C 0 km/h
2174 19-11-2010 17:00:00 7.58 C 6.31 g/m*3 7.58 C 0 km/h
2175 19-11-2010 18:00:00 7.62 C 6.32 g/m*3 7.62 C 0 km/h
Sensor: Nr:Datum:Temp:Abs-Feuchte:Windchill:Wind:
Aussen-T/F 2176 19-11-2010 19:00:00 6.96 C 6.23 g/m*3 6.96 C 0 km/h
2177 19-11-2010 20:00:00 5.1 C 5.91 g/m*3 5.1 C 0 km/h
2178 19-11-2010 21:00:00 3.86 C 5.62 g/m*3 3.86 C 0 km/h
2179 19-11-2010 22:00:00 3.92 C 5.74 g/m*3 3.92 C 0 km/h
2180 19-11-2010 23:00:00 4.54 C 6.02 g/m*3 4.54 C 0 km/h
2181 20-11-2010 00:00:00 4.04 C 5.86 g/m*3 4.04 C 0 km/h
2182 20-11-2010 01:00:00 4.18 C 5.92 g/m*3 4.18 C 0 km/h
2183 20-11-2010 02:00:00 1.94 C 5.11 g/m*3 1.94 C 0 km/h
2184 20-11-2010 03:00:00 1.34 C 4.91 g/m*3 1.34 C 0 km/h
2185 20-11-2010 04:00:00 2.64 C 5.37 g/m*3 2.64 C 0 km/h
2186 20-11-2010 05:00:00 3.34 C 5.65 g/m*3 3.34 C 0 km/h
2187 20-11-2010 06:00:00 3.76 C 5.82 g/m*3 3.76 C 0 km/h
2188 20-11-2010 07:00:00 4.06 C 5.94 g/m*3 4.06 C 0 km/h
2189 20-11-2010 08:00:00 4.4 C 6.07 g/m*3 4.4 C 0 km/h
2190 20-11-2010 09:00:00 5.04 C 6.32 g/m*3 5.04 C 0 km/h
2191 20-11-2010 10:00:00 6.02 C 6.63 g/m*3 6.02 C 0 km/h
2192 20-11-2010 11:00:00 7.46 C 6.75 g/m*3 7.46 C 0 km/h
2193 20-11-2010 12:00:00 9.1 C 6.67 g/m*3 9.1 C 0 km/h
2194 20-11-2010 13:00:00 8.88 C 6.37 g/m*3 8.88 C 0 km/h
2195 20-11-2010 14:00:00 8.78 C 6.29 g/m*3 8.78 C 0 km/h
2196 20-11-2010 15:00:00 7.76 C 6.19 g/m*3 7.76 C 0 km/h
2197 20-11-2010 16:00:00 5.34 C 5.87 g/m*3 5.34 C 0 km/h
2198 20-11-2010 17:00:00 4.6 C 5.9 g/m*3 4.6 C 0 km/h
2199 20-11-2010 18:00:00 4.4 C 5.9 g/m*3 4.4 C 0 km/h
2200 20-11-2010 19:00:00 3.92 C 5.75 g/m*3 3.92 C 0 km/h
Sensor: Nr:Datum:Temp:Abs-Feuchte:Windchill:Wind:
Aussen-T/F 2201 20-11-2010 20:00:00 3.28 C 5.55 g/m*3 3.28 C 0 km/h
2202 20-11-2010 21:00:00 3.26 C 5.57 g/m*3 3.26 C 0 km/h
2203 20-11-2010 22:00:00 4.32 C 5.98 g/m*3 4.32 C 0 km/h
2204 20-11-2010 23:00:00 4.12 C 5.92 g/m*3 4.12 C 0 km/h
2205 21-11-2010 00:00:00 4.32 C 5.96 g/m*3 4.32 C 0 km/h
2206 21-11-2010 01:00:00 4.48 C 5.75 g/m*3 4.48 C 0 km/h
2207 21-11-2010 02:00:00 4.44 C 5.43 g/m*3 4.44 C 0 km/h
2208 21-11-2010 03:00:00 4.5 C 5.28 g/m*3 4.5 C 0 km/h
2209 21-11-2010 04:00:00 4.56 C 5.06 g/m*3 4.56 C 0 km/h
2210 21-11-2010 05:00:00 4.5 C 4.94 g/m*3 4.5 C 0 km/h
2211 21-11-2010 06:00:00 4.4 C 4.92 g/m*3 4.4 C 0 km/h
2212 21-11-2010 07:00:00 4.38 C 5.05 g/m*3 4.38 C 0 km/h
2213 21-11-2010 08:00:00 4.7 C 5.14 g/m*3 4.7 C 0 km/h
2214 21-11-2010 09:00:00 5 C 4.92 g/m*3 5 C 0 km/h
2215 21-11-2010 10:00:00 5.36 C 4.82 g/m*3 5.36 C 0 km/h
2216 21-11-2010 11:00:00 5.3 C 4.63 g/m*3 5.3 C 0 km/h
2217 21-11-2010 12:00:00 5.1 C 4.53 g/m*3 5.1 C 0 km/h
2218 21-11-2010 13:00:00 5.12 C 4.45 g/m*3 5.12 C 0 km/h
2219 21-11-2010 14:00:00 4.88 C 4.42 g/m*3 4.88 C 0 km/h
2220 21-11-2010 15:00:00 4.44 C 4.28 g/m*3 4.44 C 0 km/h
2221 21-11-2010 16:00:00 4.16 C 4.38 g/m*3 4.16 C 0 km/h
2222 21-11-2010 17:00:00 3.96 C 4.5 g/m*3 3.96 C 0 km/h
2223 21-11-2010 18:00:00 3.96 C 4.57 g/m*3 3.96 C 0 km/h
2224 21-11-2010 19:00:00 4.06 C 4.61 g/m*3 4.06 C 0 km/h
2225 21-11-2010 20:00:00 4.3 C 4.55 g/m*3 4.3 C 0 km/h
Sensor: Nr:Datum:Temp:Abs-Feuchte:Windchill:Wind:
Aussen-T/F 2226 21-11-2010 21:00:00 4.16 C 4.5 g/m*3 4.16 C 0 km/h
2227 21-11-2010 22:00:00 3.76 C 4.66 g/m*3 3.76 C 0 km/h
2228 21-11-2010 23:00:00 3.76 C 4.81 g/m*3 3.76 C 0 km/h
2229 22-11-2010 00:00:00 4.06 C 4.93 g/m*3 4.06 C 0 km/h
2230 22-11-2010 01:00:00 4.08 C 4.92 g/m*3 4.08 C 0 km/h
2231 22-11-2010 02:00:00 4.16 C 4.97 g/m*3 4.16 C 0 km/h
2232 22-11-2010 03:00:00 4.46 C 5.06 g/m*3 4.46 C 0 km/h
2233 22-11-2010 04:00:00 4.86 C 5.01 g/m*3 4.86 C 0 km/h
2234 22-11-2010 05:00:00 4.88 C 4.95 g/m*3 4.88 C 0 km/h
2235 22-11-2010 06:00:00 4.7 C 4.86 g/m*3 4.7 C 0 km/h
2236 22-11-2010 07:00:00 4.64 C 4.79 g/m*3 4.64 C 0 km/h
2237 22-11-2010 08:00:00 4.64 C 4.8 g/m*3 4.64 C 0 km/h
2238 22-11-2010 09:00:00 4.74 C 4.81 g/m*3 4.74 C 0 km/h
2239 22-11-2010 10:00:00 4.82 C 4.86 g/m*3 4.82 C 0 km/h
2240 22-11-2010 11:00:00 4.48 C 4.95 g/m*3 4.48 C 0 km/h
2241 22-11-2010 12:00:00 4.2 C 5.21 g/m*3 4.2 C 0 km/h
2242 22-11-2010 13:00:00 4.24 C 5.38 g/m*3 4.24 C 0 km/h
2243 22-11-2010 14:00:00 4.78 C 5.25 g/m*3 4.78 C 0 km/h
2244 22-11-2010 15:00:00 4.9 C 5.02 g/m*3 4.9 C 0 km/h
2245 22-11-2010 16:00:00 4.32 C 4.91 g/m*3 4.32 C 0 km/h
2246 22-11-2010 17:00:00 4.04 C 4.99 g/m*3 4.04 C 0 km/h
2247 22-11-2010 18:00:00 4.28 C 4.95 g/m*3 4.28 C 0 km/h
2248 22-11-2010 19:00:00 4.38 C 4.88 g/m*3 4.38 C 0 km/h
2249 22-11-2010 20:00:00 4.42 C 4.8 g/m*3 4.42 C 0 km/h
2250 22-11-2010 21:00:00 4.4 C 4.82 g/m*3 4.4 C 0 km/h
Sensor: Nr:Datum:Temp:Abs-Feuchte:Windchill:Wind:
Aussen-T/F 2251 22-11-2010 22:00:00 4.5 C 4.89 g/m*3 4.5 C 0 km/h
2252 22-11-2010 23:00:00 4.4 C 4.94 g/m*3 4.4 C 0 km/h
2253 23-11-2010 00:00:00 4.44 C 4.94 g/m*3 4.44 C 0 km/h
2254 23-11-2010 01:00:00 4.46 C 4.85 g/m*3 4.46 C 0 km/h
2255 23-11-2010 02:00:00 4.26 C 4.62 g/m*3 4.26 C 0 km/h
2256 23-11-2010 03:00:00 4.08 C 4.42 g/m*3 4.08 C 0 km/h
2257 23-11-2010 04:00:00 3.68 C 4.52 g/m*3 3.68 C 0 km/h
2258 23-11-2010 05:00:00 3.2 C 4.65 g/m*3 3.2 C 0 km/h
2259 23-11-2010 06:00:00 2.66 C 5.01 g/m*3 2.66 C 0 km/h
2260 23-11-2010 07:00:00 2.96 C 5.08 g/m*3 2.96 C 0 km/h
2261 23-11-2010 08:00:00 3.18 C 4.89 g/m*3 3.18 C 0 km/h
2262 23-11-2010 09:00:00 3.68 C 4.75 g/m*3 3.68 C 0 km/h
2263 23-11-2010 10:00:00 4.26 C 4.58 g/m*3 4.26 C 0 km/h
2264 23-11-2010 11:00:00 4.72 C 4.66 g/m*3 4.72 C 0 km/h
2265 23-11-2010 12:00:00 5.28 C 4.47 g/m*3 5.28 C 0 km/h
2266 23-11-2010 13:00:00 6.04 C 4.37 g/m*3 6.04 C 0 km/h
2267 23-11-2010 14:00:00 5.74 C 4.25 g/m*3 5.74 C 0 km/h
2268 23-11-2010 15:00:00 5.54 C 4.25 g/m*3 5.54 C 0 km/h
2269 23-11-2010 16:00:00 5.38 C 4.47 g/m*3 5.38 C 0 km/h
2270 23-11-2010 17:00:00 5.32 C 4.46 g/m*3 5.32 C 0 km/h
2271 23-11-2010 18:00:00 5.28 C 4.42 g/m*3 5.28 C 0 km/h
2272 23-11-2010 19:00:00 5.2 C 4.5 g/m*3 5.2 C 0 km/h
2273 23-11-2010 20:00:00 5.14 C 4.46 g/m*3 5.14 C 0 km/h
2274 23-11-2010 21:00:00 4.98 C 4.33 g/m*3 4.98 C 0 km/h
2275 23-11-2010 22:00:00 4.95 C 4.33 g/m*3 4.95 C 0 km/h
Sensor: Nr:Datum:Temp:Abs-Feuchte:Windchill:Wind:
Aussen-T/F 2276 23-11-2010 23:00:00 4.64 C 4.39 g/m*3 4.64 C 0 km/h
2277 24-11-2010 00:00:00 4.32 C 4.44 g/m*3 4.32 C 0 km/h
2278 24-11-2010 01:00:00 3.96 C 4.46 g/m*3 3.96 C 0 km/h
2279 24-11-2010 02:00:00 3.42 C 4.5 g/m*3 3.42 C 0 km/h
2280 24-11-2010 03:00:00 3.52 C 4.62 g/m*3 3.52 C 0 km/h
2281 24-11-2010 04:00:00 3.46 C 4.72 g/m*3 3.46 C 0 km/h
2282 24-11-2010 05:00:00 2.92 C 5 g/m*3 2.92 C 0 km/h
2283 24-11-2010 06:00:00 3.2 C 5.07 g/m*3 3.2 C 0 km/h
2284 24-11-2010 07:00:00 3.34 C 5.01 g/m*3 3.34 C 0 km/h
2285 24-11-2010 08:00:00 3.42 C 5.08 g/m*3 3.42 C 0 km/h
2286 24-11-2010 09:00:00 4.22 C 4.99 g/m*3 4.22 C 0 km/h
2287 24-11-2010 10:00:00 5.22 C 4.7 g/m*3 5.22 C 0 km/h
2288 24-11-2010 11:00:00 5.22 C 4.78 g/m*3 5.22 C 0 km/h
2289 24-11-2010 12:00:00 5.8 C 4.57 g/m*3 5.8 C 0 km/h
2290 24-11-2010 13:00:00 5.36 C 4.61 g/m*3 5.36 C 0 km/h
2291 24-11-2010 14:00:00 4.48 C 5.08 g/m*3 4.48 C 0 km/h
2292 24-11-2010 15:00:00 3.48 C 5.24 g/m*3 3.48 C 0 km/h
2293 24-11-2010 16:00:00 3.3 C 5.22 g/m*3 3.3 C 0 km/h
2294 24-11-2010 17:00:00 2.28 C 4.88 g/m*3 2.28 C 0 km/h
2295 24-11-2010 18:00:00 1.64 C 4.9 g/m*3 1.64 C 0 km/h
2296 24-11-2010 19:00:00 2.02 C 5.09 g/m*3 2.02 C 0 km/h
2297 24-11-2010 20:00:00 1.42 C 4.91 g/m*3 1.42 C 0 km/h
2298 24-11-2010 21:00:00 1.42 C 4.91 g/m*3 1.42 C 0 km/h
2299 24-11-2010 22:00:00 2.14 C 5.13 g/m*3 2.14 C 0 km/h
2300 24-11-2010 23:00:00 2.4 C 5.06 g/m*3 2.4 C 0 km/h
Sensor: Nr:Datum:Temp:Abs-Feuchte:Windchill:Wind:
Aussen-T/F 2301 25-11-2010 00:00:00 2.5 C 4.93 g/m*3 2.5 C 0 km/h
2302 25-11-2010 01:00:00 2.94 C 4.82 g/m*3 2.94 C 0 km/h
2303 25-11-2010 02:00:00 2.76 C 4.55 g/m*3 2.76 C 0 km/h
2304 25-11-2010 03:00:00 2.82 C 4.43 g/m*3 2.82 C 0 km/h
2305 25-11-2010 04:00:00 2.02 C 4.2 g/m*3 2.02 C 0 km/h
2306 25-11-2010 05:00:00 1.3 C 4.08 g/m*3 1.3 C 0 km/h
2307 25-11-2010 06:00:00 0.66 C 4.12 g/m*3 0.66 C 0 km/h
2308 25-11-2010 07:00:00 0.06 C 4.24 g/m*3 0.06 C 0 km/h
2309 25-11-2010 08:00:00 -0.28 C 4.23 g/m*3 -0.28 C 0 km/h
2310 25-11-2010 09:00:00 0.58 C 4.45 g/m*3 0.58 C 0 km/h
2311 25-11-2010 10:00:00 0.8 C 4.42 g/m*3 0.8 C 0 km/h
2312 25-11-2010 11:00:00 1.76 C 4.53 g/m*3 1.76 C 0 km/h
2313 25-11-2010 12:00:00 2 C 4.51 g/m*3 2 C 0 km/h
2314 25-11-2010 13:00:00 3.48 C 4.22 g/m*3 3.48 C 0 km/h
2315 25-11-2010 14:00:00 3.66 C 4.03 g/m*3 3.66 C 0 km/h
2316 25-11-2010 15:00:00 3.28 C 3.96 g/m*3 3.28 C 0 km/h
2317 25-11-2010 16:00:00 2.04 C 4.21 g/m*3 2.04 C 0 km/h
2318 25-11-2010 17:00:00 2.04 C 4.35 g/m*3 2.04 C 0 km/h
2319 25-11-2010 18:00:00 1.74 C 4.42 g/m*3 1.74 C 0 km/h
2320 25-11-2010 19:00:00 0.98 C 4.38 g/m*3 0.98 C 0 km/h
2321 25-11-2010 20:00:00 0.7 C 4.4 g/m*3 0.7 C 0 km/h
2322 25-11-2010 21:00:00 1.24 C 4.5 g/m*3 1.24 C 0 km/h
2323 25-11-2010 22:00:00 1.34 C 4.49 g/m*3 1.34 C 0 km/h
2324 25-11-2010 23:00:00 1.36 C 4.52 g/m*3 1.36 C 0 km/h
2325 26-11-2010 00:00:00 1.4 C 4.51 g/m*3 1.4 C 0 km/h
Sensor: Nr:Datum:Temp:Abs-Feuchte:Windchill:Wind:
Aussen-T/F 2326 26-11-2010 01:00:00 1.06 C 4.49 g/m*3 1.06 C 0 km/h
2327 26-11-2010 02:00:00 1.06 C 4.47 g/m*3 1.06 C 0 km/h
2328 26-11-2010 03:00:00 0.74 C 4.37 g/m*3 0.74 C 0 km/h
2329 26-11-2010 04:00:00 0.32 C 4.4 g/m*3 0.32 C 0 km/h
2330 26-11-2010 05:00:00 0.26 C 4.47 g/m*3 0.26 C 0 km/h
2331 26-11-2010 06:00:00 0.22 C 4.49 g/m*3 0.22 C 0 km/h
2332 26-11-2010 07:00:00 0 C 4.46 g/m*3 0 C 0 km/h
2333 26-11-2010 08:00:00 0.04 C 4.49 g/m*3 0.04 C 0 km/h
2334 26-11-2010 09:00:00 0.14 C 4.55 g/m*3 0.14 C 0 km/h
2335 26-11-2010 10:00:00 0.58 C 4.66 g/m*3 0.58 C 0 km/h
2336 26-11-2010 11:00:00 1.12 C 4.61 g/m*3 1.12 C 0 km/h
2337 26-11-2010 12:00:00 0.84 C 4.41 g/m*3 0.84 C 0 km/h
2338 26-11-2010 13:00:00 0.9 C 4.37 g/m*3 0.9 C 0 km/h
2339 26-11-2010 14:00:00 1.6 C 4.17 g/m*3 1.6 C 0 km/h
2340 26-11-2010 15:00:00 0.8 C 3.8 g/m*3 0.8 C 0 km/h
2341 26-11-2010 16:00:00 -1.48 C 3.69 g/m*3 -1.48 C 0 km/h
2342 26-11-2010 17:00:00 -2.36 C 3.65 g/m*3 -2.36 C 0 km/h
2343 26-11-2010 18:00:00 -1.38 C 4 g/m*3 -1.38 C 0 km/h
2344 26-11-2010 19:00:00 -1.54 C 3.96 g/m*3 -1.54 C 0 km/h
2345 26-11-2010 20:00:00 -1.96 C 3.85 g/m*3 -1.96 C 0 km/h
2346 26-11-2010 21:00:00 -2.34 C 3.75 g/m*3 -2.34 C 0 km/h
2347 26-11-2010 22:00:00 -3.24 C 3.5 g/m*3 -3.24 C 0 km/h
2348 26-11-2010 23:00:00 -3.76 C 3.35 g/m*3 -3.76 C 0 km/h
2349 27-11-2010 00:00:00 -4.08 C 3.27 g/m*3 -4.08 C 0 km/h
2350 27-11-2010 01:00:00 -3.54 C 3.39 g/m*3 -3.54 C 0 km/h
Sensor: Nr:Datum:Temp:Abs-Feuchte:Windchill:Wind:
Aussen-T/F 2351 27-11-2010 02:00:00 -3.94 C 3.25 g/m*3 -3.94 C 0 km/h
2352 27-11-2010 03:00:00 -3.16 C 3.46 g/m*3 -3.16 C 0 km/h
2353 27-11-2010 04:00:00 -4.12 C 3.19 g/m*3 -4.12 C 0 km/h
2354 27-11-2010 05:00:00 -4.28 C 3.15 g/m*3 -4.28 C 0 km/h
2355 27-11-2010 06:00:00 -3.52 C 3.35 g/m*3 -3.52 C 0 km/h
2356 27-11-2010 07:00:00 -3.54 C 3.33 g/m*3 -3.54 C 0 km/h
2357 27-11-2010 08:00:00 -3 C 3.48 g/m*3 -3 C 0 km/h
2358 27-11-2010 09:00:00 -1.8 C 3.8 g/m*3 -1.8 C 0 km/h
2359 27-11-2010 10:00:00 -0.84 C 4.06 g/m*3 -0.84 C 0 km/h
2360 27-11-2010 11:00:00 -0.2 C 4.19 g/m*3 -0.2 C 0 km/h
2361 27-11-2010 12:00:00 0.38 C 4 g/m*3 0.38 C 0 km/h
2362 27-11-2010 13:00:00 0.86 C 3.91 g/m*3 0.86 C 0 km/h
2363 27-11-2010 14:00:00 1.48 C 3.79 g/m*3 1.48 C 0 km/h
2364 27-11-2010 15:00:00 0.76 C 3.8 g/m*3 0.76 C 0 km/h
2365 27-11-2010 16:00:00 -0.72 C 3.59 g/m*3 -0.72 C 0 km/h
2366 27-11-2010 17:00:00 -0.86 C 3.65 g/m*3 -0.86 C 0 km/h
2367 27-11-2010 18:00:00 -1.58 C 3.59 g/m*3 -1.58 C 0 km/h
2368 27-11-2010 19:00:00 -0.92 C 3.75 g/m*3 -0.92 C 0 km/h
2369 27-11-2010 20:00:00 -1.5 C 3.52 g/m*3 -1.5 C 0 km/h
2370 27-11-2010 21:00:00 -3.1 C 3.27 g/m*3 -3.1 C 0 km/h
2371 27-11-2010 22:00:00 -3.36 C 3.3 g/m*3 -3.36 C 0 km/h
2372 27-11-2010 23:00:00 -3.22 C 3.31 g/m*3 -3.22 C 0 km/h
2373 28-11-2010 00:00:00 -3.76 C 3.2 g/m*3 -3.76 C 0 km/h
2374 28-11-2010 01:00:00 -2.76 C 3.5 g/m*3 -2.76 C 0 km/h
2375 28-11-2010 02:00:00 -2.18 C 3.6 g/m*3 -2.18 C 0 km/h
Sensor: Nr:Datum:Temp:Abs-Feuchte:Windchill:Wind:
Aussen-T/F 2376 28-11-2010 03:00:00 -3.4 C 3.22 g/m*3 -3.4 C 0 km/h
2377 28-11-2010 04:00:00 -2.64 C 3.47 g/m*3 -2.64 C 0 km/h
2378 28-11-2010 05:00:00 -2.72 C 3.42 g/m*3 -2.72 C 0 km/h
2379 28-11-2010 06:00:00 -2.18 C 3.56 g/m*3 -2.18 C 0 km/h
2380 28-11-2010 07:00:00 -1.88 C 3.58 g/m*3 -1.88 C 0 km/h
2381 28-11-2010 08:00:00 -1.66 C 3.6 g/m*3 -1.66 C 0 km/h
2382 28-11-2010 09:00:00 -1.18 C 3.62 g/m*3 -1.18 C 0 km/h
2383 28-11-2010 10:00:00 -0.38 C 3.63 g/m*3 -0.38 C 0 km/h
2384 28-11-2010 11:00:00 -0.18 C 3.55 g/m*3 -0.18 C 0 km/h
2385 28-11-2010 12:00:00 0.02 C 3.59 g/m*3 0.02 C 0 km/h
2386 28-11-2010 13:00:00 0.14 C 3.63 g/m*3 0.14 C 0 km/h
2387 28-11-2010 14:00:00 0.5 C 3.69 g/m*3 0.5 C 0 km/h
2388 28-11-2010 15:00:00 0.54 C 3.71 g/m*3 0.54 C 0 km/h
2389 28-11-2010 16:00:00 -0.34 C 3.68 g/m*3 -0.34 C 0 km/h
2390 28-11-2010 17:00:00 -0.64 C 3.67 g/m*3 -0.64 C 0 km/h
2391 28-11-2010 18:00:00 -1.1 C 3.71 g/m*3 -1.1 C 0 km/h
2392 28-11-2010 19:00:00 -0.7 C 3.7 g/m*3 -0.7 C 0 km/h
2393 28-11-2010 20:00:00 -0.8 C 3.55 g/m*3 -0.8 C 0 km/h
2394 28-11-2010 21:00:00 -0.86 C 3.46 g/m*3 -0.86 C 0 km/h
2395 28-11-2010 22:00:00 -1.6 C 3.36 g/m*3 -1.6 C 0 km/h
2396 28-11-2010 23:00:00 -2.04 C 3.42 g/m*3 -2.04 C 0 km/h
2397 29-11-2010 00:00:00 -1.48 C 3.37 g/m*3 -1.48 C 0 km/h
2398 29-11-2010 01:00:00 -1.8 C 3.31 g/m*3 -1.8 C 0 km/h
2399 29-11-2010 02:00:00 -1.88 C 3.26 g/m*3 -1.88 C 0 km/h
2400 29-11-2010 03:00:00 -2 C 3.21 g/m*3 -2 C 0 km/h
Sensor: Nr:Datum:Temp:Abs-Feuchte:Windchill:Wind:
Aussen-T/F 2401 29-11-2010 04:00:00 -2 C 3.22 g/m*3 -2 C 0 km/h
2402 29-11-2010 05:00:00 -1.82 C 3.27 g/m*3 -1.82 C 0 km/h
2403 29-11-2010 06:00:00 -1.68 C 3.31 g/m*3 -1.68 C 0 km/h
2404 29-11-2010 07:00:00 -1.66 C 3.29 g/m*3 -1.66 C 0 km/h
2405 29-11-2010 08:00:00 -1.6 C 3.33 g/m*3 -1.6 C 0 km/h
2406 29-11-2010 09:00:00 -1.38 C 3.3 g/m*3 -1.38 C 0 km/h
2407 29-11-2010 10:00:00 -1.3 C 3.37 g/m*3 -1.3 C 0 km/h
2408 29-11-2010 11:00:00 -1.22 C 3.45 g/m*3 -1.22 C 0 km/h
2409 29-11-2010 12:00:00 -1.14 C 3.52 g/m*3 -1.14 C 0 km/h
2410 29-11-2010 13:00:00 -0.84 C 3.57 g/m*3 -0.84 C 0 km/h
2411 29-11-2010 14:00:00 -1.02 C 3.67 g/m*3 -1.02 C 0 km/h
2412 29-11-2010 15:00:00 -1.3 C 3.72 g/m*3 -1.3 C 0 km/h
2413 29-11-2010 16:00:00 -1.46 C 3.73 g/m*3 -1.46 C 0 km/h
2414 29-11-2010 17:00:00 -1.68 C 3.71 g/m*3 -1.68 C 0 km/h
2415 29-11-2010 18:00:00 -1.68 C 3.75 g/m*3 -1.68 C 0 km/h
2416 29-11-2010 19:00:00 -1.7 C 3.75 g/m*3 -1.7 C 0 km/h
2417 29-11-2010 20:00:00 -1.64 C 3.8 g/m*3 -1.64 C 0 km/h
2418 29-11-2010 21:00:00 -1.66 C 3.8 g/m*3 -1.66 C 0 km/h
2419 29-11-2010 22:00:00 -1.78 C 3.77 g/m*3 -1.78 C 0 km/h
2420 29-11-2010 23:00:00 -1.68 C 3.83 g/m*3 -1.68 C 0 km/h
2421 30-11-2010 00:00:00 -1.78 C 3.81 g/m*3 -1.78 C 0 km/h
2422 30-11-2010 01:00:00 -1.96 C 3.76 g/m*3 -1.96 C 0 km/h
2423 30-11-2010 02:00:00 -1.68 C 3.84 g/m*3 -1.68 C 0 km/h
2424 30-11-2010 03:00:00 -1.7 C 3.82 g/m*3 -1.7 C 0 km/h
2425 30-11-2010 04:00:00 -2.36 C 3.62 g/m*3 -2.36 C 0 km/h
Sensor: Nr:Datum:Temp:Abs-Feuchte:Windchill:Wind:
Aussen-T/F 2426 30-11-2010 05:00:00 -2.4 C 3.62 g/m*3 -2.4 C 0 km/h
2427 30-11-2010 06:00:00 -2.26 C 3.66 g/m*3 -2.26 C 0 km/h
2428 30-11-2010 07:00:00 -2.28 C 3.66 g/m*3 -2.28 C 0 km/h
2429 30-11-2010 08:00:00 -2.08 C 3.66 g/m*3 -2.08 C 0 km/h
2430 30-11-2010 09:00:00 -2 C 3.58 g/m*3 -2 C 0 km/h
2431 30-11-2010 10:00:00 -1.82 C 3.51 g/m*3 -1.82 C 0 km/h
2432 30-11-2010 11:00:00 -1.5 C 3.44 g/m*3 -1.5 C 0 km/h
2433 30-11-2010 12:00:00 -1.3 C 3.28 g/m*3 -1.3 C 0 km/h
2434 30-11-2010 13:00:00 -1.08 C 3.25 g/m*3 -1.08 C 0 km/h
2435 30-11-2010 14:00:00 -1.32 C 3.2 g/m*3 -1.32 C 0 km/h
2436 30-11-2010 15:00:00 -1.48 C 3.23 g/m*3 -1.48 C 0 km/h
2437 30-11-2010 16:00:00 -1.5 C 3.23 g/m*3 -1.5 C 0 km/h
2438 30-11-2010 17:00:00 -1.92 C 3.21 g/m*3 -1.92 C 0 km/h
2439 30-11-2010 18:00:00 -2.1 C 3.18 g/m*3 -2.1 C 0 km/h
2440 30-11-2010 19:00:00 -2.1 C 3.17 g/m*3 -2.1 C 0 km/h
2441 30-11-2010 20:00:00 -2.26 C 3.11 g/m*3 -2.26 C 0 km/h
2442 30-11-2010 21:00:00 -2.4 C 3.05 g/m*3 -2.4 C 0 km/h
2443 30-11-2010 22:00:00 -2.58 C 2.94 g/m*3 -2.58 C 0 km/h
2444 30-11-2010 23:00:00 -2.76 C 2.83 g/m*3 -2.76 C 0 km/h
2445 01-12-2010 00:00:00 -3 C 2.76 g/m*3 -3 C 0 km/h
2446 01-12-2010 01:00:00 -3.3 C 2.67 g/m*3 -3.3 C 0 km/h
2447 01-12-2010 02:00:00 -3.88 C 2.51 g/m*3 -3.88 C 0 km/h
2448 01-12-2010 03:00:00 -4.34 C 2.36 g/m*3 -4.34 C 0 km/h
2449 01-12-2010 04:00:00 -5 C 2.23 g/m*3 -5 C 0 km/h
2450 01-12-2010 05:00:00 -5.4 C 2.18 g/m*3 -5.4 C 0 km/h
Sensor: Nr:Datum:Temp:Abs-Feuchte:Windchill:Wind:
Aussen-T/F 2451 01-12-2010 06:00:00 -5.56 C 2.14 g/m*3 -5.56 C 0 km/h
2452 01-12-2010 07:00:00 -5.9 C 2.05 g/m*3 -5.9 C 0 km/h
2453 01-12-2010 08:00:00 -6.26 C 1.95 g/m*3 -6.26 C 0 km/h
2454 01-12-2010 09:00:00 -5.96 C 1.92 g/m*3 -5.96 C 0 km/h
2455 01-12-2010 10:00:00 -5.54 C 1.95 g/m*3 -5.54 C 0 km/h
2456 01-12-2010 11:00:00 -5.48 C 1.97 g/m*3 -5.48 C 0 km/h
2457 01-12-2010 12:00:00 -5.82 C 1.93 g/m*3 -5.82 C 0 km/h
2458 01-12-2010 13:00:00 -6.1 C 1.85 g/m*3 -6.1 C 0 km/h
2459 01-12-2010 14:00:00 -6.18 C 1.79 g/m*3 -6.18 C 0 km/h
2460 01-12-2010 15:00:00 -6.28 C 1.78 g/m*3 -6.28 C 0 km/h
2461 01-12-2010 16:00:00 -6.58 C 1.75 g/m*3 -6.58 C 0 km/h
2462 01-12-2010 17:00:00 -6.58 C 1.8 g/m*3 -6.58 C 0 km/h
2463 01-12-2010 18:00:00 -6.54 C 1.82 g/m*3 -6.54 C 0 km/h
2464 01-12-2010 19:00:00 -6.58 C 1.81 g/m*3 -6.58 C 0 km/h
2465 01-12-2010 20:00:00 -6.64 C 1.77 g/m*3 -6.64 C 0 km/h
2466 01-12-2010 21:00:00 -6.74 C 1.74 g/m*3 -6.74 C 0 km/h
2467 01-12-2010 22:00:00 -6.86 C 1.73 g/m*3 -6.86 C 0 km/h
2468 01-12-2010 23:00:00 -7.06 C 1.77 g/m*3 -7.06 C 0 km/h
2469 02-12-2010 00:00:00 -7.14 C 1.81 g/m*3 -7.14 C 0 km/h
2470 02-12-2010 01:00:00 -7.12 C 1.79 g/m*3 -7.12 C 0 km/h
2471 02-12-2010 02:00:00 -7.28 C 1.71 g/m*3 -7.28 C 0 km/h
2472 02-12-2010 03:00:00 -7.32 C 1.74 g/m*3 -7.32 C 0 km/h
2473 02-12-2010 04:00:00 -7.5 C 1.78 g/m*3 -7.5 C 0 km/h
2474 02-12-2010 05:00:00 -7.64 C 1.79 g/m*3 -7.64 C 0 km/h
2475 02-12-2010 06:00:00 -7.76 C 1.84 g/m*3 -7.76 C 0 km/h
Sensor: Nr:Datum:Temp:Abs-Feuchte:Windchill:Wind:
Aussen-T/F 2476 02-12-2010 07:00:00 -7.72 C 1.89 g/m*3 -7.72 C 0 km/h
2477 02-12-2010 08:00:00 -7.7 C 1.87 g/m*3 -7.7 C 0 km/h
2478 02-12-2010 09:00:00 -7.1 C 1.96 g/m*3 -7.1 C 0 km/h
2479 02-12-2010 10:00:00 -6.14 C 1.99 g/m*3 -6.14 C 0 km/h
2480 02-12-2010 11:00:00 -5.62 C 2.03 g/m*3 -5.62 C 0 km/h
2481 02-12-2010 12:00:00 -6.08 C 2.05 g/m*3 -6.08 C 0 km/h
2482 02-12-2010 13:00:00 -5.3 C 2.15 g/m*3 -5.3 C 0 km/h
2483 02-12-2010 14:00:00 -5.6 C 2.16 g/m*3 -5.6 C 0 km/h
2484 02-12-2010 15:00:00 -4.74 C 2.28 g/m*3 -4.74 C 0 km/h
2485 02-12-2010 16:00:00 -5.12 C 2.3 g/m*3 -5.12 C 0 km/h
2486 02-12-2010 17:00:00 -7.36 C 2.12 g/m*3 -7.36 C 0 km/h
2487 02-12-2010 18:00:00 -8.02 C 2.2 g/m*3 -8.02 C 0 km/h
2488 02-12-2010 19:00:00 -8.42 C 2.16 g/m*3 -8.42 C 0 km/h
2489 02-12-2010 20:00:00 -8.04 C 2.25 g/m*3 -8.04 C 0 km/h
2490 02-12-2010 21:00:00 -7.54 C 2.33 g/m*3 -7.54 C 0 km/h
2491 02-12-2010 22:00:00 -8.54 C 2.13 g/m*3 -8.54 C 0 km/h
2492 02-12-2010 23:00:00 -7.96 C 2.23 g/m*3 -7.96 C 0 km/h
2493 03-12-2010 00:00:00 -9.88 C 1.86 g/m*3 -9.88 C 0 km/h
2494 03-12-2010 01:00:00 -9.66 C 1.91 g/m*3 -9.66 C 0 km/h
2495 03-12-2010 02:00:00 -9.12 C 2 g/m*3 -9.12 C 0 km/h
2496 03-12-2010 03:00:00 -8.78 C 2.04 g/m*3 -8.78 C 0 km/h
2497 03-12-2010 04:00:00 -8.06 C 2.15 g/m*3 -8.06 C 0 km/h
2498 03-12-2010 05:00:00 -8.68 C 2.03 g/m*3 -8.68 C 0 km/h
2499 03-12-2010 06:00:00 -9.48 C 1.91 g/m*3 -9.48 C 0 km/h
2500 03-12-2010 07:00:00 -8.92 C 2.03 g/m*3 -8.92 C 0 km/h
Sensor: Nr:Datum:Temp:Abs-Feuchte:Windchill:Wind:
Aussen-T/F 2501 03-12-2010 08:00:00 -9.92 C 1.85 g/m*3 -9.92 C 0 km/h
2502 03-12-2010 09:00:00 -9.8 C 1.85 g/m*3 -9.8 C 0 km/h
2503 03-12-2010 10:00:00 -8.1 C 2.05 g/m*3 -8.1 C 0 km/h
2504 03-12-2010 11:00:00 -6.32 C 2.23 g/m*3 -6.32 C 0 km/h
2505 03-12-2010 12:00:00 -5.16 C 2.28 g/m*3 -5.16 C 0 km/h
2506 03-12-2010 13:00:00 -4.74 C 2.32 g/m*3 -4.74 C 0 km/h
2507 03-12-2010 14:00:00 -4.26 C 2.38 g/m*3 -4.26 C 0 km/h
2508 03-12-2010 15:00:00 -4.68 C 2.4 g/m*3 -4.68 C 0 km/h
2509 03-12-2010 16:00:00 -6.18 C 2.37 g/m*3 -6.18 C 0 km/h
2510 03-12-2010 17:00:00 -6.98 C 2.34 g/m*3 -6.98 C 0 km/h
2511 03-12-2010 18:00:00 -7.02 C 2.36 g/m*3 -7.02 C 0 km/h
2512 03-12-2010 19:00:00 -5.74 C 2.63 g/m*3 -5.74 C 0 km/h
2513 03-12-2010 20:00:00 -5.36 C 2.64 g/m*3 -5.36 C 0 km/h
2514 03-12-2010 21:00:00 -5.72 C 2.55 g/m*3 -5.72 C 0 km/h
2515 03-12-2010 22:00:00 -6.78 C 2.39 g/m*3 -6.78 C 0 km/h
2516 03-12-2010 23:00:00 -7.92 C 2.24 g/m*3 -7.92 C 0 km/h
2517 04-12-2010 00:00:00 -8.5 C 2.17 g/m*3 -8.5 C 0 km/h
2518 04-12-2010 01:00:00 -9.1 C 2.06 g/m*3 -9.1 C 0 km/h
2519 04-12-2010 02:00:00 -9.26 C 2.02 g/m*3 -9.26 C 0 km/h
2520 04-12-2010 03:00:00 -9.94 C 1.9 g/m*3 -9.94 C 0 km/h
2521 04-12-2010 04:00:00 -7.96 C 2.24 g/m*3 -7.96 C 0 km/h
2522 04-12-2010 05:00:00 -5.52 C 2.67 g/m*3 -5.52 C 0 km/h
2523 04-12-2010 06:00:00 -4.94 C 2.59 g/m*3 -4.94 C 0 km/h
2524 04-12-2010 07:00:00 -5.14 C 2.58 g/m*3 -5.14 C 0 km/h
2525 04-12-2010 08:00:00 -3.94 C 2.67 g/m*3 -3.94 C 0 km/h
Sensor: Nr:Datum:Temp:Abs-Feuchte:Windchill:Wind:
Aussen-T/F 2526 04-12-2010 09:00:00 -3.1 C 2.58 g/m*3 -3.1 C 0 km/h
2527 04-12-2010 10:00:00 -2.12 C 2.68 g/m*3 -2.12 C 0 km/h
2528 04-12-2010 11:00:00 -1.38 C 2.45 g/m*3 -1.38 C 0 km/h
2529 04-12-2010 12:00:00 -0.86 C 2.46 g/m*3 -0.86 C 0 km/h
2530 04-12-2010 13:00:00 -1.4 C 2.41 g/m*3 -1.4 C 0 km/h
2531 04-12-2010 14:00:00 -1 C 2.47 g/m*3 -1 C 0 km/h
2532 04-12-2010 15:00:00 -0.92 C 2.52 g/m*3 -0.92 C 0 km/h
2533 04-12-2010 16:00:00 -1.22 C 2.64 g/m*3 -1.22 C 0 km/h
2534 04-12-2010 17:00:00 -1.08 C 2.76 g/m*3 -1.08 C 0 km/h
2535 04-12-2010 18:00:00 -0.9 C 2.79 g/m*3 -0.9 C 0 km/h
2536 04-12-2010 19:00:00 -0.92 C 2.79 g/m*3 -0.92 C 0 km/h
2537 04-12-2010 20:00:00 -0.96 C 2.87 g/m*3 -0.96 C 0 km/h
2538 04-12-2010 21:00:00 -1.1 C 3.13 g/m*3 -1.1 C 0 km/h
2539 04-12-2010 22:00:00 -1.18 C 3.46 g/m*3 -1.18 C 0 km/h
2540 04-12-2010 23:00:00 -1.12 C 3.51 g/m*3 -1.12 C 0 km/h
2541 05-12-2010 00:00:00 -0.5 C 3.48 g/m*3 -0.5 C 0 km/h
2542 05-12-2010 01:00:00 0.12 C 3.31 g/m*3 0.12 C 0 km/h
2543 05-12-2010 02:00:00 0.02 C 3.49 g/m*3 0.02 C 0 km/h
2544 05-12-2010 03:00:00 0.12 C 3.53 g/m*3 0.12 C 0 km/h
2545 05-12-2010 04:00:00 0.12 C 3.58 g/m*3 0.12 C 0 km/h
2546 05-12-2010 05:00:00 0.22 C 3.25 g/m*3 0.22 C 0 km/h
2547 05-12-2010 06:00:00 0.22 C 3.02 g/m*3 0.22 C 0 km/h
2548 05-12-2010 07:00:00 -0.08 C 2.91 g/m*3 -0.08 C 0 km/h
2549 05-12-2010 08:00:00 -0.32 C 2.9 g/m*3 -0.32 C 0 km/h
2550 05-12-2010 09:00:00 0.02 C 2.96 g/m*3 0.02 C 0 km/h
Sensor: Nr:Datum:Temp:Abs-Feuchte:Windchill:Wind:
Aussen-T/F 2551 05-12-2010 10:00:00 1.68 C 2.83 g/m*3 1.68 C 0 km/h
2552 05-12-2010 11:00:00 2.54 C 2.77 g/m*3 2.54 C 0 km/h
2553 05-12-2010 12:00:00 3.1 C 2.67 g/m*3 3.1 C 0 km/h
2554 05-12-2010 13:00:00 3.4 C 2.63 g/m*3 3.4 C 0 km/h
2555 05-12-2010 14:00:00 3.24 C 2.6 g/m*3 3.24 C 0 km/h
2556 05-12-2010 15:00:00 2.22 C 3.05 g/m*3 2.22 C 0 km/h
2557 05-12-2010 16:00:00 1.24 C 3.28 g/m*3 1.24 C 0 km/h
2558 05-12-2010 17:00:00 1.38 C 3.4 g/m*3 1.38 C 0 km/h
2559 05-12-2010 18:00:00 0.88 C 3.81 g/m*3 0.88 C 0 km/h
2560 05-12-2010 19:00:00 0.86 C 3.97 g/m*3 0.86 C 0 km/h
2561 05-12-2010 20:00:00 0.62 C 4.08 g/m*3 0.62 C 0 km/h
2562 05-12-2010 21:00:00 0.34 C 4.27 g/m*3 0.34 C 0 km/h
2563 05-12-2010 22:00:00 0.36 C 4.35 g/m*3 0.36 C 0 km/h
2564 05-12-2010 23:00:00 0.2 C 4.33 g/m*3 0.2 C 0 km/h
2565 06-12-2010 00:00:00 0.12 C 4.35 g/m*3 0.12 C 0 km/h
2566 06-12-2010 01:00:00 0.12 C 4.38 g/m*3 0.12 C 0 km/h
2567 06-12-2010 02:00:00 0.1 C 4.39 g/m*3 0.1 C 0 km/h
2568 06-12-2010 03:00:00 0.1 C 4.35 g/m*3 0.1 C 0 km/h
2569 06-12-2010 04:00:00 0.14 C 4.38 g/m*3 0.14 C 0 km/h
2570 06-12-2010 05:00:00 0.04 C 4.33 g/m*3 0.04 C 0 km/h
2571 06-12-2010 06:00:00 0.02 C 4.37 g/m*3 0.02 C 0 km/h
2572 06-12-2010 07:00:00 0 C 4.34 g/m*3 0 C 0 km/h
2573 06-12-2010 08:00:00 0.06 C 4.31 g/m*3 0.06 C 0 km/h
2574 06-12-2010 09:00:00 0.84 C 4.37 g/m*3 0.84 C 0 km/h
2575 06-12-2010 10:00:00 1.38 C 4.04 g/m*3 1.38 C 0 km/h
Sensor: Nr:Datum:Temp:Abs-Feuchte:Windchill:Wind:
Aussen-T/F 2576 06-12-2010 11:00:00 1.88 C 3.94 g/m*3 1.88 C 0 km/h
2577 06-12-2010 12:00:00 2.4 C 3.76 g/m*3 2.4 C 0 km/h
2578 06-12-2010 13:00:00 2.54 C 3.68 g/m*3 2.54 C 0 km/h
2579 06-12-2010 14:00:00 1.9 C 3.59 g/m*3 1.9 C 0 km/h
2580 06-12-2010 15:00:00 0.96 C 3.65 g/m*3 0.96 C 0 km/h
2581 06-12-2010 16:00:00 -0.26 C 3.69 g/m*3 -0.26 C 0 km/h
2582 06-12-2010 17:00:00 -0.68 C 3.73 g/m*3 -0.68 C 0 km/h
2583 06-12-2010 18:00:00 -0.9 C 3.76 g/m*3 -0.9 C 0 km/h
2584 06-12-2010 19:00:00 -0.84 C 3.75 g/m*3 -0.84 C 0 km/h
2585 06-12-2010 20:00:00 -1.14 C 3.67 g/m*3 -1.14 C 0 km/h
2586 06-12-2010 21:00:00 -1.275 C 3.64 g/m*3 -1.27 C 0 km/h
2587 06-12-2010 22:00:00 -1.24 C 3.68 g/m*3 -1.24 C 0 km/h
2588 06-12-2010 23:00:00 -0.68 C 3.74 g/m*3 -0.68 C 0 km/h
2589 07-12-2010 00:00:00 -1.06 C 3.6 g/m*3 -1.06 C 0 km/h
2590 07-12-2010 01:00:00 -1.16 C 3.68 g/m*3 -1.16 C 0 km/h
2591 07-12-2010 02:00:00 -0.56 C 3.77 g/m*3 -0.56 C 0 km/h
2592 07-12-2010 03:00:00 -0.56 C 3.73 g/m*3 -0.56 C 0 km/h
2593 07-12-2010 04:00:00 -0.74 C 3.7 g/m*3 -0.74 C 0 km/h
2594 07-12-2010 05:00:00 -0.94 C 3.68 g/m*3 -0.94 C 0 km/h
2595 07-12-2010 06:00:00 -0.78 C 3.68 g/m*3 -0.78 C 0 km/h
2596 07-12-2010 07:00:00 -1 C 3.57 g/m*3 -1 C 0 km/h
2597 07-12-2010 08:00:00 -0.84 C 3.6 g/m*3 -0.84 C 0 km/h
2598 07-12-2010 09:00:00 -0.4 C 3.61 g/m*3 -0.4 C 0 km/h
2599 07-12-2010 10:00:00 0.18 C 3.6 g/m*3 0.18 C 0 km/h
2600 07-12-2010 11:00:00 0.56 C 3.61 g/m*3 0.56 C 0 km/h
Sensor: Nr:Datum:Temp:Abs-Feuchte:Windchill:Wind:
Aussen-T/F 2601 07-12-2010 12:00:00 1.12 C 3.63 g/m*3 1.12 C 0 km/h
2602 07-12-2010 13:00:00 1.44 C 3.61 g/m*3 1.44 C 0 km/h
2603 07-12-2010 14:00:00 1.06 C 3.67 g/m*3 1.06 C 0 km/h
2604 07-12-2010 15:00:00 0.4 C 3.81 g/m*3 0.4 C 0 km/h
2605 07-12-2010 16:00:00 -0.22 C 4.06 g/m*3 -0.22 C 0 km/h
2606 07-12-2010 17:00:00 -0.3 C 4.2 g/m*3 -0.3 C 0 km/h
2607 07-12-2010 18:00:00 -0.26 C 4.26 g/m*3 -0.26 C 0 km/h
2608 07-12-2010 19:00:00 -0.2 C 4.31 g/m*3 -0.2 C 0 km/h
2609 07-12-2010 20:00:00 -0.16 C 4.36 g/m*3 -0.16 C 0 km/h
2610 07-12-2010 21:00:00 -0.2 C 4.36 g/m*3 -0.2 C 0 km/h
2611 07-12-2010 22:00:00 -0.18 C 4.4 g/m*3 -0.18 C 0 km/h
2612 07-12-2010 23:00:00 -0.2 C 4.4 g/m*3 -0.2 C 0 km/h
2613 08-12-2010 00:00:00 -0.2 C 4.4 g/m*3 -0.2 C 0 km/h
2614 08-12-2010 01:00:00 -0.2 C 4.4 g/m*3 -0.2 C 0 km/h
2615 08-12-2010 02:00:00 -0.16 C 4.41 g/m*3 -0.16 C 0 km/h
2616 08-12-2010 03:00:00 -0.18 C 4.4 g/m*3 -0.18 C 0 km/h
2617 08-12-2010 04:00:00 -0.08 C 4.43 g/m*3 -0.08 C 0 km/h
2618 08-12-2010 05:00:00 -0.08 C 4.46 g/m*3 -0.08 C 0 km/h
2619 08-12-2010 06:00:00 -0.06 C 4.49 g/m*3 -0.06 C 0 km/h
2620 08-12-2010 07:00:00 -0.02 C 4.5 g/m*3 -0.02 C 0 km/h
2621 08-12-2010 08:00:00 0 C 4.51 g/m*3 0 C 0 km/h
2622 08-12-2010 09:00:00 0.08 C 4.53 g/m*3 0.08 C 0 km/h
2623 08-12-2010 10:00:00 0.18 C 4.56 g/m*3 0.18 C 0 km/h
2624 08-12-2010 11:00:00 0.34 C 4.63 g/m*3 0.34 C 0 km/h
2625 08-12-2010 12:00:00 0.56 C 4.67 g/m*3 0.56 C 0 km/h
Sensor: Nr:Datum:Temp:Abs-Feuchte:Windchill:Wind:
Aussen-T/F 2626 08-12-2010 13:00:00 0.62 C 4.58 g/m*3 0.62 C 0 km/h
2627 08-12-2010 14:00:00 0.42 C 4.44 g/m*3 0.42 C 0 km/h
2628 08-12-2010 15:00:00 -0.08 C 4.29 g/m*3 -0.08 C 0 km/h
2629 08-12-2010 16:00:00 -0.3 C 4.26 g/m*3 -0.3 C 0 km/h
2630 08-12-2010 17:00:00 -0.36 C 4.24 g/m*3 -0.36 C 0 km/h
2631 08-12-2010 18:00:00 -0.74 C 4.1 g/m*3 -0.74 C 0 km/h
2632 08-12-2010 19:00:00 -0.92 C 4.05 g/m*3 -0.92 C 0 km/h
2633 08-12-2010 20:00:00 -1.06 C 4.02 g/m*3 -1.06 C 0 km/h
2634 08-12-2010 21:00:00 -1.24 C 3.94 g/m*3 -1.24 C 0 km/h
2635 08-12-2010 22:00:00 -1.44 C 3.82 g/m*3 -1.44 C 0 km/h
2636 08-12-2010 23:00:00 -1.3 C 3.74 g/m*3 -1.3 C 0 km/h
2637 09-12-2010 00:00:00 -1.32 C 3.64 g/m*3 -1.32 C 0 km/h
2638 09-12-2010 01:00:00 -1.52 C 3.56 g/m*3 -1.52 C 0 km/h
2639 09-12-2010 02:00:00 -1.74 C 3.55 g/m*3 -1.74 C 0 km/h
2640 09-12-2010 03:00:00 -1.7 C 3.69 g/m*3 -1.7 C 0 km/h
2641 09-12-2010 04:00:00 -1.62 C 3.72 g/m*3 -1.62 C 0 km/h
2642 09-12-2010 05:00:00 -1.04 C 3.84 g/m*3 -1.04 C 0 km/h
2643 09-12-2010 06:00:00 -0.42 C 3.9 g/m*3 -0.42 C 0 km/h
2644 09-12-2010 07:00:00 -0.28 C 3.95 g/m*3 -0.28 C 0 km/h
2645 09-12-2010 08:00:00 -0.38 C 3.91 g/m*3 -0.38 C 0 km/h
2646 09-12-2010 09:00:00 -0.08 C 3.93 g/m*3 -0.08 C 0 km/h
2647 09-12-2010 10:00:00 0.32 C 4 g/m*3 0.32 C 0 km/h
2648 09-12-2010 11:00:00 0.8 C 4.06 g/m*3 0.8 C 0 km/h
2649 09-12-2010 12:00:00 2.18 C 4.07 g/m*3 2.18 C 0 km/h
2650 09-12-2010 13:00:00 1.74 C 4.11 g/m*3 1.74 C 0 km/h
Sensor: Nr:Datum:Temp:Abs-Feuchte:Windchill:Wind:
Aussen-T/F 2651 09-12-2010 14:00:00 2.12 C 3.92 g/m*3 2.12 C 0 km/h
2652 09-12-2010 15:00:00 1.84 C 3.75 g/m*3 1.84 C 0 km/h
2653 09-12-2010 16:00:00 1.52 C 3.66 g/m*3 1.52 C 0 km/h
2654 09-12-2010 17:00:00 1.5 C 3.89 g/m*3 1.5 C 0 km/h
2655 09-12-2010 18:00:00 1.68 C 4.03 g/m*3 1.68 C 0 km/h
2656 09-12-2010 19:00:00 2.16 C 3.9 g/m*3 2.16 C 0 km/h
2657 09-12-2010 20:00:00 2.44 C 4 g/m*3 2.44 C 0 km/h
2658 09-12-2010 21:00:00 2.58 C 4.06 g/m*3 2.58 C 0 km/h
2659 09-12-2010 22:00:00 2.44 C 4.16 g/m*3 2.44 C 0 km/h
2660 09-12-2010 23:00:00 1.5 C 4.43 g/m*3 1.5 C 0 km/h
2661 10-12-2010 00:00:00 1.9 C 4.42 g/m*3 1.9 C 0 km/h
2662 10-12-2010 01:00:00 2.04 C 4.36 g/m*3 2.04 C 0 km/h
2663 10-12-2010 02:00:00 1.7 C 4.26 g/m*3 1.7 C 0 km/h
2664 10-12-2010 03:00:00 1.24 C 4.52 g/m*3 1.24 C 0 km/h
2665 10-12-2010 04:00:00 1.7 C 4.79 g/m*3 1.7 C 0 km/h
2666 10-12-2010 05:00:00 2.52 C 4.87 g/m*3 2.52 C 0 km/h
2667 10-12-2010 06:00:00 1.84 C 4.73 g/m*3 1.84 C 0 km/h
2668 10-12-2010 07:00:00 0.76 C 4.53 g/m*3 0.76 C 0 km/h
2669 10-12-2010 08:00:00 -0.32 C 4.28 g/m*3 -0.32 C 0 km/h
2670 10-12-2010 09:00:00 -0.4 C 4.3 g/m*3 -0.4 C 0 km/h
2671 10-12-2010 10:00:00 0.06 C 4.45 g/m*3 0.06 C 0 km/h
2672 10-12-2010 11:00:00 1.38 C 4.82 g/m*3 1.38 C 0 km/h
2673 10-12-2010 12:00:00 2.24 C 4.95 g/m*3 2.24 C 0 km/h
2674 10-12-2010 13:00:00 2.96 C 4.9 g/m*3 2.96 C 0 km/h
2675 10-12-2010 14:00:00 2.82 C 4.65 g/m*3 2.82 C 0 km/h
Sensor: Nr:Datum:Temp:Abs-Feuchte:Windchill:Wind:
Aussen-T/F 2676 10-12-2010 15:00:00 1.78 C 4.64 g/m*3 1.78 C 0 km/h
2677 10-12-2010 16:00:00 1.54 C 4.8 g/m*3 1.54 C 0 km/h
2678 10-12-2010 17:00:00 1.84 C 4.95 g/m*3 1.84 C 0 km/h
2679 10-12-2010 18:00:00 1.86 C 4.93 g/m*3 1.86 C 0 km/h
2680 10-12-2010 19:00:00 2.28 C 4.97 g/m*3 2.28 C 0 km/h
2681 10-12-2010 20:00:00 2.6 C 4.93 g/m*3 2.6 C 0 km/h
2682 10-12-2010 21:00:00 2.5 C 4.85 g/m*3 2.5 C 0 km/h
2683 10-12-2010 22:00:00 2.52 C 4.87 g/m*3 2.52 C 0 km/h
2684 10-12-2010 23:00:00 2.24 C 4.86 g/m*3 2.24 C 0 km/h
2685 11-12-2010 00:00:00 2.18 C 4.97 g/m*3 2.18 C 0 km/h
2686 11-12-2010 01:00:00 2.46 C 5.08 g/m*3 2.46 C 0 km/h
2687 11-12-2010 02:00:00 2.72 C 5.13 g/m*3 2.72 C 0 km/h
2688 11-12-2010 03:00:00 2.54 C 5.1 g/m*3 2.54 C 0 km/h
2689 11-12-2010 04:00:00 3.26 C 5.24 g/m*3 3.26 C 0 km/h
2690 11-12-2010 05:00:00 3.86 C 5.19 g/m*3 3.86 C 0 km/h
2691 11-12-2010 06:00:00 3.36 C 5.15 g/m*3 3.36 C 0 km/h
2692 11-12-2010 07:00:00 4.14 C 5.21 g/m*3 4.14 C 0 km/h
2693 11-12-2010 08:00:00 4.86 C 5.01 g/m*3 4.86 C 0 km/h
2694 11-12-2010 09:00:00 4.16 C 5.04 g/m*3 4.16 C 0 km/h
2695 11-12-2010 10:00:00 3.9 C 5.38 g/m*3 3.9 C 0 km/h
2696 11-12-2010 11:00:00 4.3 C 5.37 g/m*3 4.3 C 0 km/h
2697 11-12-2010 12:00:00 4.54 C 5.56 g/m*3 4.54 C 0 km/h
2698 11-12-2010 13:00:00 4.86 C 5.39 g/m*3 4.86 C 0 km/h
2699 11-12-2010 14:00:00 4.9 C 5.31 g/m*3 4.9 C 0 km/h
2700 11-12-2010 15:00:00 5.06 C 5.18 g/m*3 5.06 C 0 km/h
Sensor: Nr:Datum:Temp:Abs-Feuchte:Windchill:Wind:
Aussen-T/F 2701 11-12-2010 16:00:00 4.9 C 5.24 g/m*3 4.9 C 0 km/h
2702 11-12-2010 17:00:00 5.16 C 5.22 g/m*3 5.16 C 0 km/h
2703 11-12-2010 18:00:00 4.22 C 5.21 g/m*3 4.22 C 0 km/h
2704 11-12-2010 19:00:00 4.26 C 5.2 g/m*3 4.26 C 0 km/h
2705 11-12-2010 20:00:00 4.82 C 5.01 g/m*3 4.82 C 0 km/h
2706 11-12-2010 21:00:00 4.4 C 5.04 g/m*3 4.4 C 0 km/h
2707 11-12-2010 22:00:00 4.3 C 5.03 g/m*3 4.3 C 0 km/h
2708 11-12-2010 23:00:00 4.66 C 4.89 g/m*3 4.66 C 0 km/h
2709 12-12-2010 00:00:00 4.26 C 4.97 g/m*3 4.26 C 0 km/h
2710 12-12-2010 01:00:00 4.84 C 4.84 g/m*3 4.84 C 0 km/h
2711 12-12-2010 02:00:00 4.82 C 4.58 g/m*3 4.82 C 0 km/h
2712 12-12-2010 03:00:00 4.2 C 4.66 g/m*3 4.2 C 0 km/h
2713 12-12-2010 04:00:00 3.68 C 5.18 g/m*3 3.68 C 0 km/h
2714 12-12-2010 05:00:00 3.44 C 5.11 g/m*3 3.44 C 0 km/h
2715 12-12-2010 06:00:00 3.04 C 5.07 g/m*3 3.04 C 0 km/h
2716 12-12-2010 07:00:00 3.86 C 4.93 g/m*3 3.86 C 0 km/h
2717 12-12-2010 08:00:00 3.62 C 4.87 g/m*3 3.62 C 0 km/h
2718 12-12-2010 09:00:00 3.7 C 4.96 g/m*3 3.7 C 0 km/h
2719 12-12-2010 10:00:00 3.86 C 5.03 g/m*3 3.86 C 0 km/h
2720 12-12-2010 11:00:00 4.12 C 5.14 g/m*3 4.12 C 0 km/h
2721 12-12-2010 12:00:00 4.5 C 5.34 g/m*3 4.5 C 0 km/h
2722 12-12-2010 13:00:00 4.82 C 5.17 g/m*3 4.82 C 0 km/h
2723 12-12-2010 14:00:00 3.46 C 4.95 g/m*3 3.46 C 0 km/h
2724 12-12-2010 15:00:00 3.1 C 5.21 g/m*3 3.1 C 0 km/h
2725 12-12-2010 16:00:00 2.7 C 5.12 g/m*3 2.7 C 0 km/h
Sensor: Nr:Datum:Temp:Abs-Feuchte:Windchill:Wind:
Aussen-T/F 2726 12-12-2010 17:00:00 2.48 C 4.62 g/m*3 2.48 C 0 km/h
2727 12-12-2010 18:00:00 1.86 C 4.15 g/m*3 1.86 C 0 km/h
2728 12-12-2010 19:00:00 1.38 C 3.91 g/m*3 1.38 C 0 km/h
2729 12-12-2010 20:00:00 1.18 C 3.56 g/m*3 1.18 C 0 km/h
2730 12-12-2010 21:00:00 0.76 C 3.35 g/m*3 0.76 C 0 km/h
2731 12-12-2010 22:00:00 0.4 C 3.18 g/m*3 0.4 C 0 km/h
2732 12-12-2010 23:00:00 -0.04 C 2.73 g/m*3 -0.04 C 0 km/h
2733 13-12-2010 00:00:00 -0.52 C 2.5 g/m*3 -0.52 C 0 km/h
2734 13-12-2010 01:00:00 -0.84 C 2.45 g/m*3 -0.84 C 0 km/h
2735 13-12-2010 02:00:00 -2.28 C 2.3 g/m*3 -2.28 C 0 km/h
2736 13-12-2010 03:00:00 -3.5 C 2.27 g/m*3 -3.5 C 0 km/h
2737 13-12-2010 04:00:00 -4.2 C 2.29 g/m*3 -4.2 C 0 km/h
2738 13-12-2010 05:00:00 -5.8 C 2.22 g/m*3 -5.8 C 0 km/h
2739 13-12-2010 06:00:00 -6.94 C 2.21 g/m*3 -6.94 C 0 km/h
2740 13-12-2010 07:00:00 -7.2 C 2.22 g/m*3 -7.2 C 0 km/h
2741 13-12-2010 08:00:00 -7.18 C 2.27 g/m*3 -7.18 C 0 km/h
2742 13-12-2010 09:00:00 -7.12 C 2.29 g/m*3 -7.12 C 0 km/h
2743 13-12-2010 10:00:00 -6.62 C 2.4 g/m*3 -6.62 C 0 km/h
2744 13-12-2010 11:00:00 -4 C 2.63 g/m*3 -4 C 0 km/h
2745 13-12-2010 12:00:00 -2.78 C 2.52 g/m*3 -2.78 C 0 km/h
2746 13-12-2010 13:00:00 -2.32 C 2.5 g/m*3 -2.32 C 0 km/h
2747 13-12-2010 14:00:00 -2.2 C 2.39 g/m*3 -2.2 C 0 km/h
2748 13-12-2010 15:00:00 -3.66 C 2.47 g/m*3 -3.66 C 0 km/h
2749 13-12-2010 16:00:00 -4.98 C 2.58 g/m*3 -4.98 C 0 km/h
2750 13-12-2010 17:00:00 -5.88 C 2.5 g/m*3 -5.88 C 0 km/h
Sensor: Nr:Datum:Temp:Abs-Feuchte:Windchill:Wind:
Aussen-T/F 2751 13-12-2010 18:00:00 -6.2 C 2.48 g/m*3 -6.2 C 0 km/h
2752 13-12-2010 19:00:00 -5.44 C 2.72 g/m*3 -5.44 C 0 km/h
2753 13-12-2010 20:00:00 -4.86 C 2.8 g/m*3 -4.86 C 0 km/h
2754 13-12-2010 21:00:00 -4.22 C 2.82 g/m*3 -4.22 C 0 km/h
2755 13-12-2010 22:00:00 -3.92 C 2.86 g/m*3 -3.92 C 0 km/h
2756 13-12-2010 23:00:00 -4.1 C 3 g/m*3 -4.1 C 0 km/h
2757 14-12-2010 00:00:00 -4.1 C 3.02 g/m*3 -4.1 C 0 km/h
2758 14-12-2010 01:00:00 -4.06 C 3.03 g/m*3 -4.06 C 0 km/h
2759 14-12-2010 02:00:00 -3.84 C 3.07 g/m*3 -3.84 C 0 km/h
2760 14-12-2010 03:00:00 -3.66 C 3.11 g/m*3 -3.66 C 0 km/h
2761 14-12-2010 04:00:00 -3.62 C 3.09 g/m*3 -3.62 C 0 km/h
2762 14-12-2010 05:00:00 -3.8 C 3.04 g/m*3 -3.8 C 0 km/h
2763 14-12-2010 06:00:00 -4.7 C 2.87 g/m*3 -4.7 C 0 km/h
2764 14-12-2010 07:00:00 -6.22 C 2.59 g/m*3 -6.22 C 0 km/h
2765 14-12-2010 08:00:00 -6.38 C 2.62 g/m*3 -6.38 C 0 km/h
2766 14-12-2010 09:00:00 -6 C 2.69 g/m*3 -6 C 0 km/h
2767 14-12-2010 10:00:00 -4.06 C 3 g/m*3 -4.06 C 0 km/h
2768 14-12-2010 11:00:00 -3.24 C 2.75 g/m*3 -3.24 C 0 km/h
2769 14-12-2010 12:00:00 -2.42 C 2.66 g/m*3 -2.42 C 0 km/h
2770 14-12-2010 13:00:00 -2.2 C 2.64 g/m*3 -2.2 C 0 km/h
2771 14-12-2010 14:00:00 -2.44 C 2.66 g/m*3 -2.44 C 0 km/h
2772 14-12-2010 15:00:00 -2.76 C 2.7 g/m*3 -2.76 C 0 km/h
2773 14-12-2010 16:00:00 -2.9 C 2.8 g/m*3 -2.9 C 0 km/h
2774 14-12-2010 17:00:00 -2.98 C 2.91 g/m*3 -2.98 C 0 km/h
2775 14-12-2010 18:00:00 -3.06 C 2.78 g/m*3 -3.06 C 0 km/h
Sensor: Nr:Datum:Temp:Abs-Feuchte:Windchill:Wind:
Aussen-T/F 2776 14-12-2010 19:00:00 -2.82 C 2.84 g/m*3 -2.82 C 0 km/h
2777 14-12-2010 20:00:00 -3.04 C 2.74 g/m*3 -3.04 C 0 km/h
2778 14-12-2010 21:00:00 -3.12 C 2.64 g/m*3 -3.12 C 0 km/h
2779 14-12-2010 22:00:00 -3.16 C 2.58 g/m*3 -3.16 C 0 km/h
2780 14-12-2010 23:00:00 -3.22 C 2.51 g/m*3 -3.22 C 0 km/h
2781 15-12-2010 00:00:00 -3.3 C 2.5 g/m*3 -3.3 C 0 km/h
2782 15-12-2010 01:00:00 -3.26 C 2.57 g/m*3 -3.26 C 0 km/h
2783 15-12-2010 02:00:00 -4.16 C 2.54 g/m*3 -4.16 C 0 km/h
2784 15-12-2010 03:00:00 -4.9 C 2.5 g/m*3 -4.9 C 0 km/h
2785 15-12-2010 04:00:00 -4.86 C 2.54 g/m*3 -4.86 C 0 km/h
2786 15-12-2010 05:00:00 -4.72 C 2.63 g/m*3 -4.72 C 0 km/h
2787 15-12-2010 06:00:00 -3.78 C 2.71 g/m*3 -3.78 C 0 km/h
2788 15-12-2010 07:00:00 -3.42 C 2.81 g/m*3 -3.42 C 0 km/h
2789 15-12-2010 08:00:00 -3.3 C 2.88 g/m*3 -3.3 C 0 km/h
2790 15-12-2010 09:00:00 -2.56 C 3.02 g/m*3 -2.56 C 0 km/h
2791 15-12-2010 10:00:00 -1.76 C 3.22 g/m*3 -1.76 C 0 km/h
2792 15-12-2010 11:00:00 -0.68 C 3.51 g/m*3 -0.68 C 0 km/h
2793 15-12-2010 12:00:00 -0.48 C 3.47 g/m*3 -0.48 C 0 km/h
2794 15-12-2010 13:00:00 -0.38 C 3.56 g/m*3 -0.38 C 0 km/h
2795 15-12-2010 14:00:00 -0.12 C 3.36 g/m*3 -0.12 C 0 km/h
2796 15-12-2010 15:00:00 -1.44 C 2.8 g/m*3 -1.44 C 0 km/h
2797 15-12-2010 16:00:00 -3.2 C 2.7 g/m*3 -3.2 C 0 km/h
2798 15-12-2010 17:00:00 -4.34 C 2.74 g/m*3 -4.34 C 0 km/h
2799 15-12-2010 18:00:00 -4.86 C 2.77 g/m*3 -4.86 C 0 km/h
2800 15-12-2010 19:00:00 -4.42 C 2.86 g/m*3 -4.42 C 0 km/h
Sensor: Nr:Datum:Temp:Abs-Feuchte:Windchill:Wind:
Aussen-T/F 2801 15-12-2010 20:00:00 -3.62 C 2.83 g/m*3 -3.62 C 0 km/h
2802 15-12-2010 21:00:00 -3.18 C 2.77 g/m*3 -3.18 C 0 km/h
2803 15-12-2010 22:00:00 -3.78 C 2.76 g/m*3 -3.78 C 0 km/h
2804 15-12-2010 23:00:00 -4.54 C 2.76 g/m*3 -4.54 C 0 km/h
2805 16-12-2010 00:00:00 -4.68 C 2.85 g/m*3 -4.68 C 0 km/h
2806 16-12-2010 01:00:00 -4.84 C 2.87 g/m*3 -4.84 C 0 km/h
2807 16-12-2010 02:00:00 -5.3 C 2.73 g/m*3 -5.3 C 0 km/h
2808 16-12-2010 03:00:00 -5.36 C 2.75 g/m*3 -5.36 C 0 km/h
2809 16-12-2010 04:00:00 -5.58 C 2.66 g/m*3 -5.58 C 0 km/h
2810 16-12-2010 05:00:00 -6.4 C 2.41 g/m*3 -6.4 C 0 km/h
2811 16-12-2010 06:00:00 -7.54 C 2.25 g/m*3 -7.54 C 0 km/h
2812 16-12-2010 07:00:00 -8.28 C 2.11 g/m*3 -8.28 C 0 km/h
2813 16-12-2010 08:00:00 -7.86 C 2.18 g/m*3 -7.86 C 0 km/h
2814 16-12-2010 09:00:00 -6.6 C 2.26 g/m*3 -6.6 C 0 km/h
2815 16-12-2010 10:00:00 -4.84 C 2.47 g/m*3 -4.84 C 0 km/h
2816 16-12-2010 11:00:00 -3.42 C 2.65 g/m*3 -3.42 C 0 km/h
2817 16-12-2010 12:00:00 -2.84 C 2.8 g/m*3 -2.84 C 0 km/h
2818 16-12-2010 13:00:00 -2.12 C 2.99 g/m*3 -2.12 C 0 km/h
2819 16-12-2010 14:00:00 -1.72 C 3.2 g/m*3 -1.72 C 0 km/h
2820 16-12-2010 15:00:00 -1.4 C 3.45 g/m*3 -1.4 C 0 km/h
2821 16-12-2010 16:00:00 -1.3 C 3.43 g/m*3 -1.3 C 0 km/h
2822 16-12-2010 17:00:00 -1.26 C 3.47 g/m*3 -1.26 C 0 km/h
2823 16-12-2010 18:00:00 -0.7 C 3.61 g/m*3 -0.7 C 0 km/h
2824 16-12-2010 19:00:00 -0.28 C 3.67 g/m*3 -0.28 C 0 km/h
2825 16-12-2010 20:00:00 0.02 C 3.69 g/m*3 0.02 C 0 km/h
Sensor: Nr:Datum:Temp:Abs-Feuchte:Windchill:Wind:
Aussen-T/F 2826 16-12-2010 21:00:00 -0.12 C 3.79 g/m*3 -0.12 C 0 km/h
2827 16-12-2010 22:00:00 -0.34 C 3.88 g/m*3 -0.34 C 0 km/h
2828 16-12-2010 23:00:00 -0.46 C 3.84 g/m*3 -0.46 C 0 km/h
2829 17-12-2010 00:00:00 -0.28 C 3.85 g/m*3 -0.28 C 0 km/h
2830 17-12-2010 01:00:00 -0.34 C 3.88 g/m*3 -0.34 C 0 km/h
2831 17-12-2010 02:00:00 -0.58 C 3.62 g/m*3 -0.58 C 0 km/h
2832 17-12-2010 03:00:00 -1.2 C 3.36 g/m*3 -1.2 C 0 km/h
2833 17-12-2010 04:00:00 -1.28 C 3.16 g/m*3 -1.28 C 0 km/h
2834 17-12-2010 05:00:00 -1.62 C 3.26 g/m*3 -1.62 C 0 km/h
2835 17-12-2010 06:00:00 -2.24 C 2.97 g/m*3 -2.24 C 0 km/h
2836 17-12-2010 07:00:00 -2.28 C 2.65 g/m*3 -2.28 C 0 km/h
2837 17-12-2010 08:00:00 -2.22 C 3 g/m*3 -2.22 C 0 km/h
2838 17-12-2010 09:00:00 -1.92 C 3.01 g/m*3 -1.92 C 0 km/h
2839 17-12-2010 10:00:00 -1.66 C 2.95 g/m*3 -1.66 C 0 km/h
2840 17-12-2010 11:00:00 -1.2 C 2.74 g/m*3 -1.2 C 0 km/h
2841 17-12-2010 12:00:00 -1.14 C 2.52 g/m*3 -1.14 C 0 km/h
2842 17-12-2010 13:00:00 -1.22 C 2.43 g/m*3 -1.22 C 0 km/h
2843 17-12-2010 14:00:00 -1.4 C 2.66 g/m*3 -1.4 C 0 km/h
2844 17-12-2010 15:00:00 -1.82 C 2.98 g/m*3 -1.82 C 0 km/h
2845 17-12-2010 16:00:00 -2.08 C 3 g/m*3 -2.08 C 0 km/h
2846 17-12-2010 17:00:00 -4.06 C 2.8 g/m*3 -4.06 C 0 km/h
2847 17-12-2010 18:00:00 -5.22 C 2.69 g/m*3 -5.22 C 0 km/h
2848 17-12-2010 19:00:00 -6.48 C 2.51 g/m*3 -6.48 C 0 km/h
2849 17-12-2010 20:00:00 -6.58 C 2.52 g/m*3 -6.58 C 0 km/h
2850 17-12-2010 21:00:00 -6.94 C 2.44 g/m*3 -6.94 C 0 km/h
Sensor: Nr:Datum:Temp:Abs-Feuchte:Windchill:Wind:
Aussen-T/F 2851 17-12-2010 22:00:00 -6.92 C 2.44 g/m*3 -6.92 C 0 km/h
2852 17-12-2010 23:00:00 -5.9 C 2.66 g/m*3 -5.9 C 0 km/h
2853 18-12-2010 00:00:00 -4.74 C 2.93 g/m*3 -4.74 C 0 km/h
2854 18-12-2010 01:00:00 -4.44 C 2.9 g/m*3 -4.44 C 0 km/h
2855 18-12-2010 02:00:00 -5.28 C 2.7 g/m*3 -5.28 C 0 km/h
2856 18-12-2010 03:00:00 -4.36 C 2.87 g/m*3 -4.36 C 0 km/h
2857 18-12-2010 04:00:00 -4.36 C 2.94 g/m*3 -4.36 C 0 km/h
2858 18-12-2010 05:00:00 -4.44 C 2.98 g/m*3 -4.44 C 0 km/h
2859 18-12-2010 06:00:00 -4.34 C 3.01 g/m*3 -4.34 C 0 km/h
2860 18-12-2010 07:00:00 -5.26 C 2.81 g/m*3 -5.26 C 0 km/h
2861 18-12-2010 08:00:00 -5.34 C 2.8 g/m*3 -5.34 C 0 km/h
2862 18-12-2010 09:00:00 -4.84 C 2.73 g/m*3 -4.84 C 0 km/h
2863 18-12-2010 10:00:00 -3.82 C 2.68 g/m*3 -3.82 C 0 km/h
2864 18-12-2010 11:00:00 -3.48 C 2.59 g/m*3 -3.48 C 0 km/h
2865 18-12-2010 12:00:00 -3.28 C 2.46 g/m*3 -3.28 C 0 km/h
2866 18-12-2010 13:00:00 -2.96 C 2.36 g/m*3 -2.96 C 0 km/h
2867 18-12-2010 14:00:00 -3.84 C 2.29 g/m*3 -3.84 C 0 km/h
2868 18-12-2010 15:00:00 -5.48 C 2.31 g/m*3 -5.48 C 0 km/h
2869 18-12-2010 16:00:00 -7.06 C 2.27 g/m*3 -7.06 C 0 km/h
2870 18-12-2010 17:00:00 -7.56 C 2.29 g/m*3 -7.56 C 0 km/h
2871 18-12-2010 18:00:00 -6.74 C 2.48 g/m*3 -6.74 C 0 km/h
2872 18-12-2010 19:00:00 -5.34 C 2.79 g/m*3 -5.34 C 0 km/h
2873 18-12-2010 20:00:00 -4.36 C 2.97 g/m*3 -4.36 C 0 km/h
2874 18-12-2010 21:00:00 -3.98 C 3.05 g/m*3 -3.98 C 0 km/h
2875 18-12-2010 22:00:00 -3.42 C 3.2 g/m*3 -3.42 C 0 km/h
Sensor: Nr:Datum:Temp:Abs-Feuchte:Windchill:Wind:
Aussen-T/F 2876 18-12-2010 23:00:00 -3.08 C 3.28 g/m*3 -3.08 C 0 km/h
2877 19-12-2010 00:00:00 -2.56 C 3.41 g/m*3 -2.56 C 0 km/h
2878 19-12-2010 01:00:00 -2.44 C 3.53 g/m*3 -2.44 C 0 km/h
2879 19-12-2010 02:00:00 -2.5 C 3.54 g/m*3 -2.5 C 0 km/h
2880 19-12-2010 03:00:00 -2.7 C 3.49 g/m*3 -2.7 C 0 km/h
2881 19-12-2010 04:00:00 -2.46 C 3.55 g/m*3 -2.46 C 0 km/h
2882 19-12-2010 05:00:00 -1.02 C 3.67 g/m*3 -1.02 C 0 km/h
2883 19-12-2010 06:00:00 -1.64 C 3.24 g/m*3 -1.64 C 0 km/h
2884 19-12-2010 07:00:00 -2.58 C 3.19 g/m*3 -2.58 C 0 km/h
2885 19-12-2010 08:00:00 -2.5 C 3.2 g/m*3 -2.5 C 0 km/h
2886 19-12-2010 09:00:00 -2.04 C 3.37 g/m*3 -2.04 C 0 km/h
2887 19-12-2010 10:00:00 -0.94 C 3.41 g/m*3 -0.94 C 0 km/h
2888 19-12-2010 11:00:00 -0.38 C 3.56 g/m*3 -0.38 C 0 km/h
2889 19-12-2010 12:00:00 0.3 C 3.6 g/m*3 0.3 C 0 km/h
2890 19-12-2010 13:00:00 0.14 C 3.71 g/m*3 0.14 C 0 km/h
2891 19-12-2010 14:00:00 -0.18 C 3.94 g/m*3 -0.18 C 0 km/h
2892 19-12-2010 15:00:00 -0.4 C 4.08 g/m*3 -0.4 C 0 km/h
2893 19-12-2010 16:00:00 -0.3 C 4.23 g/m*3 -0.3 C 0 km/h
2894 19-12-2010 17:00:00 -0.2 C 4.33 g/m*3 -0.2 C 0 km/h
2895 19-12-2010 18:00:00 -0.18 C 4.36 g/m*3 -0.18 C 0 km/h
2896 19-12-2010 19:00:00 -0.04 C 4.45 g/m*3 -0.04 C 0 km/h
2897 19-12-2010 20:00:00 0.08 C 4.49 g/m*3 0.08 C 0 km/h
2898 19-12-2010 21:00:00 1.1 C 4.84 g/m*3 1.1 C 0 km/h
2899 19-12-2010 22:00:00 1.92 C 5.06 g/m*3 1.92 C 0 km/h
2900 19-12-2010 23:00:00 4.42 C 5.05 g/m*3 4.42 C 0 km/h
Sensor: Nr:Datum:Temp:Abs-Feuchte:Windchill:Wind:
Aussen-T/F 2901 20-12-2010 00:00:00 4.02 C 4.62 g/m*3 4.02 C 0 km/h
2902 20-12-2010 01:00:00 1.68 C 4.43 g/m*3 1.68 C 0 km/h
2903 20-12-2010 02:00:00 0.42 C 3.7 g/m*3 0.42 C 0 km/h
2904 20-12-2010 03:00:00 -0.08 C 3.63 g/m*3 -0.08 C 0 km/h
2905 20-12-2010 04:00:00 -0.44 C 3.67 g/m*3 -0.44 C 0 km/h
2906 20-12-2010 05:00:00 -1.02 C 3.56 g/m*3 -1.02 C 0 km/h
2907 20-12-2010 06:00:00 -1.66 C 3.46 g/m*3 -1.66 C 0 km/h
2908 20-12-2010 07:00:00 -2.6 C 3.38 g/m*3 -2.6 C 0 km/h
2909 20-12-2010 08:00:00 -2.42 C 3.54 g/m*3 -2.42 C 0 km/h
2910 20-12-2010 09:00:00 -1.8 C 3.59 g/m*3 -1.8 C 0 km/h
2911 20-12-2010 10:00:00 -1.22 C 3.33 g/m*3 -1.22 C 0 km/h
2912 20-12-2010 11:00:00 -0.8 C 3.28 g/m*3 -0.8 C 0 km/h
2913 20-12-2010 12:00:00 -1.06 C 3.27 g/m*3 -1.06 C 0 km/h
2914 20-12-2010 13:00:00 -0.92 C 3.28 g/m*3 -0.92 C 0 km/h
2915 20-12-2010 14:00:00 -0.98 C 3.26 g/m*3 -0.98 C 0 km/h
2916 20-12-2010 15:00:00 -1.08 C 3.26 g/m*3 -1.08 C 0 km/h
2917 20-12-2010 16:00:00 -3.04 C 3.05 g/m*3 -3.04 C 0 km/h
2918 20-12-2010 17:00:00 -3.52 C 3.23 g/m*3 -3.52 C 0 km/h
2919 20-12-2010 18:00:00 -3.04 C 3.42 g/m*3 -3.04 C 0 km/h
2920 20-12-2010 19:00:00 -3 C 3.45 g/m*3 -3 C 0 km/h
2921 20-12-2010 20:00:00 -2.92 C 3.48 g/m*3 -2.92 C 0 km/h
2922 20-12-2010 21:00:00 -3.64 C 3.26 g/m*3 -3.64 C 0 km/h
2923 20-12-2010 22:00:00 -4.3 C 3.11 g/m*3 -4.3 C 0 km/h
2924 20-12-2010 23:00:00 -3.46 C 3.37 g/m*3 -3.46 C 0 km/h
2925 21-12-2010 00:00:00 -3.62 C 3.33 g/m*3 -3.62 C 0 km/h
Sensor: Nr:Datum:Temp:Abs-Feuchte:Windchill:Wind:
Aussen-T/F 2926 21-12-2010 01:00:00 -2.88 C 3.53 g/m*3 -2.88 C 0 km/h
2927 21-12-2010 02:00:00 -2.6 C 3.6 g/m*3 -2.6 C 0 km/h
2928 21-12-2010 03:00:00 -2.54 C 3.57 g/m*3 -2.54 C 0 km/h
2929 21-12-2010 04:00:00 -2.14 C 3.67 g/m*3 -2.14 C 0 km/h
2930 21-12-2010 05:00:00 -1.88 C 3.76 g/m*3 -1.88 C 0 km/h
2931 21-12-2010 06:00:00 -1.78 C 3.81 g/m*3 -1.78 C 0 km/h
2932 21-12-2010 07:00:00 -1.7 C 3.83 g/m*3 -1.7 C 0 km/h
2933 21-12-2010 08:00:00 -1.64 C 3.85 g/m*3 -1.64 C 0 km/h
2934 21-12-2010 09:00:00 -1.24 C 3.91 g/m*3 -1.24 C 0 km/h
2935 21-12-2010 10:00:00 -0.6 C 3.91 g/m*3 -0.6 C 0 km/h
2936 21-12-2010 11:00:00 0.5 C 3.98 g/m*3 0.5 C 0 km/h
2937 21-12-2010 12:00:00 1.14 C 3.97 g/m*3 1.14 C 0 km/h
2938 21-12-2010 13:00:00 1.44 C 4.12 g/m*3 1.44 C 0 km/h
2939 21-12-2010 14:00:00 1.24 C 4.06 g/m*3 1.24 C 0 km/h
2940 21-12-2010 15:00:00 1.18 C 4.18 g/m*3 1.18 C 0 km/h
2941 21-12-2010 16:00:00 0.58 C 4.2 g/m*3 0.58 C 0 km/h
2942 21-12-2010 17:00:00 0.16 C 4.28 g/m*3 0.16 C 0 km/h
2943 21-12-2010 18:00:00 0.18 C 4.38 g/m*3 0.18 C 0 km/h
2944 21-12-2010 19:00:00 0.12 C 4.4 g/m*3 0.12 C 0 km/h
2945 21-12-2010 20:00:00 0.12 C 4.4 g/m*3 0.12 C 0 km/h
2946 21-12-2010 21:00:00 0.12 C 4.45 g/m*3 0.12 C 0 km/h
2947 21-12-2010 22:00:00 0.15 C 4.45 g/m*3 0.15 C 0 km/h
2948 21-12-2010 23:00:00 0.12 C 4.45 g/m*3 0.12 C 0 km/h
2949 22-12-2010 00:00:00 0.1 C 4.48 g/m*3 0.1 C 0 km/h
2950 22-12-2010 01:00:00 0.16 C 4.51 g/m*3 0.16 C 0 km/h
Sensor: Nr:Datum:Temp:Abs-Feuchte:Windchill:Wind:
Aussen-T/F 2951 22-12-2010 02:00:00 0.2 C 4.52 g/m*3 0.2 C 0 km/h
2952 22-12-2010 03:00:00 0.16 C 4.51 g/m*3 0.16 C 0 km/h
2953 22-12-2010 04:00:00 0.28 C 4.54 g/m*3 0.28 C 0 km/h
2954 22-12-2010 05:00:00 0.3 C 4.55 g/m*3 0.3 C 0 km/h
2955 22-12-2010 06:00:00 0.3 C 4.55 g/m*3 0.3 C 0 km/h
2956 22-12-2010 07:00:00 0.3 C 4.57 g/m*3 0.3 C 0 km/h
2957 22-12-2010 08:00:00 0.34 C 4.61 g/m*3 0.34 C 0 km/h
2958 22-12-2010 09:00:00 0.7 C 4.73 g/m*3 0.7 C 0 km/h
2959 22-12-2010 10:00:00 1.38 C 4.9 g/m*3 1.38 C 0 km/h
2960 22-12-2010 11:00:00 2.3 C 5.02 g/m*3 2.3 C 0 km/h
2961 22-12-2010 12:00:00 2.76 C 4.89 g/m*3 2.76 C 0 km/h
2962 22-12-2010 13:00:00 2.38 C 4.73 g/m*3 2.38 C 0 km/h
2963 22-12-2010 14:00:00 2.4 C 4.76 g/m*3 2.4 C 0 km/h
2964 22-12-2010 15:00:00 1.66 C 4.59 g/m*3 1.66 C 0 km/h
2965 22-12-2010 16:00:00 1.16 C 4.6 g/m*3 1.16 C 0 km/h
2966 22-12-2010 17:00:00 0.8 C 4.6 g/m*3 0.8 C 0 km/h
2967 22-12-2010 18:00:00 0.7 C 4.63 g/m*3 0.7 C 0 km/h
2968 22-12-2010 19:00:00 0.78 C 4.7 g/m*3 0.78 C 0 km/h
2969 22-12-2010 20:00:00 0.78 C 4.7 g/m*3 0.78 C 0 km/h
2970 22-12-2010 21:00:00 0.8 C 4.71 g/m*3 0.8 C 0 km/h
2971 22-12-2010 22:00:00 0.7 C 4.68 g/m*3 0.7 C 0 km/h
2972 22-12-2010 23:00:00 0.7 C 4.68 g/m*3 0.7 C 0 km/h
2973 23-12-2010 00:00:00 0.76 C 4.74 g/m*3 0.76 C 0 km/h
2974 23-12-2010 01:00:00 0.7 C 4.73 g/m*3 0.7 C 0 km/h
2975 23-12-2010 02:00:00 0.7 C 4.73 g/m*3 0.7 C 0 km/h
Sensor: Nr:Datum:Temp:Abs-Feuchte:Windchill:Wind:
Aussen-T/F 2976 23-12-2010 03:00:00 0.7 C 4.73 g/m*3 0.7 C 0 km/h
2977 23-12-2010 04:00:00 0.66 C 4.72 g/m*3 0.66 C 0 km/h
2978 23-12-2010 05:00:00 0.48 C 4.66 g/m*3 0.48 C 0 km/h
2979 23-12-2010 06:00:00 0.34 C 4.61 g/m*3 0.34 C 0 km/h
2980 23-12-2010 07:00:00 0 C 4.51 g/m*3 0 C 0 km/h
2981 23-12-2010 08:00:00 -0.32 C 4.39 g/m*3 -0.32 C 0 km/h
2982 23-12-2010 09:00:00 -0.5 C 4.31 g/m*3 -0.5 C 0 km/h
2983 23-12-2010 10:00:00 -0.54 C 4.27 g/m*3 -0.54 C 0 km/h
2984 23-12-2010 11:00:00 -0.58 C 4.19 g/m*3 -0.58 C 0 km/h
2985 23-12-2010 12:00:00 -0.68 C 4.06 g/m*3 -0.68 C 0 km/h
2986 23-12-2010 13:00:00 -0.66 C 4 g/m*3 -0.66 C 0 km/h
2987 23-12-2010 14:00:00 -0.62 C 3.99 g/m*3 -0.62 C 0 km/h
2988 23-12-2010 15:00:00 -0.86 C 3.93 g/m*3 -0.86 C 0 km/h
2989 23-12-2010 16:00:00 -0.9 C 3.96 g/m*3 -0.9 C 0 km/h
2990 23-12-2010 17:00:00 -1.02 C 3.93 g/m*3 -1.02 C 0 km/h
2991 23-12-2010 18:00:00 -1.14 C 3.89 g/m*3 -1.14 C 0 km/h
2992 23-12-2010 19:00:00 -1.26 C 3.84 g/m*3 -1.26 C 0 km/h
2993 23-12-2010 20:00:00 -1.26 C 3.84 g/m*3 -1.26 C 0 km/h
2994 23-12-2010 21:00:00 -1.1 C 3.86 g/m*3 -1.1 C 0 km/h
2995 23-12-2010 22:00:00 -0.94 C 3.92 g/m*3 -0.94 C 0 km/h
2996 23-12-2010 23:00:00 -0.8 C 3.98 g/m*3 -0.8 C 0 km/h
2997 24-12-2010 00:00:00 -0.9 C 3.91 g/m*3 -0.9 C 0 km/h
2998 24-12-2010 01:00:00 -0.74 C 3.98 g/m*3 -0.74 C 0 km/h
2999 24-12-2010 02:00:00 -0.5 C 4.03 g/m*3 -0.5 C 0 km/h
3000 24-12-2010 03:00:00 -0.48 C 4.03 g/m*3 -0.48 C 0 km/h
Sensor: Nr:Datum:Temp:Abs-Feuchte:Windchill:Wind:
Aussen-T/F 3001 24-12-2010 04:00:00 -0.5 C 4.03 g/m*3 -0.5 C 0 km/h
3002 24-12-2010 05:00:00 -0.74 C 3.91 g/m*3 -0.74 C 0 km/h
3003 24-12-2010 06:00:00 -0.96 C 3.79 g/m*3 -0.96 C 0 km/h
3004 24-12-2010 07:00:00 -1.2 C 3.64 g/m*3 -1.2 C 0 km/h
3005 24-12-2010 08:00:00 -1.48 C 3.64 g/m*3 -1.48 C 0 km/h
3006 24-12-2010 09:00:00 -1.7 C 3.66 g/m*3 -1.7 C 0 km/h
3007 24-12-2010 10:00:00 -1.54 C 3.68 g/m*3 -1.54 C 0 km/h
3008 24-12-2010 11:00:00 -1.32 C 3.67 g/m*3 -1.32 C 0 km/h
3009 24-12-2010 12:00:00 -1.34 C 3.58 g/m*3 -1.34 C 0 km/h
3010 24-12-2010 13:00:00 -1.38 C 3.52 g/m*3 -1.38 C 0 km/h
3011 24-12-2010 14:00:00 -1.4 C 3.52 g/m*3 -1.4 C 0 km/h
3012 24-12-2010 15:00:00 -1.84 C 3.46 g/m*3 -1.84 C 0 km/h
3013 24-12-2010 16:00:00 -2.42 C 3.35 g/m*3 -2.42 C 0 km/h
3014 24-12-2010 17:00:00 -2.56 C 3.22 g/m*3 -2.56 C 0 km/h
3015 24-12-2010 18:00:00 -2.8 C 3.23 g/m*3 -2.8 C 0 km/h
3016 24-12-2010 19:00:00 -2.94 C 3.13 g/m*3 -2.94 C 0 km/h
3017 24-12-2010 20:00:00 -3.02 C 3.11 g/m*3 -3.02 C 0 km/h
3018 24-12-2010 21:00:00 -3.23333 C 3.06 g/m*3 -3.23 C 0 km/h
3019 24-12-2010 22:00:00 -3.56 C 3.02 g/m*3 -3.56 C 0 km/h
3020 24-12-2010 23:00:00 -3.74 C 2.98 g/m*3 -3.74 C 0 km/h
3021 25-12-2010 00:00:00 -3.82 C 2.94 g/m*3 -3.82 C 0 km/h
3022 25-12-2010 01:00:00 -3.92 C 2.88 g/m*3 -3.92 C 0 km/h
3023 25-12-2010 02:00:00 -4.08 C 2.87 g/m*3 -4.08 C 0 km/h
3024 25-12-2010 03:00:00 -4.16 C 2.81 g/m*3 -4.16 C 0 km/h
3025 25-12-2010 04:00:00 -4.26 C 2.68 g/m*3 -4.26 C 0 km/h
Sensor: Nr:Datum:Temp:Abs-Feuchte:Windchill:Wind:
Aussen-T/F 3026 25-12-2010 05:00:00 -4.46 C 2.58 g/m*3 -4.46 C 0 km/h
3027 25-12-2010 06:00:00 -4.62 C 2.51 g/m*3 -4.62 C 0 km/h
3028 25-12-2010 07:00:00 -4.72 C 2.45 g/m*3 -4.72 C 0 km/h
3029 25-12-2010 08:00:00 -4.8 C 2.47 g/m*3 -4.8 C 0 km/h
3030 25-12-2010 09:00:00 -4.82 C 2.44 g/m*3 -4.82 C 0 km/h
3031 25-12-2010 10:00:00 -4.58 C 2.36 g/m*3 -4.58 C 0 km/h
3032 25-12-2010 11:00:00 -4.5 C 2.18 g/m*3 -4.5 C 0 km/h
3033 25-12-2010 12:00:00 -4.98 C 2.07 g/m*3 -4.98 C 0 km/h
3034 25-12-2010 13:00:00 -4.72 C 2.18 g/m*3 -4.72 C 0 km/h
3035 25-12-2010 14:00:00 -4.92 C 2.1 g/m*3 -4.92 C 0 km/h
3036 25-12-2010 15:00:00 -5.54 C 2.09 g/m*3 -5.54 C 0 km/h
3037 25-12-2010 16:00:00 -6.82 C 2.12 g/m*3 -6.82 C 0 km/h
3038 25-12-2010 17:00:00 -7.52 C 2.13 g/m*3 -7.52 C 0 km/h
3039 25-12-2010 18:00:00 -7.46 C 2.17 g/m*3 -7.46 C 0 km/h
3040 25-12-2010 19:00:00 -7.4 C 2.17 g/m*3 -7.4 C 0 km/h
3041 25-12-2010 20:00:00 -8.34 C 2.11 g/m*3 -8.34 C 0 km/h
3042 25-12-2010 21:00:00 -7.4 C 2.32 g/m*3 -7.4 C 0 km/h
3043 25-12-2010 22:00:00 -6.8 C 2.31 g/m*3 -6.8 C 0 km/h
3044 25-12-2010 23:00:00 -6.82 C 2.18 g/m*3 -6.82 C 0 km/h
3045 26-12-2010 00:00:00 -7.08 C 2.12 g/m*3 -7.08 C 0 km/h
3046 26-12-2010 01:00:00 -8 C 1.99 g/m*3 -8 C 0 km/h
3047 26-12-2010 02:00:00 -8.78 C 1.88 g/m*3 -8.78 C 0 km/h
3048 26-12-2010 03:00:00 -9.04 C 1.82 g/m*3 -9.04 C 0 km/h
3049 26-12-2010 04:00:00 -9.04 C 1.85 g/m*3 -9.04 C 0 km/h
3050 26-12-2010 05:00:00 -8.44 C 1.94 g/m*3 -8.44 C 0 km/h
Sensor: Nr:Datum:Temp:Abs-Feuchte:Windchill:Wind:
Aussen-T/F 3051 26-12-2010 06:00:00 -7.24 C 2.11 g/m*3 -7.24 C 0 km/h
3052 26-12-2010 07:00:00 -6.34 C 2.24 g/m*3 -6.34 C 0 km/h
3053 26-12-2010 08:00:00 -5.84 C 2.36 g/m*3 -5.84 C 0 km/h
3054 26-12-2010 09:00:00 -4.88 C 2.6 g/m*3 -4.88 C 0 km/h
3055 26-12-2010 10:00:00 -4.24 C 2.68 g/m*3 -4.24 C 0 km/h
3056 26-12-2010 11:00:00 -3.52 C 2.69 g/m*3 -3.52 C 0 km/h
3057 26-12-2010 12:00:00 -3.14 C 2.78 g/m*3 -3.14 C 0 km/h
3058 26-12-2010 13:00:00 -2.72 C 2.85 g/m*3 -2.72 C 0 km/h
3059 26-12-2010 14:00:00 -2.66 C 3 g/m*3 -2.66 C 0 km/h
3060 26-12-2010 15:00:00 -2.72 C 3.13 g/m*3 -2.72 C 0 km/h
3061 26-12-2010 16:00:00 -2.86 C 3.16 g/m*3 -2.86 C 0 km/h
3062 26-12-2010 17:00:00 -2.82 C 3.17 g/m*3 -2.82 C 0 km/h
3063 26-12-2010 18:00:00 -2.9 C 3.17 g/m*3 -2.9 C 0 km/h
3064 26-12-2010 19:00:00 -2.72 C 3.18 g/m*3 -2.72 C 0 km/h
3065 26-12-2010 20:00:00 -3.04 C 3.16 g/m*3 -3.04 C 0 km/h
3066 26-12-2010 21:00:00 -3.3 C 3.08 g/m*3 -3.3 C 0 km/h
3067 26-12-2010 22:00:00 -3.04 C 3.13 g/m*3 -3.04 C 0 km/h
3068 26-12-2010 23:00:00 -2.72 C 3.18 g/m*3 -2.72 C 0 km/h
3069 27-12-2010 00:00:00 -2.64 C 3.22 g/m*3 -2.64 C 0 km/h
3070 27-12-2010 01:00:00 -1.92 C 3.31 g/m*3 -1.92 C 0 km/h
3071 27-12-2010 02:00:00 -1.6 C 3.35 g/m*3 -1.6 C 0 km/h
3072 27-12-2010 03:00:00 -1.38 C 3.41 g/m*3 -1.38 C 0 km/h
3073 27-12-2010 04:00:00 -1.3 C 3.36 g/m*3 -1.3 C 0 km/h
3074 27-12-2010 05:00:00 -1.32 C 3.37 g/m*3 -1.32 C 0 km/h
3075 27-12-2010 06:00:00 -1.44 C 3.38 g/m*3 -1.44 C 0 km/h
Sensor: Nr:Datum:Temp:Abs-Feuchte:Windchill:Wind:
Aussen-T/F 3076 27-12-2010 07:00:00 -1.62 C 3.33 g/m*3 -1.62 C 0 km/h
3077 27-12-2010 08:00:00 -1.86 C 3.29 g/m*3 -1.86 C 0 km/h
3078 27-12-2010 09:00:00 -1.78 C 3.24 g/m*3 -1.78 C 0 km/h
3079 27-12-2010 10:00:00 -1.42 C 3.27 g/m*3 -1.42 C 0 km/h
3080 27-12-2010 11:00:00 -1.16 C 3.26 g/m*3 -1.16 C 0 km/h
3081 27-12-2010 12:00:00 -1.02 C 3.22 g/m*3 -1.02 C 0 km/h
3082 27-12-2010 13:00:00 -0.88 C 3.29 g/m*3 -0.88 C 0 km/h
3083 27-12-2010 14:00:00 -1.04 C 3.27 g/m*3 -1.04 C 0 km/h
3084 27-12-2010 15:00:00 -1.3 C 3.33 g/m*3 -1.3 C 0 km/h
3085 27-12-2010 16:00:00 -2.3 C 3.25 g/m*3 -2.3 C 0 km/h
3086 27-12-2010 17:00:00 -3.16 C 3.25 g/m*3 -3.16 C 0 km/h
3087 27-12-2010 18:00:00 -3.18 C 3.34 g/m*3 -3.18 C 0 km/h
3088 27-12-2010 19:00:00 -3.74 C 3.21 g/m*3 -3.74 C 0 km/h
3089 27-12-2010 20:00:00 -4.3 C 3.12 g/m*3 -4.3 C 0 km/h
3090 27-12-2010 21:00:00 -4.4 C 3.1 g/m*3 -4.4 C 0 km/h
3091 27-12-2010 22:00:00 -4.14 C 3.16 g/m*3 -4.14 C 0 km/h
3092 27-12-2010 23:00:00 -4.34 C 3.11 g/m*3 -4.34 C 0 km/h
3093 28-12-2010 00:00:00 -4.46 C 3.08 g/m*3 -4.46 C 0 km/h
3094 28-12-2010 01:00:00 -4.3 C 3.12 g/m*3 -4.3 C 0 km/h
3095 28-12-2010 02:00:00 -4.16 C 3.15 g/m*3 -4.16 C 0 km/h
3096 28-12-2010 03:00:00 -4.36 C 3.08 g/m*3 -4.36 C 0 km/h
3097 28-12-2010 04:00:00 -4.16 C 3.15 g/m*3 -4.16 C 0 km/h
3098 28-12-2010 05:00:00 -3.78 C 3.23 g/m*3 -3.78 C 0 km/h
3099 28-12-2010 06:00:00 -3.74 C 3.24 g/m*3 -3.74 C 0 km/h
3100 28-12-2010 07:00:00 -3.72 C 3.22 g/m*3 -3.72 C 0 km/h
Sensor: Nr:Datum:Temp:Abs-Feuchte:Windchill:Wind:
Aussen-T/F 3101 28-12-2010 08:00:00 -3.56 C 3.25 g/m*3 -3.56 C 0 km/h
3102 28-12-2010 09:00:00 -2.68 C 3.44 g/m*3 -2.68 C 0 km/h
3103 28-12-2010 10:00:00 -1.12 C 3.61 g/m*3 -1.12 C 0 km/h
3104 28-12-2010 11:00:00 -0.54 C 3.46 g/m*3 -0.54 C 0 km/h
3105 28-12-2010 12:00:00 0.3 C 3.31 g/m*3 0.3 C 0 km/h
3106 28-12-2010 13:00:00 0.36 C 3.32 g/m*3 0.36 C 0 km/h
3107 28-12-2010 14:00:00 0 C 3.33 g/m*3 0 C 0 km/h
3108 28-12-2010 15:00:00 -0.54 C 3.42 g/m*3 -0.54 C 0 km/h
3109 28-12-2010 16:00:00 -0.68 C 3.39 g/m*3 -0.68 C 0 km/h
3110 28-12-2010 17:00:00 -0.7 C 3.42 g/m*3 -0.7 C 0 km/h
3111 28-12-2010 18:00:00 -0.88 C 3.38 g/m*3 -0.88 C 0 km/h
3112 28-12-2010 19:00:00 -1.2 C 3.45 g/m*3 -1.2 C 0 km/h
3113 28-12-2010 20:00:00 -1.4 C 3.43 g/m*3 -1.4 C 0 km/h
3114 28-12-2010 21:00:00 -1.86 C 3.4 g/m*3 -1.86 C 0 km/h
3115 28-12-2010 22:00:00 -1.275 C 3.59 g/m*3 -1.27 C 0 km/h
3116 28-12-2010 23:00:00 -1.28 C 3.58 g/m*3 -1.28 C 0 km/h
3117 29-12-2010 00:00:00 -1.32 C 3.56 g/m*3 -1.32 C 0 km/h
3118 29-12-2010 01:00:00 -1.3 C 3.62 g/m*3 -1.3 C 0 km/h
3119 29-12-2010 02:00:00 -1.3 C 3.64 g/m*3 -1.3 C 0 km/h
3120 29-12-2010 03:00:00 -1.22 C 3.68 g/m*3 -1.22 C 0 km/h
3121 29-12-2010 04:00:00 -1.28 C 3.66 g/m*3 -1.28 C 0 km/h
3122 29-12-2010 05:00:00 -1.3 C 3.67 g/m*3 -1.3 C 0 km/h
3123 29-12-2010 06:00:00 -1.2 C 3.73 g/m*3 -1.2 C 0 km/h
3124 29-12-2010 07:00:00 -1.1 C 3.79 g/m*3 -1.1 C 0 km/h
3125 29-12-2010 08:00:00 -1.1 C 3.83 g/m*3 -1.1 C 0 km/h
Sensor: Nr:Datum:Temp:Abs-Feuchte:Windchill:Wind:
Aussen-T/F 3126 29-12-2010 09:00:00 -0.74 C 3.88 g/m*3 -0.74 C 0 km/h
3127 29-12-2010 10:00:00 0.14 C 3.75 g/m*3 0.14 C 0 km/h
3128 29-12-2010 11:00:00 0.58 C 3.6 g/m*3 0.58 C 0 km/h
3129 29-12-2010 12:00:00 0.88 C 3.58 g/m*3 0.88 C 0 km/h
3130 29-12-2010 13:00:00 1.34 C 3.61 g/m*3 1.34 C 0 km/h
3131 29-12-2010 14:00:00 1.76 C 3.66 g/m*3 1.76 C 0 km/h
3132 29-12-2010 15:00:00 1.18 C 3.73 g/m*3 1.18 C 0 km/h
3133 29-12-2010 16:00:00 0.62 C 3.85 g/m*3 0.62 C 0 km/h
3134 29-12-2010 17:00:00 0.28 C 3.85 g/m*3 0.28 C 0 km/h
3135 29-12-2010 18:00:00 0.14 C 3.89 g/m*3 0.14 C 0 km/h
3136 29-12-2010 19:00:00 0.06 C 3.97 g/m*3 0.06 C 0 km/h
3137 29-12-2010 20:00:00 -0.04 C 3.96 g/m*3 -0.04 C 0 km/h
3138 29-12-2010 21:00:00 -0.18 C 3.92 g/m*3 -0.18 C 0 km/h
3139 29-12-2010 22:00:00 -0.32 C 3.84 g/m*3 -0.32 C 0 km/h
3140 29-12-2010 23:00:00 -0.7 C 3.79 g/m*3 -0.7 C 0 km/h
3141 30-12-2010 00:00:00 -0.925 C 3.79 g/m*3 -0.93 C 0 km/h
3142 30-12-2010 01:00:00 -1.32 C 3.7 g/m*3 -1.32 C 0 km/h
3143 30-12-2010 02:00:00 -1.46 C 3.75 g/m*3 -1.46 C 0 km/h
3144 30-12-2010 03:00:00 -1.14 C 3.85 g/m*3 -1.14 C 0 km/h
3145 30-12-2010 04:00:00 -1.14 C 3.76 g/m*3 -1.14 C 0 km/h
3146 30-12-2010 05:00:00 -2.82 C 3.25 g/m*3 -2.82 C 0 km/h
3147 30-12-2010 06:00:00 -1.24 C 3.53 g/m*3 -1.24 C 0 km/h
3148 30-12-2010 07:00:00 -1.34 C 3.44 g/m*3 -1.34 C 0 km/h
3149 30-12-2010 08:00:00 -1.4 C 3.45 g/m*3 -1.4 C 0 km/h
3150 30-12-2010 09:00:00 -1.1 C 3.47 g/m*3 -1.1 C 0 km/h
Sensor: Nr:Datum:Temp:Abs-Feuchte:Windchill:Wind:
Aussen-T/F 3151 30-12-2010 10:00:00 -0.45 C 3.46 g/m*3 -0.45 C 0 km/h
3152 30-12-2010 11:00:00 0.08 C 3.53 g/m*3 0.08 C 0 km/h
3153 30-12-2010 12:00:00 0.6 C 3.59 g/m*3 0.6 C 0 km/h
3154 30-12-2010 13:00:00 1.2 C 3.59 g/m*3 1.2 C 0 km/h
3155 30-12-2010 14:00:00 1.32 C 3.61 g/m*3 1.32 C 0 km/h
3156 30-12-2010 15:00:00 0.98 C 3.67 g/m*3 0.98 C 0 km/h
3157 30-12-2010 16:00:00 0.3 C 3.73 g/m*3 0.3 C 0 km/h
3158 30-12-2010 17:00:00 0.04 C 3.74 g/m*3 0.04 C 0 km/h
3159 30-12-2010 18:00:00 -0.3 C 3.68 g/m*3 -0.3 C 0 km/h
3160 30-12-2010 19:00:00 -0.44 C 3.75 g/m*3 -0.44 C 0 km/h
3161 30-12-2010 20:00:00 -0.48 C 3.71 g/m*3 -0.48 C 0 km/h
3162 30-12-2010 21:00:00 -0.6 C 3.63 g/m*3 -0.6 C 0 km/h
3163 30-12-2010 22:00:00 -0.78 C 3.59 g/m*3 -0.78 C 0 km/h
3164 30-12-2010 23:00:00 -0.96 C 3.51 g/m*3 -0.96 C 0 km/h
3165 31-12-2010 00:00:00 -1.1 C 3.49 g/m*3 -1.1 C 0 km/h
3166 31-12-2010 01:00:00 -1.14 C 3.54 g/m*3 -1.14 C 0 km/h
3167 31-12-2010 02:00:00 -1.34 C 3.49 g/m*3 -1.34 C 0 km/h
3168 31-12-2010 03:00:00 -1.76 C 3.4 g/m*3 -1.76 C 0 km/h
3169 31-12-2010 04:00:00 -1.98 C 3.38 g/m*3 -1.98 C 0 km/h
3170 31-12-2010 05:00:00 -2.12 C 3.34 g/m*3 -2.12 C 0 km/h
3171 31-12-2010 06:00:00 -2.26 C 3.29 g/m*3 -2.26 C 0 km/h
3172 31-12-2010 07:00:00 -2.12 C 3.36 g/m*3 -2.12 C 0 km/h
3173 31-12-2010 08:00:00 -2.12 C 3.39 g/m*3 -2.12 C 0 km/h
3174 31-12-2010 09:00:00 -2.18 C 3.35 g/m*3 -2.18 C 0 km/h
3175 31-12-2010 10:00:00 -1.9 C 3.35 g/m*3 -1.9 C 0 km/h
Sensor: Nr:Datum:Temp:Abs-Feuchte:Windchill:Wind:
Aussen-T/F 3176 31-12-2010 11:00:00 -1.22 C 3.38 g/m*3 -1.22 C 0 km/h
3177 31-12-2010 12:00:00 -0.92 C 3.41 g/m*3 -0.92 C 0 km/h
3178 31-12-2010 13:00:00 -0.18 C 3.46 g/m*3 -0.18 C 0 km/h
3179 31-12-2010 14:00:00 0.24 C 3.37 g/m*3 0.24 C 0 km/h
3180 31-12-2010 15:00:00 -0.34 C 3.43 g/m*3 -0.34 C 0 km/h
3181 31-12-2010 16:00:00 -0.56 C 3.52 g/m*3 -0.56 C 0 km/h
3182 31-12-2010 17:00:00 -0.6 C 3.63 g/m*3 -0.6 C 0 km/h
3183 31-12-2010 18:00:00 -0.54 C 3.76 g/m*3 -0.54 C 0 km/h
3184 31-12-2010 19:00:00 -0.6 C 3.82 g/m*3 -0.6 C 0 km/h
3185 31-12-2010 20:00:00 -0.64 C 3.94 g/m*3 -0.64 C 0 km/h
3186 31-12-2010 21:00:00 -0.58 C 4.02 g/m*3 -0.58 C 0 km/h
3187 31-12-2010 22:00:00 -0.38 C 4.11 g/m*3 -0.38 C 0 km/h
3188 31-12-2010 23:00:00 -0.325 C 4.12 g/m*3 -0.33 C 0 km/h
3189 01-01-2011 00:00:00 -0.32 C 4.12 g/m*3 -0.32 C 0 km/h
3190 01-01-2011 01:00:00 -0.28 C 4.18 g/m*3 -0.28 C 0 km/h
3191 01-01-2011 02:00:00 -0.14 C 4.22 g/m*3 -0.14 C 0 km/h
3192 01-01-2011 03:00:00 -0.13333 C 4.22 g/m*3 -0.13 C 0 km/h
3193 01-01-2011 04:00:00 -0.2 C 4.21 g/m*3 -0.2 C 0 km/h
3194 01-01-2011 05:00:00 -0.02 C 4.3 g/m*3 -0.02 C 0 km/h
3195 01-01-2011 06:00:00 0.36 C 4.29 g/m*3 0.36 C 0 km/h
3196 01-01-2011 07:00:00 0.5 C 4.25 g/m*3 0.5 C 0 km/h
3197 01-01-2011 08:00:00 0.82 C 4.3 g/m*3 0.82 C 0 km/h
3198 01-01-2011 09:00:00 1.08 C 4.38 g/m*3 1.08 C 0 km/h
3199 01-01-2011 10:00:00 1.36 C 4.59 g/m*3 1.36 C 0 km/h
3200 01-01-2011 11:00:00 1.94 C 4.68 g/m*3 1.94 C 0 km/h
Sensor: Nr:Datum:Temp:Abs-Feuchte:Windchill:Wind:
Aussen-T/F 3201 01-01-2011 12:00:00 2.44 C 4.63 g/m*3 2.44 C 0 km/h
3202 01-01-2011 13:00:00 2.92 C 4.62 g/m*3 2.92 C 0 km/h
3203 01-01-2011 14:00:00 2.54 C 4.63 g/m*3 2.54 C 0 km/h
3204 01-01-2011 15:00:00 2.02 C 4.64 g/m*3 2.02 C 0 km/h
3205 01-01-2011 16:00:00 1.58 C 4.73 g/m*3 1.58 C 0 km/h
3206 01-01-2011 17:00:00 1.34 C <